Time,TemperatureF,DewpointF,PressureIn,WindDirection,WindDirectionDegrees,WindSpeedMPH,WindSpeedGustMPH,Humidity,HourlyPrecipIn,Conditions,Clouds,dailyrainin,SoftwareType,DateUTC
2013-02-06 00:01:00,58.9,42.8,30.00,South,180,1.3,1.3,55,0.00,,---,0.00,VWS V14.01,2013-02-06 06:01:00,
2013-02-06 00:03:00,58.7,43.1,30.00,South,180,0.0,0.0,56,0.00,,---,0.00,VWS V14.01,2013-02-06 06:03:00,
2013-02-06 00:04:00,58.9,43.3,30.00,SSE,158,1.3,1.3,56,0.00,,---,0.00,VWS V14.01,2013-02-06 06:04:00,
2013-02-06 00:05:00,59.1,43.4,30.00,SSE,158,0.9,1.3,56,0.00,,---,0.00,VWS V14.01,2013-02-06 06:05:00,
2013-02-06 00:06:00,59.1,43.4,30.00,South,180,0.0,1.6,56,0.00,,---,0.00,VWS V14.01,2013-02-06 06:06:00,
2013-02-06 00:07:00,58.9,43.3,30.00,South,180,0.0,0.0,56,0.00,,---,0.00,VWS V14.01,2013-02-06 06:07:00,
2013-02-06 00:08:00,58.6,42.9,29.97,South,180,0.0,0.0,56,0.00,,---,0.00,VWS V14.01,2013-02-06 06:08:00,
2013-02-06 00:09:00,58.9,43.3,30.00,South,180,0.0,0.9,56,0.00,,---,0.00,VWS V14.01,2013-02-06 06:09:00,
2013-02-06 00:10:00,58.9,43.3,30.00,South,180,0.0,0.0,56,0.00,,---,0.00,VWS V14.01,2013-02-06 06:10:00,
2013-02-06 00:11:00,58.9,43.3,30.00,South,180,0.0,1.3,56,0.00,,---,0.00,VWS V14.01,2013-02-06 06:11:00,
2013-02-06 00:12:00,58.9,43.3,30.00,South,180,0.0,0.0,56,0.00,,---,0.00,VWS V14.01,2013-02-06 06:12:00,
2013-02-06 00:13:00,58.2,42.6,29.97,South,180,0.0,0.0,56,0.00,,---,0.00,VWS V14.01,2013-02-06 06:13:00,
2013-02-06 00:14:00,58.7,43.1,30.00,South,180,0.0,0.0,56,0.00,,---,0.00,VWS V14.01,2013-02-06 06:14:00,
2013-02-06 00:15:00,58.7,43.1,30.00,South,180,0.0,0.0,56,0.00,,---,0.00,VWS V14.01,2013-02-06 06:15:00,
2013-02-06 00:17:00,58.6,42.9,29.97,South,180,0.0,0.0,56,0.00,,---,0.00,VWS V14.01,2013-02-06 06:17:00,
2013-02-06 00:18:00,58.2,42.6,29.97,East,90,0.0,0.0,56,0.00,,---,0.00,VWS V14.01,2013-02-06 06:18:00,
2013-02-06 00:19:00,58.6,42.9,29.97,South,180,0.0,0.0,56,0.00,,---,0.00,VWS V14.01,2013-02-06 06:19:00,
2013-02-06 00:20:00,58.4,42.8,29.97,South,180,0.0,0.0,56,0.00,,---,0.00,VWS V14.01,2013-02-06 06:20:00,
2013-02-06 00:21:00,58.4,42.8,29.97,South,180,0.0,0.0,56,0.00,,---,0.00,VWS V14.01,2013-02-06 06:21:00,
2013-02-06 00:22:00,58.4,42.8,29.97,South,180,0.0,0.0,56,0.00,,---,0.00,VWS V14.01,2013-02-06 06:22:00,
2013-02-06 00:23:00,58.4,42.8,30.00,NNE,22,2.0,2.0,56,0.00,,---,0.00,VWS V14.01,2013-02-06 06:23:00,
2013-02-06 00:24:00,58.2,42.6,29.97,South,180,0.0,0.0,56,0.00,,---,0.00,VWS V14.01,2013-02-06 06:24:00,
2013-02-06 00:25:00,58.2,42.6,29.97,South,180,0.0,0.0,56,0.00,,---,0.00,VWS V14.01,2013-02-06 06:25:00,
2013-02-06 00:26:00,58.2,42.6,29.97,South,180,0.0,0.0,56,0.00,,---,0.00,VWS V14.01,2013-02-06 06:26:00,
2013-02-06 00:27:00,58.2,42.6,29.97,South,180,0.0,0.0,56,0.00,,---,0.00,VWS V14.01,2013-02-06 06:27:00,
2013-02-06 00:28:00,58.7,43.6,30.00,NE,45,1.6,2.2,57,0.00,,---,0.00,VWS V14.01,2013-02-06 06:28:00,
2013-02-06 00:29:00,58.2,42.6,29.97,East,90,0.0,0.0,56,0.00,,---,0.00,VWS V14.01,2013-02-06 06:29:00,
2013-02-06 00:30:00,58.2,42.6,29.97,NE,45,0.0,1.1,56,0.00,,---,0.00,VWS V14.01,2013-02-06 06:30:00,
2013-02-06 00:31:00,58.2,42.6,29.97,NNE,22,0.0,0.0,56,0.00,,---,0.00,VWS V14.01,2013-02-06 06:31:00,
2013-02-06 00:32:00,58.2,42.6,30.00,NE,45,0.0,0.0,56,0.00,,---,0.00,VWS V14.01,2013-02-06 06:32:00,
2013-02-06 00:33:00,58.7,43.6,30.00,ENE,68,0.0,1.3,57,0.00,,---,0.00,VWS V14.01,2013-02-06 06:33:00,
2013-02-06 00:34:00,58.4,42.8,30.00,NNE,22,2.0,2.0,56,0.00,,---,0.00,VWS V14.01,2013-02-06 06:34:00,
2013-02-06 00:35:00,58.6,42.9,30.00,North,0,2.5,2.5,56,0.00,,---,0.00,VWS V14.01,2013-02-06 06:35:00,
2013-02-06 00:36:00,58.6,43.4,30.00,NNE,22,3.6,3.6,57,0.00,,---,0.00,VWS V14.01,2013-02-06 06:36:00,
2013-02-06 00:37:00,58.6,43.4,30.00,NNE,22,2.5,3.6,57,0.00,,---,0.00,VWS V14.01,2013-02-06 06:37:00,
2013-02-06 00:38:00,58.9,43.7,29.97,ENE,68,1.6,1.6,57,0.00,,---,0.00,VWS V14.01,2013-02-06 06:38:00,
2013-02-06 00:39:00,58.7,43.6,30.00,NE,45,1.6,2.2,57,0.00,,---,0.00,VWS V14.01,2013-02-06 06:39:00,
2013-02-06 00:40:00,58.7,43.6,30.00,NE,45,1.1,1.6,57,0.00,,---,0.00,VWS V14.01,2013-02-06 06:40:00,
2013-02-06 00:41:00,58.7,43.6,30.00,NE,45,1.1,1.6,57,0.00,,---,0.00,VWS V14.01,2013-02-06 06:41:00,
2013-02-06 00:42:00,58.7,43.6,30.00,NE,45,0.0,1.1,57,0.00,,---,0.00,VWS V14.01,2013-02-06 06:42:00,
2013-02-06 00:43:00,58.9,43.7,29.97,SE,135,2.0,2.0,57,0.00,,---,0.00,VWS V14.01,2013-02-06 06:43:00,
2013-02-06 00:44:00,58.7,43.6,30.00,ENE,68,0.0,1.3,57,0.00,,---,0.00,VWS V14.01,2013-02-06 06:44:00,
2013-02-06 00:45:00,58.7,43.6,30.00,ENE,68,2.7,2.7,57,0.00,,---,0.00,VWS V14.01,2013-02-06 06:45:00,
2013-02-06 00:46:00,58.7,43.6,30.00,NE,45,1.3,2.7,57,0.00,,---,0.00,VWS V14.01,2013-02-06 06:46:00,
2013-02-06 00:47:00,58.7,43.6,29.97,East,90,1.6,2.0,57,0.00,,---,0.00,VWS V14.01,2013-02-06 06:47:00,
2013-02-06 00:48:00,58.7,43.6,29.97,SE,135,2.0,2.0,57,0.00,,---,0.00,VWS V14.01,2013-02-06 06:48:00,
2013-02-06 00:49:00,58.9,43.7,29.97,ENE,68,1.6,1.6,57,0.00,,---,0.00,VWS V14.01,2013-02-06 06:49:00,
2013-02-06 00:50:00,58.9,43.7,29.97,SE,135,2.0,2.0,57,0.00,,---,0.00,VWS V14.01,2013-02-06 06:50:00,
2013-02-06 00:51:00,58.9,43.7,29.97,SE,135,2.0,2.0,57,0.00,,---,0.00,VWS V14.01,2013-02-06 06:51:00,
2013-02-06 00:52:00,58.9,43.7,29.97,SE,135,2.0,2.0,57,0.00,,---,0.00,VWS V14.01,2013-02-06 06:52:00,
2013-02-06 00:53:00,58.6,43.8,29.97,SE,135,2.0,2.0,58,0.00,,---,0.00,VWS V14.01,2013-02-06 06:53:00,
2013-02-06 00:54:00,58.9,43.7,29.97,SE,135,2.0,2.0,57,0.00,,---,0.00,VWS V14.01,2013-02-06 06:54:00,
2013-02-06 00:55:00,58.9,43.7,29.97,SE,135,2.0,2.0,57,0.00,,---,0.00,VWS V14.01,2013-02-06 06:55:00,
2013-02-06 00:56:00,58.9,43.7,29.97,SE,135,2.0,2.0,57,0.00,,---,0.00,VWS V14.01,2013-02-06 06:56:00,
2013-02-06 00:57:00,58.9,43.7,29.97,SE,135,2.0,2.0,57,0.00,,---,0.00,VWS V14.01,2013-02-06 06:57:00,
2013-02-06 00:58:00,58.2,43.5,29.97,SE,135,2.0,2.0,58,0.00,,---,0.00,VWS V14.01,2013-02-06 06:58:00,
2013-02-06 00:59:00,58.7,43.6,29.97,SE,135,2.0,2.0,57,0.00,,---,0.00,VWS V14.01,2013-02-06 06:59:00,
2013-02-06 01:00:00,58.7,43.6,29.97,SE,135,2.0,2.0,57,0.00,,---,0.00,VWS V14.01,2013-02-06 07:00:00,
2013-02-06 01:01:00,58.6,43.4,29.97,SE,135,2.0,2.0,57,0.00,,---,0.00,VWS V14.01,2013-02-06 07:01:00,
2013-02-06 01:02:00,58.6,43.4,29.97,SE,135,2.0,2.0,57,0.00,,---,0.00,VWS V14.01,2013-02-06 07:02:00,
2013-02-06 01:03:00,58.2,43.5,29.97,SE,135,2.0,2.0,58,0.00,,---,0.00,VWS V14.01,2013-02-06 07:03:00,
2013-02-06 01:04:00,58.6,43.8,29.97,SE,135,2.0,2.0,58,0.00,,---,0.00,VWS V14.01,2013-02-06 07:04:00,
2013-02-06 01:05:00,58.4,43.2,29.97,SE,135,2.0,2.0,57,0.00,,---,0.00,VWS V14.01,2013-02-06 07:05:00,
2013-02-06 01:06:00,58.2,43.5,29.97,SE,135,2.0,2.0,58,0.00,,---,0.00,VWS V14.01,2013-02-06 07:06:00,
2013-02-06 01:07:00,58.2,43.5,29.97,SE,135,2.0,2.0,58,0.00,,---,0.00,VWS V14.01,2013-02-06 07:07:00,
2013-02-06 01:08:00,58.0,43.3,29.97,SE,135,2.0,2.0,58,0.00,,---,0.00,VWS V14.01,2013-02-06 07:08:00,
2013-02-06 01:09:00,58.2,43.5,29.97,SE,135,2.0,2.0,58,0.00,,---,0.00,VWS V14.01,2013-02-06 07:09:00,
2013-02-06 01:10:00,58.2,43.5,29.97,SE,135,2.0,2.0,58,0.00,,---,0.00,VWS V14.01,2013-02-06 07:10:00,
2013-02-06 01:11:00,58.2,43.5,29.97,SE,135,2.0,2.0,58,0.00,,---,0.00,VWS V14.01,2013-02-06 07:11:00,
2013-02-06 01:12:00,58.2,43.5,29.97,SE,135,2.0,2.0,58,0.00,,---,0.00,VWS V14.01,2013-02-06 07:12:00,
2013-02-06 01:13:00,57.9,43.2,29.97,South,180,0.0,0.0,58,0.00,,---,0.00,VWS V14.01,2013-02-06 07:13:00,
2013-02-06 01:14:00,58.2,43.5,29.97,SE,135,2.0,2.0,58,0.00,,---,0.00,VWS V14.01,2013-02-06 07:14:00,
2013-02-06 01:15:00,58.0,43.3,29.97,SE,135,2.0,2.0,58,0.00,,---,0.00,VWS V14.01,2013-02-06 07:15:00,
2013-02-06 01:16:00,58.0,43.3,29.97,SE,135,2.0,2.0,58,0.00,,---,0.00,VWS V14.01,2013-02-06 07:16:00,
2013-02-06 01:17:00,58.0,43.3,29.97,SE,135,2.0,2.0,58,0.00,,---,0.00,VWS V14.01,2013-02-06 07:17:00,
2013-02-06 01:18:00,57.3,42.7,29.97,South,180,0.0,0.0,58,0.00,,---,0.00,VWS V14.01,2013-02-06 07:18:00,
2013-02-06 01:19:00,58.0,43.3,29.97,SE,135,2.0,2.0,58,0.00,,---,0.00,VWS V14.01,2013-02-06 07:19:00,
2013-02-06 01:20:00,58.0,43.3,29.97,SSE,158,0.0,2.0,58,0.00,,---,0.00,VWS V14.01,2013-02-06 07:20:00,
2013-02-06 01:21:00,57.9,43.2,29.97,WSW,248,0.0,0.0,58,0.00,,---,0.00,VWS V14.01,2013-02-06 07:21:00,
2013-02-06 01:22:00,57.9,43.2,29.97,South,180,0.0,0.0,58,0.00,,---,0.00,VWS V14.01,2013-02-06 07:22:00,
2013-02-06 01:23:00,57.3,43.1,29.97,South,180,0.0,0.0,59,0.00,,---,0.00,VWS V14.01,2013-02-06 07:23:00,
2013-02-06 01:24:00,57.9,43.2,29.97,South,180,0.0,0.0,58,0.00,,---,0.00,VWS V14.01,2013-02-06 07:24:00,
2013-02-06 01:25:00,57.7,43.0,29.97,South,180,0.0,0.0,58,0.00,,---,0.00,VWS V14.01,2013-02-06 07:25:00,
2013-02-06 01:26:00,57.7,43.0,29.97,South,180,0.0,0.0,58,0.00,,---,0.00,VWS V14.01,2013-02-06 07:26:00,
2013-02-06 01:27:00,57.7,43.0,29.97,South,180,0.0,0.0,58,0.00,,---,0.00,VWS V14.01,2013-02-06 07:27:00,
2013-02-06 01:28:00,57.3,43.6,29.97,South,180,0.0,0.0,60,0.00,,---,0.00,VWS V14.01,2013-02-06 07:28:00,
2013-02-06 01:29:00,57.3,42.7,29.97,South,180,0.0,0.0,58,0.00,,---,0.00,VWS V14.01,2013-02-06 07:29:00,
2013-02-06 01:30:00,57.3,42.7,29.97,South,180,0.0,0.0,58,0.00,,---,0.00,VWS V14.01,2013-02-06 07:30:00,
2013-02-06 01:31:00,57.3,42.7,29.97,South,180,0.0,0.0,58,0.00,,---,0.00,VWS V14.01,2013-02-06 07:31:00,
2013-02-06 01:32:00,57.3,43.1,29.97,South,180,0.0,0.0,59,0.00,,---,0.00,VWS V14.01,2013-02-06 07:32:00,
2013-02-06 01:33:00,57.0,43.2,29.97,South,180,0.0,0.0,60,0.00,,---,0.00,VWS V14.01,2013-02-06 07:33:00,
2013-02-06 01:34:00,57.3,43.1,29.97,South,180,0.0,0.0,59,0.00,,---,0.00,VWS V14.01,2013-02-06 07:34:00,
2013-02-06 01:35:00,57.3,43.6,29.97,South,180,0.0,0.0,60,0.00,,---,0.00,VWS V14.01,2013-02-06 07:35:00,
2013-02-06 01:36:00,57.3,44.0,29.97,South,180,0.0,0.0,61,0.00,,---,0.00,VWS V14.01,2013-02-06 07:36:00,
2013-02-06 01:37:00,57.3,44.4,29.97,South,180,0.0,0.0,62,0.00,,---,0.00,VWS V14.01,2013-02-06 07:37:00,
2013-02-06 01:38:00,56.8,43.1,29.97,South,180,0.0,0.0,60,0.00,,---,0.00,VWS V14.01,2013-02-06 07:38:00,
2013-02-06 01:40:00,57.2,43.4,29.97,South,180,0.0,0.0,60,0.00,,---,0.00,VWS V14.01,2013-02-06 07:40:00,
2013-02-06 01:41:00,57.2,43.4,29.97,South,180,0.0,0.0,60,0.00,,---,0.00,VWS V14.01,2013-02-06 07:41:00,
2013-02-06 01:42:00,57.0,43.2,29.97,South,180,0.0,0.0,60,0.00,,---,0.00,VWS V14.01,2013-02-06 07:42:00,
2013-02-06 01:43:00,56.4,43.2,29.97,South,180,0.0,0.0,61,0.00,,---,0.00,VWS V14.01,2013-02-06 07:43:00,
2013-02-06 01:44:00,57.0,43.2,29.97,South,180,0.0,0.0,60,0.00,,---,0.00,VWS V14.01,2013-02-06 07:44:00,
2013-02-06 01:45:00,56.8,43.1,29.97,South,180,0.0,0.0,60,0.00,,---,0.00,VWS V14.01,2013-02-06 07:45:00,
2013-02-06 01:46:00,56.8,43.1,29.97,South,180,0.0,0.0,60,0.00,,---,0.00,VWS V14.01,2013-02-06 07:46:00,
2013-02-06 01:47:00,56.8,43.1,29.97,South,180,0.0,0.0,60,0.00,,---,0.00,VWS V14.01,2013-02-06 07:47:00,
2013-02-06 01:48:00,56.1,42.8,29.97,South,180,0.0,0.0,61,0.00,,---,0.00,VWS V14.01,2013-02-06 07:48:00,
2013-02-06 01:49:00,56.8,43.1,29.97,South,180,0.0,0.0,60,0.00,,---,0.00,VWS V14.01,2013-02-06 07:49:00,
2013-02-06 01:50:00,56.6,42.9,29.97,South,180,0.0,0.0,60,0.00,,---,0.00,VWS V14.01,2013-02-06 07:50:00,
2013-02-06 01:51:00,56.4,43.2,29.97,South,180,0.0,0.0,61,0.00,,---,0.00,VWS V14.01,2013-02-06 07:51:00,
2013-02-06 01:52:00,56.4,43.2,29.97,South,180,0.0,0.0,61,0.00,,---,0.00,VWS V14.01,2013-02-06 07:52:00,
2013-02-06 01:53:00,56.1,43.7,29.97,South,180,0.0,0.0,63,0.00,,---,0.00,VWS V14.01,2013-02-06 07:53:00,
2013-02-06 01:54:00,56.4,43.2,29.97,South,180,0.0,0.0,61,0.00,,---,0.00,VWS V14.01,2013-02-06 07:54:00,
2013-02-06 01:55:00,56.3,43.0,29.97,South,180,0.0,0.0,61,0.00,,---,0.00,VWS V14.01,2013-02-06 07:55:00,
2013-02-06 01:56:00,56.3,43.0,29.97,South,180,0.0,0.0,61,0.00,,---,0.00,VWS V14.01,2013-02-06 07:56:00,
2013-02-06 01:57:00,56.3,42.6,29.97,South,180,0.0,0.0,60,0.00,,---,0.00,VWS V14.01,2013-02-06 07:57:00,
2013-02-06 01:58:00,55.4,42.6,29.97,South,180,0.0,0.0,62,0.00,,---,0.00,VWS V14.01,2013-02-06 07:58:00,
2013-02-06 01:59:00,56.1,42.8,29.97,South,180,0.0,0.0,61,0.00,,---,0.00,VWS V14.01,2013-02-06 07:59:00,
2013-02-06 02:00:00,56.1,42.8,29.97,South,180,0.0,0.0,61,0.00,,---,0.00,VWS V14.01,2013-02-06 08:00:00,
2013-02-06 02:01:00,56.1,43.3,29.97,South,180,0.0,0.0,62,0.00,,---,0.00,VWS V14.01,2013-02-06 08:01:00,
2013-02-06 02:02:00,56.1,43.7,29.97,South,180,0.0,0.0,63,0.00,,---,0.00,VWS V14.01,2013-02-06 08:02:00,
2013-02-06 02:03:00,55.0,42.7,29.97,NE,45,0.0,0.0,63,0.00,,---,0.00,VWS V14.01,2013-02-06 08:03:00,
2013-02-06 02:04:00,56.1,43.7,29.97,South,180,0.0,0.0,63,0.00,,---,0.00,VWS V14.01,2013-02-06 08:04:00,
2013-02-06 02:05:00,55.9,43.5,29.97,South,180,0.0,0.0,63,0.00,,---,0.00,VWS V14.01,2013-02-06 08:05:00,
2013-02-06 02:06:00,55.7,43.3,29.97,South,180,0.0,0.0,63,0.00,,---,0.00,VWS V14.01,2013-02-06 08:06:00,
2013-02-06 02:07:00,55.7,43.3,29.97,South,180,0.0,0.0,63,0.00,,---,0.00,VWS V14.01,2013-02-06 08:07:00,
2013-02-06 02:08:00,55.0,42.7,29.97,NE,45,0.0,0.0,63,0.00,,---,0.00,VWS V14.01,2013-02-06 08:08:00,
2013-02-06 02:09:00,55.4,42.6,29.97,South,180,0.0,0.0,62,0.00,,---,0.00,VWS V14.01,2013-02-06 08:09:00,
2013-02-06 02:10:00,55.4,43.0,29.97,South,180,0.0,0.0,63,0.00,,---,0.00,VWS V14.01,2013-02-06 08:10:00,
2013-02-06 02:11:00,55.2,42.8,29.97,South,180,0.0,0.0,63,0.00,,---,0.00,VWS V14.01,2013-02-06 08:11:00,
2013-02-06 02:12:00,55.2,42.8,29.97,South,180,0.0,0.0,63,0.00,,---,0.00,VWS V14.01,2013-02-06 08:12:00,
2013-02-06 02:13:00,54.8,43.3,29.97,NE,45,0.0,0.0,65,0.00,,---,0.00,VWS V14.01,2013-02-06 08:13:00,
2013-02-06 02:14:00,55.0,42.7,29.97,NE,45,0.0,0.0,63,0.00,,---,0.00,VWS V14.01,2013-02-06 08:14:00,
2013-02-06 02:15:00,55.0,42.7,29.97,NE,45,0.0,0.0,63,0.00,,---,0.00,VWS V14.01,2013-02-06 08:15:00,
2013-02-06 02:16:00,55.0,42.7,29.97,NE,45,0.0,0.0,63,0.00,,---,0.00,VWS V14.01,2013-02-06 08:16:00,
2013-02-06 02:17:00,55.0,43.1,29.97,NE,45,0.0,0.0,64,0.00,,---,0.00,VWS V14.01,2013-02-06 08:17:00,
2013-02-06 02:18:00,54.7,42.7,29.97,NE,45,0.0,0.0,64,0.00,,---,0.00,VWS V14.01,2013-02-06 08:18:00,
2013-02-06 02:19:00,55.0,42.7,29.97,NE,45,0.0,0.0,63,0.00,,---,0.00,VWS V14.01,2013-02-06 08:19:00,
2013-02-06 02:20:00,55.0,43.1,29.97,NE,45,0.0,0.0,64,0.00,,---,0.00,VWS V14.01,2013-02-06 08:20:00,
2013-02-06 02:21:00,54.8,42.9,29.97,NE,45,0.0,0.0,64,0.00,,---,0.00,VWS V14.01,2013-02-06 08:21:00,
2013-02-06 02:22:00,54.8,42.9,29.97,NE,45,0.0,0.0,64,0.00,,---,0.00,VWS V14.01,2013-02-06 08:22:00,
2013-02-06 02:23:00,54.7,43.5,29.97,NE,45,0.0,0.0,66,0.00,,---,0.00,VWS V14.01,2013-02-06 08:23:00,
2013-02-06 02:24:00,54.8,43.3,29.97,NE,45,0.0,0.0,65,0.00,,---,0.00,VWS V14.01,2013-02-06 08:24:00,
2013-02-06 02:25:00,54.7,43.2,29.97,NE,45,0.0,0.0,65,0.00,,---,0.00,VWS V14.01,2013-02-06 08:25:00,
2013-02-06 02:26:00,54.7,43.2,29.97,NE,45,0.0,0.0,65,0.00,,---,0.00,VWS V14.01,2013-02-06 08:26:00,
2013-02-06 02:27:00,54.7,43.2,29.97,NE,45,0.0,0.0,65,0.00,,---,0.00,VWS V14.01,2013-02-06 08:27:00,
2013-02-06 02:28:00,54.7,43.9,29.97,NE,45,0.0,0.0,67,0.00,,---,0.00,VWS V14.01,2013-02-06 08:28:00,
2013-02-06 02:29:00,54.7,42.7,29.97,NE,45,0.0,0.0,64,0.00,,---,0.00,VWS V14.01,2013-02-06 08:29:00,
2013-02-06 02:30:00,54.7,43.2,29.97,NE,45,0.0,0.0,65,0.00,,---,0.00,VWS V14.01,2013-02-06 08:30:00,
2013-02-06 02:31:00,54.7,43.2,29.97,NE,45,0.0,0.0,65,0.00,,---,0.00,VWS V14.01,2013-02-06 08:31:00,
2013-02-06 02:32:00,54.7,43.2,29.97,NE,45,0.0,0.0,65,0.00,,---,0.00,VWS V14.01,2013-02-06 08:32:00,
2013-02-06 02:33:00,54.5,43.8,29.97,NE,45,0.0,0.0,67,0.00,,---,0.00,VWS V14.01,2013-02-06 08:33:00,
2013-02-06 02:34:00,54.7,43.5,29.97,NE,45,0.0,0.0,66,0.00,,---,0.00,VWS V14.01,2013-02-06 08:34:00,
2013-02-06 02:35:00,54.7,43.5,29.97,NE,45,0.0,0.0,66,0.00,,---,0.00,VWS V14.01,2013-02-06 08:35:00,
2013-02-06 02:36:00,54.7,43.5,29.97,NE,45,0.0,0.0,66,0.00,,---,0.00,VWS V14.01,2013-02-06 08:36:00,
2013-02-06 02:37:00,54.7,43.5,29.97,NE,45,0.0,0.0,66,0.00,,---,0.00,VWS V14.01,2013-02-06 08:37:00,
2013-02-06 02:38:00,54.7,44.7,29.97,NE,45,0.0,0.0,69,0.00,,---,0.00,VWS V14.01,2013-02-06 08:38:00,
2013-02-06 02:39:00,54.7,43.9,29.97,NE,45,0.0,0.0,67,0.00,,---,0.00,VWS V14.01,2013-02-06 08:39:00,
2013-02-06 02:40:00,54.5,43.8,29.97,NE,45,0.0,0.0,67,0.00,,---,0.00,VWS V14.01,2013-02-06 08:40:00,
2013-02-06 02:41:00,54.5,43.8,29.97,NE,45,0.0,0.0,67,0.00,,---,0.00,VWS V14.01,2013-02-06 08:41:00,
2013-02-06 02:42:00,54.5,43.8,29.97,NE,45,0.0,0.0,67,0.00,,---,0.00,VWS V14.01,2013-02-06 08:42:00,
2013-02-06 02:43:00,54.3,44.0,29.97,NE,45,0.0,0.0,68,0.00,,---,0.00,VWS V14.01,2013-02-06 08:43:00,
2013-02-06 02:44:00,54.5,43.8,29.97,NE,45,0.0,0.0,67,0.00,,---,0.00,VWS V14.01,2013-02-06 08:44:00,
2013-02-06 02:45:00,54.5,43.8,29.97,NE,45,0.0,0.0,67,0.00,,---,0.00,VWS V14.01,2013-02-06 08:45:00,
2013-02-06 02:46:00,54.5,44.2,29.97,NE,45,0.0,0.0,68,0.00,,---,0.00,VWS V14.01,2013-02-06 08:46:00,
2013-02-06 02:47:00,54.5,44.5,29.97,NE,45,0.0,0.0,69,0.00,,---,0.00,VWS V14.01,2013-02-06 08:47:00,
2013-02-06 02:48:00,54.3,44.4,29.97,NE,45,0.0,0.0,69,0.00,,---,0.00,VWS V14.01,2013-02-06 08:48:00,
2013-02-06 02:49:00,54.7,44.7,29.97,NE,45,0.0,0.0,69,0.00,,---,0.00,VWS V14.01,2013-02-06 08:49:00,
2013-02-06 02:50:00,54.5,44.2,29.97,NE,45,0.0,0.0,68,0.00,,---,0.00,VWS V14.01,2013-02-06 08:50:00,
2013-02-06 02:51:00,54.5,44.2,29.97,NE,45,0.0,0.0,68,0.00,,---,0.00,VWS V14.01,2013-02-06 08:51:00,
2013-02-06 02:52:00,54.5,44.2,29.97,NE,45,0.0,0.0,68,0.00,,---,0.00,VWS V14.01,2013-02-06 08:52:00,
2013-02-06 02:53:00,54.5,44.5,29.97,NE,45,0.0,0.0,69,0.00,,---,0.00,VWS V14.01,2013-02-06 08:53:00,
2013-02-06 02:54:00,54.3,44.0,29.97,NE,45,0.0,0.0,68,0.00,,---,0.00,VWS V14.01,2013-02-06 08:54:00,
2013-02-06 02:55:00,54.3,44.0,29.97,NE,45,0.0,0.0,68,0.00,,---,0.00,VWS V14.01,2013-02-06 08:55:00,
2013-02-06 02:56:00,54.3,44.0,29.97,NE,45,0.0,0.0,68,0.00,,---,0.00,VWS V14.01,2013-02-06 08:56:00,
2013-02-06 02:57:00,54.3,44.4,29.97,NE,45,0.0,0.0,69,0.00,,---,0.00,VWS V14.01,2013-02-06 08:57:00,
2013-02-06 02:58:00,54.5,44.5,29.97,NE,45,0.0,0.0,69,0.00,,---,0.00,VWS V14.01,2013-02-06 08:58:00,
2013-02-06 03:00:00,54.5,44.2,29.97,NE,45,0.0,0.0,68,0.00,,---,0.00,VWS V14.01,2013-02-06 09:00:00,
2013-02-06 03:01:00,54.5,44.5,29.97,NE,45,0.0,0.0,69,0.00,,---,0.00,VWS V14.01,2013-02-06 09:01:00,
2013-02-06 03:02:00,54.5,44.5,29.97,NE,45,0.0,0.0,69,0.00,,---,0.00,VWS V14.01,2013-02-06 09:02:00,
2013-02-06 03:03:00,54.5,44.5,29.97,NE,45,0.0,0.0,69,0.00,,---,0.00,VWS V14.01,2013-02-06 09:03:00,
2013-02-06 03:04:00,55.0,45.4,29.97,NE,45,0.0,0.0,70,0.00,,---,0.00,VWS V14.01,2013-02-06 09:04:00,
2013-02-06 03:05:00,54.5,44.5,29.97,NE,45,0.0,0.0,69,0.00,,---,0.00,VWS V14.01,2013-02-06 09:05:00,
2013-02-06 03:06:00,54.5,44.5,29.97,NE,45,0.0,0.0,69,0.00,,---,0.00,VWS V14.01,2013-02-06 09:06:00,
2013-02-06 03:07:00,54.5,44.5,29.97,NE,45,0.0,0.0,69,0.00,,---,0.00,VWS V14.01,2013-02-06 09:07:00,
2013-02-06 03:08:00,54.5,44.5,29.97,NE,45,0.0,0.0,69,0.00,,---,0.00,VWS V14.01,2013-02-06 09:08:00,
2013-02-06 03:10:00,55.5,46.3,29.97,NE,45,0.0,0.0,71,0.00,,---,0.00,VWS V14.01,2013-02-06 09:10:00,
2013-02-06 03:11:00,54.7,44.7,29.97,NE,45,0.0,0.0,69,0.00,,---,0.00,VWS V14.01,2013-02-06 09:11:00,
2013-02-06 03:12:00,54.7,44.7,29.97,NE,45,0.0,0.0,69,0.00,,---,0.00,VWS V14.01,2013-02-06 09:12:00,
2013-02-06 03:13:00,54.7,44.7,29.97,NE,45,0.0,0.0,69,0.00,,---,0.00,VWS V14.01,2013-02-06 09:13:00,
2013-02-06 03:14:00,54.8,44.9,29.97,NE,45,0.0,0.0,69,0.00,,---,0.00,VWS V14.01,2013-02-06 09:14:00,
2013-02-06 03:15:00,55.7,46.8,29.97,NE,45,0.0,0.0,72,0.00,,---,0.00,VWS V14.01,2013-02-06 09:15:00,
2013-02-06 03:16:00,55.0,45.4,29.97,NE,45,0.0,0.0,70,0.00,,---,0.00,VWS V14.01,2013-02-06 09:16:00,
2013-02-06 03:17:00,55.2,46.0,29.97,NE,45,0.0,0.0,71,0.00,,---,0.00,VWS V14.01,2013-02-06 09:17:00,
2013-02-06 03:18:00,55.2,46.0,29.97,NE,45,0.0,0.0,71,0.00,,---,0.00,VWS V14.01,2013-02-06 09:18:00,
2013-02-06 03:19:00,55.4,46.1,29.97,NE,45,0.0,0.0,71,0.00,,---,0.00,VWS V14.01,2013-02-06 09:19:00,
2013-02-06 03:20:00,55.9,47.0,29.97,NE,45,0.0,0.0,72,0.00,,---,0.00,VWS V14.01,2013-02-06 09:20:00,
2013-02-06 03:21:00,55.5,46.3,29.97,NE,45,0.0,0.0,71,0.00,,---,0.00,VWS V14.01,2013-02-06 09:21:00,
2013-02-06 03:22:00,55.5,46.3,29.97,NE,45,0.0,0.0,71,0.00,,---,0.00,VWS V14.01,2013-02-06 09:22:00,
2013-02-06 03:23:00,55.5,46.3,29.97,NE,45,0.0,0.0,71,0.00,,---,0.00,VWS V14.01,2013-02-06 09:23:00,
2013-02-06 03:24:00,55.7,46.5,29.97,NE,45,0.0,0.0,71,0.00,,---,0.00,VWS V14.01,2013-02-06 09:24:00,
2013-02-06 03:25:00,55.9,47.0,29.97,NE,45,0.0,0.0,72,0.00,,---,0.00,VWS V14.01,2013-02-06 09:25:00,
2013-02-06 03:26:00,55.7,46.8,29.97,NE,45,0.0,0.0,72,0.00,,---,0.00,VWS V14.01,2013-02-06 09:26:00,
2013-02-06 03:27:00,55.7,46.8,29.97,NE,45,0.0,0.0,72,0.00,,---,0.00,VWS V14.01,2013-02-06 09:27:00,
2013-02-06 03:28:00,55.9,47.0,29.97,NE,45,0.0,0.0,72,0.00,,---,0.00,VWS V14.01,2013-02-06 09:28:00,
2013-02-06 03:29:00,55.9,47.0,29.97,NE,45,0.0,0.0,72,0.00,,---,0.00,VWS V14.01,2013-02-06 09:29:00,
2013-02-06 03:30:00,56.1,46.8,29.97,NE,45,0.0,0.0,71,0.00,,---,0.00,VWS V14.01,2013-02-06 09:30:00,
2013-02-06 03:31:00,55.9,47.0,29.97,NE,45,0.0,0.0,72,0.00,,---,0.00,VWS V14.01,2013-02-06 09:31:00,
2013-02-06 03:32:00,55.9,47.0,29.97,NE,45,0.0,0.0,72,0.00,,---,0.00,VWS V14.01,2013-02-06 09:32:00,
2013-02-06 03:33:00,55.9,47.0,29.97,NE,45,0.0,0.0,72,0.00,,---,0.00,VWS V14.01,2013-02-06 09:33:00,
2013-02-06 03:34:00,55.9,47.0,29.97,NE,45,0.0,0.0,72,0.00,,---,0.00,VWS V14.01,2013-02-06 09:34:00,
2013-02-06 03:35:00,56.1,46.8,29.97,NE,45,0.0,0.0,71,0.00,,---,0.00,VWS V14.01,2013-02-06 09:35:00,
2013-02-06 03:36:00,55.9,47.0,29.97,NE,45,0.0,0.0,72,0.00,,---,0.00,VWS V14.01,2013-02-06 09:36:00,
2013-02-06 03:37:00,56.1,47.2,29.97,NE,45,0.0,0.0,72,0.00,,---,0.00,VWS V14.01,2013-02-06 09:37:00,
2013-02-06 03:38:00,56.1,47.2,29.97,NE,45,0.0,0.0,72,0.00,,---,0.00,VWS V14.01,2013-02-06 09:38:00,
2013-02-06 03:39:00,56.1,47.6,29.97,NE,45,0.0,0.0,73,0.00,,---,0.00,VWS V14.01,2013-02-06 09:39:00,
2013-02-06 03:40:00,56.1,46.8,29.97,NE,45,0.0,0.0,71,0.00,,---,0.00,VWS V14.01,2013-02-06 09:40:00,
2013-02-06 03:43:00,56.1,46.8,29.97,NE,45,0.0,0.0,71,0.00,,---,0.00,VWS V14.01,2013-02-06 09:43:00,
2013-02-06 03:45:00,56.1,46.8,29.97,NE,45,0.0,0.0,71,0.00,,---,0.00,VWS V14.01,2013-02-06 09:45:00,
2013-02-06 03:46:00,56.1,46.8,29.97,NE,45,0.0,0.0,71,0.00,,---,0.00,VWS V14.01,2013-02-06 09:46:00,
2013-02-06 03:47:00,56.1,46.8,29.97,NE,45,0.0,0.0,71,0.00,,---,0.00,VWS V14.01,2013-02-06 09:47:00,
2013-02-06 03:48:00,56.1,46.8,29.97,NE,45,0.0,0.0,71,0.00,,---,0.00,VWS V14.01,2013-02-06 09:48:00,
2013-02-06 03:49:00,56.1,47.2,29.97,NE,45,0.0,0.0,72,0.00,,---,0.00,VWS V14.01,2013-02-06 09:49:00,
2013-02-06 03:50:00,56.3,47.0,29.97,NE,45,0.0,0.0,71,0.00,,---,0.00,VWS V14.01,2013-02-06 09:50:00,
2013-02-06 03:51:00,56.1,46.8,29.97,NE,45,0.0,0.0,71,0.00,,---,0.00,VWS V14.01,2013-02-06 09:51:00,
2013-02-06 03:52:00,56.1,46.8,29.97,NE,45,0.0,0.0,71,0.00,,---,0.00,VWS V14.01,2013-02-06 09:52:00,
2013-02-06 03:53:00,56.1,46.8,29.97,NE,45,0.0,0.0,71,0.00,,---,0.00,VWS V14.01,2013-02-06 09:53:00,
2013-02-06 03:54:00,56.1,46.8,29.97,NE,45,0.0,0.0,71,0.00,,---,0.00,VWS V14.01,2013-02-06 09:54:00,
2013-02-06 03:55:00,56.3,47.0,29.97,NE,45,0.0,0.0,71,0.00,,---,0.00,VWS V14.01,2013-02-06 09:55:00,
2013-02-06 03:56:00,56.1,46.8,29.97,NE,45,0.0,0.0,71,0.00,,---,0.00,VWS V14.01,2013-02-06 09:56:00,
2013-02-06 03:57:00,56.1,46.8,29.97,NE,45,0.0,0.0,71,0.00,,---,0.00,VWS V14.01,2013-02-06 09:57:00,
2013-02-06 03:58:00,56.1,46.8,29.97,NE,45,0.0,0.0,71,0.00,,---,0.00,VWS V14.01,2013-02-06 09:58:00,
2013-02-06 03:59:00,56.3,47.0,29.97,NE,45,0.0,0.0,71,0.00,,---,0.00,VWS V14.01,2013-02-06 09:59:00,
2013-02-06 04:00:00,56.1,47.2,29.97,NE,45,0.0,0.0,72,0.00,,---,0.00,VWS V14.01,2013-02-06 10:00:00,
2013-02-06 04:01:00,56.3,47.0,29.97,NE,45,0.0,0.0,71,0.00,,---,0.00,VWS V14.01,2013-02-06 10:01:00,
2013-02-06 04:02:00,56.3,47.0,29.97,NE,45,0.0,0.0,71,0.00,,---,0.00,VWS V14.01,2013-02-06 10:02:00,
2013-02-06 04:03:00,56.3,47.0,29.97,NE,45,0.0,0.0,71,0.00,,---,0.00,VWS V14.01,2013-02-06 10:03:00,
2013-02-06 04:04:00,56.3,47.0,29.97,NE,45,0.0,0.0,71,0.00,,---,0.00,VWS V14.01,2013-02-06 10:04:00,
2013-02-06 04:05:00,56.1,47.2,29.97,NE,45,0.0,0.0,72,0.00,,---,0.00,VWS V14.01,2013-02-06 10:05:00,
2013-02-06 04:06:00,56.3,47.0,29.97,NE,45,0.0,0.0,71,0.00,,---,0.00,VWS V14.01,2013-02-06 10:06:00,
2013-02-06 04:07:00,56.3,47.0,29.97,NE,45,0.0,0.0,71,0.00,,---,0.00,VWS V14.01,2013-02-06 10:07:00,
2013-02-06 04:08:00,56.3,47.0,29.97,NE,45,0.0,0.0,71,0.00,,---,0.00,VWS V14.01,2013-02-06 10:08:00,
2013-02-06 04:09:00,56.3,47.0,29.97,NE,45,0.0,0.0,71,0.00,,---,0.00,VWS V14.01,2013-02-06 10:09:00,
2013-02-06 04:10:00,56.1,47.2,29.97,NE,45,0.0,0.0,72,0.00,,---,0.00,VWS V14.01,2013-02-06 10:10:00,
2013-02-06 04:11:00,56.1,47.2,29.97,NE,45,0.0,0.0,72,0.00,,---,0.00,VWS V14.01,2013-02-06 10:11:00,
2013-02-06 04:12:00,56.1,47.2,29.97,NE,45,0.0,0.0,72,0.00,,---,0.00,VWS V14.01,2013-02-06 10:12:00,
2013-02-06 04:13:00,56.1,47.2,29.97,NE,45,0.0,0.0,72,0.00,,---,0.00,VWS V14.01,2013-02-06 10:13:00,
2013-02-06 04:14:00,56.1,47.2,29.97,NE,45,0.0,0.0,72,0.00,,---,0.00,VWS V14.01,2013-02-06 10:14:00,
2013-02-06 04:15:00,56.1,47.2,29.97,NE,45,0.0,0.0,72,0.00,,---,0.00,VWS V14.01,2013-02-06 10:15:00,
2013-02-06 04:16:00,56.1,47.2,29.97,NE,45,0.0,0.0,72,0.00,,---,0.00,VWS V14.01,2013-02-06 10:16:00,
2013-02-06 04:17:00,56.1,47.2,29.97,NE,45,0.0,0.0,72,0.00,,---,0.00,VWS V14.01,2013-02-06 10:17:00,
2013-02-06 04:18:00,56.1,47.2,29.97,NE,45,0.0,0.0,72,0.00,,---,0.00,VWS V14.01,2013-02-06 10:18:00,
2013-02-06 04:19:00,56.1,47.2,29.97,NE,45,0.0,0.0,72,0.00,,---,0.00,VWS V14.01,2013-02-06 10:19:00,
2013-02-06 04:20:00,55.9,47.0,29.97,NE,45,0.0,0.0,72,0.00,,---,0.00,VWS V14.01,2013-02-06 10:20:00,
2013-02-06 04:21:00,56.1,47.2,29.97,NE,45,0.0,0.0,72,0.00,,---,0.00,VWS V14.01,2013-02-06 10:21:00,
2013-02-06 04:22:00,56.1,47.2,29.97,NE,45,0.0,0.0,72,0.00,,---,0.00,VWS V14.01,2013-02-06 10:22:00,
2013-02-06 04:23:00,56.1,47.2,29.97,NE,45,0.0,0.0,72,0.00,,---,0.00,VWS V14.01,2013-02-06 10:23:00,
2013-02-06 04:24:00,56.1,47.2,29.97,NE,45,0.0,0.0,72,0.00,,---,0.00,VWS V14.01,2013-02-06 10:24:00,
2013-02-06 04:25:00,55.7,46.8,29.97,NE,45,0.0,0.0,72,0.00,,---,0.00,VWS V14.01,2013-02-06 10:25:00,
2013-02-06 04:26:00,56.1,47.2,29.97,NE,45,0.0,0.0,72,0.00,,---,0.00,VWS V14.01,2013-02-06 10:26:00,
2013-02-06 04:27:00,56.1,47.2,29.97,NE,45,0.0,0.0,72,0.00,,---,0.00,VWS V14.01,2013-02-06 10:27:00,
2013-02-06 04:28:00,56.1,47.2,29.97,NE,45,0.0,0.0,72,0.00,,---,0.00,VWS V14.01,2013-02-06 10:28:00,
2013-02-06 04:29:00,56.1,47.2,29.97,NE,45,0.0,0.0,72,0.00,,---,0.00,VWS V14.01,2013-02-06 10:29:00,
2013-02-06 04:30:00,55.7,46.8,29.97,NE,45,0.0,0.0,72,0.00,,---,0.00,VWS V14.01,2013-02-06 10:30:00,
2013-02-06 04:31:00,55.9,47.0,29.97,NE,45,0.0,0.0,72,0.00,,---,0.00,VWS V14.01,2013-02-06 10:31:00,
2013-02-06 04:32:00,56.1,47.2,29.97,NE,45,0.0,0.0,72,0.00,,---,0.00,VWS V14.01,2013-02-06 10:32:00,
2013-02-06 04:33:00,56.1,47.2,29.97,NE,45,0.0,0.0,72,0.00,,---,0.00,VWS V14.01,2013-02-06 10:33:00,
2013-02-06 04:34:00,55.9,47.0,29.97,NE,45,0.0,0.0,72,0.00,,---,0.00,VWS V14.01,2013-02-06 10:34:00,
2013-02-06 04:35:00,56.1,47.9,29.97,ESE,112,0.0,2.5,74,0.00,,---,0.00,VWS V14.01,2013-02-06 10:35:00,
2013-02-06 04:36:00,55.7,46.8,29.97,NE,45,0.0,0.0,72,0.00,,---,0.00,VWS V14.01,2013-02-06 10:36:00,
2013-02-06 04:37:00,55.7,46.8,29.97,NE,45,0.0,0.0,72,0.00,,---,0.00,VWS V14.01,2013-02-06 10:37:00,
2013-02-06 04:38:00,55.7,46.8,29.97,NE,45,0.0,0.0,72,0.00,,---,0.00,VWS V14.01,2013-02-06 10:38:00,
2013-02-06 04:39:00,55.7,46.8,29.97,NE,45,0.0,0.0,72,0.00,,---,0.00,VWS V14.01,2013-02-06 10:39:00,
2013-02-06 04:40:00,56.1,47.9,29.97,SE,135,2.0,2.0,74,0.00,,---,0.00,VWS V14.01,2013-02-06 10:40:00,
2013-02-06 04:41:00,55.7,46.8,29.97,NE,45,0.0,0.0,72,0.00,,---,0.00,VWS V14.01,2013-02-06 10:41:00,
2013-02-06 04:42:00,55.7,46.8,29.97,NE,45,0.0,0.0,72,0.00,,---,0.00,VWS V14.01,2013-02-06 10:42:00,
2013-02-06 04:43:00,55.7,46.8,29.97,NE,45,0.0,0.0,72,0.00,,---,0.00,VWS V14.01,2013-02-06 10:43:00,
2013-02-06 04:44:00,55.9,47.4,29.97,SE,135,2.5,2.5,73,0.00,,---,0.00,VWS V14.01,2013-02-06 10:44:00,
2013-02-06 04:45:00,56.1,48.3,29.97,SE,135,1.3,1.3,75,0.00,,---,0.00,VWS V14.01,2013-02-06 10:45:00,
2013-02-06 04:46:00,56.1,47.9,29.97,ESE,112,0.0,2.5,74,0.00,,---,0.00,VWS V14.01,2013-02-06 10:46:00,
2013-02-06 04:47:00,56.1,47.9,29.97,ESE,112,0.0,0.0,74,0.00,,---,0.00,VWS V14.01,2013-02-06 10:47:00,
2013-02-06 04:48:00,56.1,47.9,29.97,ESE,112,0.0,0.0,74,0.00,,---,0.00,VWS V14.01,2013-02-06 10:48:00,
2013-02-06 04:49:00,56.1,47.9,29.97,ESE,112,0.0,0.0,74,0.00,,---,0.00,VWS V14.01,2013-02-06 10:49:00,
2013-02-06 04:50:00,56.3,49.8,29.97,SE,135,1.3,1.3,79,0.00,,---,0.00,VWS V14.01,2013-02-06 10:50:00,
2013-02-06 04:51:00,56.1,47.9,29.97,SE,135,2.0,2.0,74,0.00,,---,0.00,VWS V14.01,2013-02-06 10:51:00,
2013-02-06 04:52:00,56.1,47.9,29.97,SE,135,1.3,2.0,74,0.00,,---,0.00,VWS V14.01,2013-02-06 10:52:00,
2013-02-06 04:53:00,56.1,47.9,29.97,SE,135,1.3,1.3,74,0.00,,---,0.00,VWS V14.01,2013-02-06 10:53:00,
2013-02-06 04:54:00,56.1,47.9,29.97,SE,135,1.3,1.3,74,0.00,,---,0.00,VWS V14.01,2013-02-06 10:54:00,
2013-02-06 04:55:00,56.4,50.3,29.97,SE,135,1.3,1.3,80,0.00,,---,0.00,VWS V14.01,2013-02-06 10:55:00,
2013-02-06 04:56:00,56.1,48.3,29.97,SE,135,1.3,1.3,75,0.00,,---,0.00,VWS V14.01,2013-02-06 10:56:00,
2013-02-06 04:57:00,56.1,48.3,29.97,SE,135,1.3,1.3,75,0.00,,---,0.00,VWS V14.01,2013-02-06 10:57:00,
2013-02-06 04:58:00,56.1,48.6,29.97,SE,135,1.3,1.3,76,0.00,,---,0.00,VWS V14.01,2013-02-06 10:58:00,
2013-02-06 04:59:00,56.1,48.6,29.97,SE,135,1.3,1.3,76,0.00,,---,0.00,VWS V14.01,2013-02-06 10:59:00,
2013-02-06 05:00:00,56.6,50.9,29.97,SE,135,1.3,1.3,81,0.00,,---,0.00,VWS V14.01,2013-02-06 11:00:00,
2013-02-06 05:01:00,56.3,49.8,29.97,SE,135,1.3,1.3,79,0.00,,---,0.00,VWS V14.01,2013-02-06 11:01:00,
2013-02-06 05:02:00,56.4,50.3,29.97,SE,135,1.3,1.3,80,0.00,,---,0.00,VWS V14.01,2013-02-06 11:02:00,
2013-02-06 05:03:00,56.4,50.3,29.97,SE,135,1.3,1.3,80,0.00,,---,0.00,VWS V14.01,2013-02-06 11:03:00,
2013-02-06 05:04:00,56.4,50.3,29.97,SE,135,1.3,1.3,80,0.00,,---,0.00,VWS V14.01,2013-02-06 11:04:00,
2013-02-06 05:05:00,56.8,51.0,29.97,SE,135,1.3,1.3,81,0.00,,---,0.00,VWS V14.01,2013-02-06 11:05:00,
2013-02-06 05:06:00,56.4,50.3,29.97,SE,135,1.3,1.3,80,0.00,,---,0.00,VWS V14.01,2013-02-06 11:06:00,
2013-02-06 05:07:00,56.4,50.3,29.97,SE,135,1.3,1.3,80,0.00,,---,0.00,VWS V14.01,2013-02-06 11:07:00,
2013-02-06 05:08:00,56.4,50.7,29.97,SE,135,1.3,1.3,81,0.00,,---,0.00,VWS V14.01,2013-02-06 11:08:00,
2013-02-06 05:09:00,56.4,50.7,29.97,SE,135,1.3,1.3,81,0.00,,---,0.00,VWS V14.01,2013-02-06 11:09:00,
2013-02-06 05:10:00,57.0,50.9,29.97,SE,135,1.3,1.3,80,0.00,,---,0.00,VWS V14.01,2013-02-06 11:10:00,
2013-02-06 05:11:00,56.6,50.9,29.97,SE,135,1.3,1.3,81,0.00,,---,0.00,VWS V14.01,2013-02-06 11:11:00,
2013-02-06 05:12:00,56.6,50.9,29.97,SE,135,1.3,1.3,81,0.00,,---,0.00,VWS V14.01,2013-02-06 11:12:00,
2013-02-06 05:13:00,56.6,50.9,29.97,SE,135,1.3,1.3,81,0.00,,---,0.00,VWS V14.01,2013-02-06 11:13:00,
2013-02-06 05:15:00,57.2,51.0,29.97,North,0,0.0,0.0,80,0.00,,---,0.00,VWS V14.01,2013-02-06 11:15:00,
2013-02-06 05:16:00,56.8,51.0,29.97,SE,135,1.3,1.3,81,0.00,,---,0.00,VWS V14.01,2013-02-06 11:16:00,
2013-02-06 05:17:00,56.8,51.0,29.97,SE,135,1.3,1.3,81,0.00,,---,0.00,VWS V14.01,2013-02-06 11:17:00,
2013-02-06 05:18:00,56.8,50.7,29.97,SE,135,1.3,1.3,80,0.00,,---,0.00,VWS V14.01,2013-02-06 11:18:00,
2013-02-06 05:19:00,57.0,50.9,29.97,SE,135,1.3,1.3,80,0.00,,---,0.00,VWS V14.01,2013-02-06 11:19:00,
2013-02-06 05:20:00,57.5,51.7,29.97,NNE,22,3.4,3.4,81,0.00,,---,0.00,VWS V14.01,2013-02-06 11:20:00,
2013-02-06 05:21:00,57.0,50.9,29.97,SE,135,1.3,1.3,80,0.00,,---,0.00,VWS V14.01,2013-02-06 11:21:00,
2013-02-06 05:22:00,57.0,50.9,29.97,SE,135,0.0,1.3,80,0.00,,---,0.00,VWS V14.01,2013-02-06 11:22:00,
2013-02-06 05:23:00,57.0,50.9,29.97,SE,135,0.0,0.0,80,0.00,,---,0.00,VWS V14.01,2013-02-06 11:23:00,
2013-02-06 05:24:00,57.0,50.9,29.97,North,0,0.0,0.0,80,0.00,,---,0.00,VWS V14.01,2013-02-06 11:24:00,
2013-02-06 05:25:00,57.5,51.7,29.97,East,90,0.0,1.6,81,0.00,,---,0.00,VWS V14.01,2013-02-06 11:25:00,
2013-02-06 05:26:00,57.2,51.0,29.97,North,0,0.0,0.0,80,0.00,,---,0.00,VWS V14.01,2013-02-06 11:26:00,
2013-02-06 05:27:00,57.3,51.5,29.97,North,0,0.0,0.0,81,0.00,,---,0.00,VWS V14.01,2013-02-06 11:27:00,
2013-02-06 05:28:00,57.3,51.5,29.97,North,0,0.0,0.0,81,0.00,,---,0.00,VWS V14.01,2013-02-06 11:28:00,
2013-02-06 05:29:00,57.3,51.5,29.97,North,0,0.0,0.0,81,0.00,,---,0.00,VWS V14.01,2013-02-06 11:29:00,
2013-02-06 05:30:00,57.5,51.4,29.97,East,90,0.0,0.0,80,0.00,,---,0.00,VWS V14.01,2013-02-06 11:30:00,
2013-02-06 05:31:00,57.5,51.7,29.97,NNE,22,3.4,3.4,81,0.00,,---,0.00,VWS V14.01,2013-02-06 11:31:00,
2013-02-06 05:32:00,57.5,52.1,29.97,NE,45,2.7,3.4,82,0.00,,---,0.00,VWS V14.01,2013-02-06 11:32:00,
2013-02-06 05:33:00,57.5,52.1,29.97,ENE,68,2.5,2.7,82,0.00,,---,0.00,VWS V14.01,2013-02-06 11:33:00,
2013-02-06 05:34:00,57.5,52.1,29.97,NE,45,1.6,2.5,82,0.00,,---,0.00,VWS V14.01,2013-02-06 11:34:00,
2013-02-06 05:35:00,57.5,51.7,29.97,South,180,0.0,0.0,81,0.00,,---,0.00,VWS V14.01,2013-02-06 11:35:00,
2013-02-06 05:36:00,57.5,51.7,29.97,East,90,0.0,1.6,81,0.00,,---,0.00,VWS V14.01,2013-02-06 11:36:00,
2013-02-06 05:37:00,57.5,51.7,29.97,NE,45,0.0,0.0,81,0.00,,---,0.00,VWS V14.01,2013-02-06 11:37:00,
2013-02-06 05:38:00,57.5,51.7,29.97,NE,45,0.0,0.0,81,0.00,,---,0.00,VWS V14.01,2013-02-06 11:38:00,
2013-02-06 05:39:00,57.5,51.7,29.97,ENE,68,0.0,0.0,81,0.00,,---,0.00,VWS V14.01,2013-02-06 11:39:00,
2013-02-06 05:40:00,57.5,51.7,30.00,SE,135,0.0,0.0,81,0.00,,---,0.00,VWS V14.01,2013-02-06 11:40:00,
2013-02-06 05:41:00,57.5,51.4,29.97,East,90,0.0,0.0,80,0.00,,---,0.00,VWS V14.01,2013-02-06 11:41:00,
2013-02-06 05:42:00,57.5,51.4,29.97,East,90,0.0,0.0,80,0.00,,---,0.00,VWS V14.01,2013-02-06 11:42:00,
2013-02-06 05:43:00,57.5,51.4,29.97,East,90,0.0,0.0,80,0.00,,---,0.00,VWS V14.01,2013-02-06 11:43:00,
2013-02-06 05:44:00,57.5,51.4,29.97,ENE,68,0.0,0.0,80,0.00,,---,0.00,VWS V14.01,2013-02-06 11:44:00,
2013-02-06 05:45:00,57.3,51.2,30.00,ESE,112,0.0,0.0,80,0.00,,---,0.00,VWS V14.01,2013-02-06 11:45:00,
2013-02-06 05:46:00,57.5,51.7,29.97,South,180,0.0,0.0,81,0.00,,---,0.00,VWS V14.01,2013-02-06 11:46:00,
2013-02-06 05:47:00,57.5,51.7,30.00,South,180,0.0,0.0,81,0.00,,---,0.00,VWS V14.01,2013-02-06 11:47:00,
2013-02-06 05:48:00,57.5,51.4,30.00,South,180,0.0,0.0,80,0.00,,---,0.00,VWS V14.01,2013-02-06 11:48:00,
2013-02-06 05:49:00,57.7,51.6,30.00,SSW,202,0.0,0.0,80,0.00,,---,0.00,VWS V14.01,2013-02-06 11:49:00,
2013-02-06 05:50:00,57.2,51.0,30.00,SE,135,0.0,0.0,80,0.00,,---,0.00,VWS V14.01,2013-02-06 11:50:00,
2013-02-06 05:51:00,57.5,51.7,30.00,SE,135,0.0,0.0,81,0.00,,---,0.00,VWS V14.01,2013-02-06 11:51:00,
2013-02-06 05:52:00,57.5,51.4,30.00,SE,135,0.0,0.0,80,0.00,,---,0.00,VWS V14.01,2013-02-06 11:52:00,
2013-02-06 05:53:00,57.5,51.4,30.00,SE,135,0.0,0.0,80,0.00,,---,0.00,VWS V14.01,2013-02-06 11:53:00,
2013-02-06 05:54:00,57.3,51.2,30.00,East,90,0.0,0.0,80,0.00,,---,0.00,VWS V14.01,2013-02-06 11:54:00,
2013-02-06 05:55:00,57.0,50.9,30.00,ESE,112,3.1,3.1,80,0.00,,---,0.00,VWS V14.01,2013-02-06 11:55:00,
2013-02-06 05:56:00,57.3,51.2,30.00,ESE,112,0.0,0.0,80,0.00,,---,0.00,VWS V14.01,2013-02-06 11:56:00,
2013-02-06 05:57:00,57.3,51.2,30.00,East,90,0.0,0.0,80,0.00,,---,0.00,VWS V14.01,2013-02-06 11:57:00,
2013-02-06 05:58:00,57.3,51.2,30.00,SE,135,0.0,0.0,80,0.00,,---,0.00,VWS V14.01,2013-02-06 11:58:00,
2013-02-06 05:59:00,57.3,51.2,30.00,SE,135,0.0,0.0,80,0.00,,---,0.00,VWS V14.01,2013-02-06 11:59:00,
2013-02-06 06:00:00,57.2,51.4,30.00,ESE,112,0.0,2.0,81,0.00,,---,0.00,VWS V14.01,2013-02-06 12:00:00,
2013-02-06 06:02:00,57.2,51.0,30.00,SE,135,0.0,0.0,80,0.00,,---,0.00,VWS V14.01,2013-02-06 12:02:00,
2013-02-06 06:03:00,57.2,51.0,30.00,ESE,112,0.0,0.0,80,0.00,,---,0.00,VWS V14.01,2013-02-06 12:03:00,
2013-02-06 06:04:00,57.2,51.0,30.00,ESE,112,0.0,0.0,80,0.00,,---,0.00,VWS V14.01,2013-02-06 12:04:00,
2013-02-06 06:05:00,57.0,51.2,30.00,East,90,0.0,0.0,81,0.00,,---,0.00,VWS V14.01,2013-02-06 12:05:00,
2013-02-06 06:06:00,57.0,50.9,30.00,ESE,112,3.1,3.1,80,0.00,,---,0.00,VWS V14.01,2013-02-06 12:06:00,
2013-02-06 06:07:00,57.2,51.4,30.00,ESE,112,2.7,3.1,81,0.00,,---,0.00,VWS V14.01,2013-02-06 12:07:00,
2013-02-06 06:08:00,57.2,51.4,30.00,ESE,112,0.0,2.7,81,0.00,,---,0.00,VWS V14.01,2013-02-06 12:08:00,
2013-02-06 06:09:00,57.2,51.4,30.00,ESE,112,0.0,1.1,81,0.00,,---,0.00,VWS V14.01,2013-02-06 12:09:00,
2013-02-06 06:10:00,57.2,51.4,30.00,ENE,68,1.3,2.2,81,0.00,,---,0.00,VWS V14.01,2013-02-06 12:10:00,
2013-02-06 06:11:00,57.2,51.4,30.00,ESE,112,0.0,2.0,81,0.00,,---,0.00,VWS V14.01,2013-02-06 12:11:00,
2013-02-06 06:12:00,57.0,51.2,30.00,ESE,112,0.0,0.9,81,0.00,,---,0.00,VWS V14.01,2013-02-06 12:12:00,
2013-02-06 06:13:00,57.0,51.2,30.00,SE,135,0.0,0.0,81,0.00,,---,0.00,VWS V14.01,2013-02-06 12:13:00,
2013-02-06 06:14:00,57.0,51.2,30.00,ESE,112,0.0,0.0,81,0.00,,---,0.00,VWS V14.01,2013-02-06 12:14:00,
2013-02-06 06:15:00,57.3,51.5,30.00,East,90,1.6,2.9,81,0.00,,---,0.00,VWS V14.01,2013-02-06 12:15:00,
2013-02-06 06:16:00,57.0,51.2,30.00,East,90,0.0,0.0,81,0.00,,---,0.00,VWS V14.01,2013-02-06 12:16:00,
2013-02-06 06:17:00,57.0,51.2,30.00,East,90,1.3,1.3,81,0.00,,---,0.00,VWS V14.01,2013-02-06 12:17:00,
2013-02-06 06:18:00,57.0,51.2,30.00,East,90,0.0,2.5,81,0.00,,---,0.00,VWS V14.01,2013-02-06 12:18:00,
2013-02-06 06:19:00,57.2,51.4,30.00,East,90,0.9,2.0,81,0.00,,---,0.00,VWS V14.01,2013-02-06 12:19:00,
2013-02-06 06:20:00,57.3,51.5,30.00,ENE,68,2.0,2.7,81,0.00,,---,0.00,VWS V14.01,2013-02-06 12:20:00,
2013-02-06 06:21:00,57.2,51.4,30.00,ENE,68,1.3,2.2,81,0.00,,---,0.00,VWS V14.01,2013-02-06 12:21:00,
2013-02-06 06:22:00,57.2,51.4,30.00,East,90,2.5,3.1,81,0.00,,---,0.00,VWS V14.01,2013-02-06 12:22:00,
2013-02-06 06:23:00,57.2,51.4,30.00,East,90,2.0,2.5,81,0.00,,---,0.00,VWS V14.01,2013-02-06 12:23:00,
2013-02-06 06:24:00,57.2,51.4,30.00,East,90,1.6,2.2,81,0.00,,---,0.00,VWS V14.01,2013-02-06 12:24:00,
2013-02-06 06:25:00,57.5,51.7,30.00,East,90,1.6,3.1,81,0.00,,---,0.00,VWS V14.01,2013-02-06 12:25:00,
2013-02-06 06:26:00,57.3,51.5,30.00,East,90,1.6,2.9,81,0.00,,---,0.00,VWS V14.01,2013-02-06 12:26:00,
2013-02-06 06:27:00,57.3,51.5,30.00,East,90,2.0,2.9,81,0.00,,---,0.00,VWS V14.01,2013-02-06 12:27:00,
2013-02-06 06:28:00,57.3,51.5,30.00,ESE,112,1.1,2.0,81,0.00,,---,0.00,VWS V14.01,2013-02-06 12:28:00,
2013-02-06 06:29:00,57.3,51.5,30.00,East,90,0.0,2.5,81,0.00,,---,0.00,VWS V14.01,2013-02-06 12:29:00,
2013-02-06 06:30:00,57.7,52.2,30.00,ENE,68,3.8,3.8,82,0.00,,---,0.00,VWS V14.01,2013-02-06 12:30:00,
2013-02-06 06:31:00,57.3,51.5,30.00,ENE,68,2.0,2.7,81,0.00,,---,0.00,VWS V14.01,2013-02-06 12:31:00,
2013-02-06 06:32:00,57.3,51.5,30.00,East,90,1.6,2.5,81,0.00,,---,0.00,VWS V14.01,2013-02-06 12:32:00,
2013-02-06 06:34:00,57.5,51.7,30.00,East,90,2.2,2.9,81,0.00,,---,0.00,VWS V14.01,2013-02-06 12:34:00,
2013-02-06 06:35:00,57.9,52.4,30.00,ESE,112,2.5,3.1,82,0.00,,---,0.00,VWS V14.01,2013-02-06 12:35:00,
2013-02-06 06:36:00,57.5,51.7,30.00,East,90,1.6,3.1,81,0.00,,---,0.00,VWS V14.01,2013-02-06 12:36:00,
2013-02-06 06:37:00,57.7,51.9,30.00,East,90,1.3,2.7,81,0.00,,---,0.00,VWS V14.01,2013-02-06 12:37:00,
2013-02-06 06:38:00,57.7,51.9,30.00,East,90,3.4,3.4,81,0.00,,---,0.00,VWS V14.01,2013-02-06 12:38:00,
2013-02-06 06:39:00,57.7,51.9,30.00,ESE,112,2.5,3.4,81,0.00,,---,0.00,VWS V14.01,2013-02-06 12:39:00,
2013-02-06 06:40:00,57.9,52.1,30.00,SE,135,0.0,0.9,81,0.00,,---,0.00,VWS V14.01,2013-02-06 12:40:00,
2013-02-06 06:41:00,57.7,52.2,30.00,ENE,68,3.8,3.8,82,0.00,,---,0.00,VWS V14.01,2013-02-06 12:41:00,
2013-02-06 06:42:00,57.7,52.2,30.00,East,90,4.9,4.9,82,0.00,,---,0.00,VWS V14.01,2013-02-06 12:42:00,
2013-02-06 06:43:00,57.9,52.4,30.00,East,90,2.7,4.9,82,0.00,,---,0.00,VWS V14.01,2013-02-06 12:43:00,
2013-02-06 06:44:00,57.9,52.4,30.00,ESE,112,4.7,4.7,82,0.00,,---,0.00,VWS V14.01,2013-02-06 12:44:00,
2013-02-06 06:45:00,57.9,52.1,30.00,East,90,3.4,3.8,81,0.00,,---,0.00,VWS V14.01,2013-02-06 12:45:00,
2013-02-06 06:46:00,57.9,52.4,30.00,ESE,112,2.5,3.1,82,0.00,,---,0.00,VWS V14.01,2013-02-06 12:46:00,
2013-02-06 06:47:00,57.9,52.1,30.00,East,90,2.7,3.4,81,0.00,,---,0.00,VWS V14.01,2013-02-06 12:47:00,
2013-02-06 06:48:00,57.9,52.1,30.00,SE,135,1.1,3.1,81,0.00,,---,0.00,VWS V14.01,2013-02-06 12:48:00,
2013-02-06 06:49:00,57.9,52.1,30.00,SE,135,4.9,4.9,81,0.00,,---,0.00,VWS V14.01,2013-02-06 12:49:00,
2013-02-06 06:50:00,57.9,52.1,30.00,ESE,112,1.1,3.1,81,0.00,,---,0.00,VWS V14.01,2013-02-06 12:50:00,
2013-02-06 06:51:00,57.9,52.1,30.00,SE,135,0.0,0.9,81,0.00,,---,0.00,VWS V14.01,2013-02-06 12:51:00,
2013-02-06 06:52:00,57.9,52.1,30.00,SE,135,0.0,2.0,81,0.00,,---,0.00,VWS V14.01,2013-02-06 12:52:00,
2013-02-06 06:53:00,57.9,52.1,30.00,SE,135,1.6,2.2,81,0.00,,---,0.00,VWS V14.01,2013-02-06 12:53:00,
2013-02-06 06:54:00,57.9,52.1,30.00,SE,135,3.8,3.8,81,0.00,,---,0.00,VWS V14.01,2013-02-06 12:54:00,
2013-02-06 06:55:00,57.7,51.6,30.00,SSE,158,0.0,0.0,80,0.00,,---,0.00,VWS V14.01,2013-02-06 12:55:00,
2013-02-06 06:56:00,57.9,52.1,30.00,East,90,3.4,3.8,81,0.00,,---,0.00,VWS V14.01,2013-02-06 12:56:00,
2013-02-06 06:57:00,57.9,52.1,30.00,SE,135,3.1,3.4,81,0.00,,---,0.00,VWS V14.01,2013-02-06 12:57:00,
2013-02-06 06:58:00,57.9,52.1,30.00,East,90,2.7,3.1,81,0.00,,---,0.00,VWS V14.01,2013-02-06 12:58:00,
2013-02-06 06:59:00,58.0,52.2,30.00,SE,135,2.9,3.6,81,0.00,,---,0.00,VWS V14.01,2013-02-06 12:59:00,
2013-02-06 07:00:00,57.5,51.4,30.00,ENE,68,0.0,0.0,80,0.00,,---,0.00,VWS V14.01,2013-02-06 13:00:00,
2013-02-06 07:01:00,57.9,52.1,30.00,ESE,112,1.1,3.1,81,0.00,,---,0.00,VWS V14.01,2013-02-06 13:01:00,
2013-02-06 07:02:00,57.9,52.1,30.00,East,90,2.5,2.5,81,0.00,,---,0.00,VWS V14.01,2013-02-06 13:02:00,
2013-02-06 07:03:00,57.9,52.1,30.00,South,180,1.1,2.5,81,0.00,,---,0.00,VWS V14.01,2013-02-06 13:03:00,
2013-02-06 07:04:00,57.7,51.9,30.00,SE,135,1.1,1.6,81,0.00,,---,0.00,VWS V14.01,2013-02-06 13:04:00,
2013-02-06 07:05:00,57.3,51.2,30.00,NE,45,0.0,0.0,80,0.00,,---,0.00,VWS V14.01,2013-02-06 13:05:00,
2013-02-06 07:06:00,57.7,51.6,30.00,SSE,158,0.0,0.0,80,0.00,,---,0.00,VWS V14.01,2013-02-06 13:06:00,
2013-02-06 07:07:00,57.7,51.6,30.00,SSE,158,0.0,0.0,80,0.00,,---,0.00,VWS V14.01,2013-02-06 13:07:00,
2013-02-06 07:08:00,57.5,51.4,30.00,ENE,68,0.0,0.0,80,0.00,,---,0.00,VWS V14.01,2013-02-06 13:08:00,
2013-02-06 07:09:00,57.5,51.4,30.00,ENE,68,0.0,0.0,80,0.00,,---,0.00,VWS V14.01,2013-02-06 13:09:00,
2013-02-06 07:10:00,57.3,51.2,29.97,East,90,0.0,0.0,80,0.00,,---,0.00,VWS V14.01,2013-02-06 13:10:00,
2013-02-06 07:11:00,57.5,51.4,30.00,ENE,68,0.0,0.0,80,0.00,,---,0.00,VWS V14.01,2013-02-06 13:11:00,
2013-02-06 07:12:00,57.5,51.4,30.00,East,90,0.0,0.0,80,0.00,,---,0.00,VWS V14.01,2013-02-06 13:12:00,
2013-02-06 07:13:00,57.5,51.4,30.00,East,90,0.0,0.0,80,0.00,,---,0.00,VWS V14.01,2013-02-06 13:13:00,
2013-02-06 07:14:00,57.3,51.2,30.00,East,90,0.0,0.0,80,0.00,,---,0.00,VWS V14.01,2013-02-06 13:14:00,
2013-02-06 07:15:00,57.2,51.4,29.97,East,90,0.0,0.0,81,0.00,,---,0.00,VWS V14.01,2013-02-06 13:15:00,
2013-02-06 07:16:00,57.3,51.2,30.00,NE,45,0.0,0.0,80,0.00,,---,0.00,VWS V14.01,2013-02-06 13:16:00,
2013-02-06 07:17:00,57.3,51.2,29.97,NE,45,0.0,0.0,80,0.00,,---,0.00,VWS V14.01,2013-02-06 13:17:00,
2013-02-06 07:18:00,57.3,51.2,29.97,NE,45,0.0,0.0,80,0.00,,---,0.00,VWS V14.01,2013-02-06 13:18:00,
2013-02-06 07:19:00,57.3,51.2,29.97,East,90,0.0,0.0,80,0.00,,---,0.00,VWS V14.01,2013-02-06 13:19:00,
2013-02-06 07:20:00,57.2,51.4,29.97,NNE,22,0.0,2.5,81,0.00,,---,0.00,VWS V14.01,2013-02-06 13:20:00,
2013-02-06 07:21:00,57.3,51.2,29.97,East,90,0.0,0.0,80,0.00,,---,0.00,VWS V14.01,2013-02-06 13:21:00,
2013-02-06 07:22:00,57.2,51.0,29.97,East,90,0.0,0.2,80,0.00,,---,0.00,VWS V14.01,2013-02-06 13:22:00,
2013-02-06 07:23:00,57.2,51.0,29.97,NE,45,2.2,2.2,80,0.00,,---,0.00,VWS V14.01,2013-02-06 13:23:00,
2013-02-06 07:24:00,57.2,51.4,29.97,East,90,0.0,2.2,81,0.00,,---,0.00,VWS V14.01,2013-02-06 13:24:00,
2013-02-06 07:25:00,57.0,51.2,30.00,ESE,112,2.7,2.7,81,0.00,,---,0.00,VWS V14.01,2013-02-06 13:25:00,
2013-02-06 07:26:00,57.2,51.4,29.97,East,90,0.0,0.0,81,0.00,,---,0.00,VWS V14.01,2013-02-06 13:26:00,
2013-02-06 07:27:00,57.2,51.4,29.97,East,90,0.0,0.0,81,0.00,,---,0.00,VWS V14.01,2013-02-06 13:27:00,
2013-02-06 07:28:00,57.2,51.4,29.97,East,90,0.0,0.0,81,0.00,,---,0.00,VWS V14.01,2013-02-06 13:28:00,
2013-02-06 07:29:00,57.2,51.4,29.97,NE,45,0.0,0.0,81,0.00,,---,0.00,VWS V14.01,2013-02-06 13:29:00,
2013-02-06 07:30:00,56.8,51.4,30.00,East,90,0.0,2.0,82,0.00,,---,0.00,VWS V14.01,2013-02-06 13:30:00,
2013-02-06 07:31:00,57.2,51.4,29.97,NNE,22,0.0,2.5,81,0.00,,---,0.00,VWS V14.01,2013-02-06 13:31:00,
2013-02-06 07:32:00,57.2,51.4,30.00,SSE,158,0.0,0.0,81,0.00,,---,0.00,VWS V14.01,2013-02-06 13:32:00,
2013-02-06 07:33:00,57.2,51.4,30.00,SSE,158,2.5,2.7,81,0.00,,---,0.00,VWS V14.01,2013-02-06 13:33:00,
2013-02-06 07:34:00,57.0,51.2,30.00,South,180,2.0,2.5,81,0.00,,---,0.00,VWS V14.01,2013-02-06 13:34:00,
2013-02-06 07:35:00,56.8,51.4,30.00,SE,135,1.3,2.0,82,0.00,,---,0.00,VWS V14.01,2013-02-06 13:35:00,
2013-02-06 07:36:00,57.0,51.2,30.00,ESE,112,2.7,2.7,81,0.00,,---,0.00,VWS V14.01,2013-02-06 13:36:00,
2013-02-06 07:37:00,57.0,51.5,30.00,ENE,68,0.9,2.7,82,0.00,,---,0.00,VWS V14.01,2013-02-06 13:37:00,
2013-02-06 07:38:00,57.0,51.5,30.00,East,90,0.9,0.9,82,0.00,,---,0.00,VWS V14.01,2013-02-06 13:38:00,
2013-02-06 07:39:00,56.8,51.4,30.00,East,90,1.6,1.6,82,0.00,,---,0.00,VWS V14.01,2013-02-06 13:39:00,
2013-02-06 07:40:00,56.6,51.2,30.00,ENE,68,2.0,2.5,82,0.00,,---,0.00,VWS V14.01,2013-02-06 13:40:00,
2013-02-06 07:41:00,56.8,51.4,30.00,East,90,0.0,2.0,82,0.00,,---,0.00,VWS V14.01,2013-02-06 13:41:00,
2013-02-06 07:42:00,56.8,51.4,30.00,ENE,68,0.0,0.0,82,0.00,,---,0.00,VWS V14.01,2013-02-06 13:42:00,
2013-02-06 07:43:00,56.8,51.4,30.00,SSE,158,0.0,0.0,82,0.00,,---,0.00,VWS V14.01,2013-02-06 13:43:00,
2013-02-06 07:44:00,56.8,51.4,30.00,South,180,0.0,0.0,82,0.00,,---,0.00,VWS V14.01,2013-02-06 13:44:00,
2013-02-06 07:45:00,56.8,51.7,30.00,SE,135,2.0,2.9,83,0.00,,---,0.00,VWS V14.01,2013-02-06 13:45:00,
2013-02-06 07:46:00,56.8,51.4,30.00,SE,135,1.3,2.0,82,0.00,,---,0.00,VWS V14.01,2013-02-06 13:46:00,
2013-02-06 07:47:00,56.6,51.2,30.00,SE,135,0.0,1.3,82,0.00,,---,0.00,VWS V14.01,2013-02-06 13:47:00,
2013-02-06 07:48:00,56.6,51.2,30.00,SE,135,0.0,0.0,82,0.00,,---,0.00,VWS V14.01,2013-02-06 13:48:00,
2013-02-06 07:49:00,56.6,51.2,30.00,SE,135,0.0,0.0,82,0.00,,---,0.00,VWS V14.01,2013-02-06 13:49:00,
2013-02-06 07:50:00,57.0,52.2,30.00,ESE,112,1.3,3.1,84,0.00,,---,0.00,VWS V14.01,2013-02-06 13:50:00,
2013-02-06 07:51:00,56.6,51.2,30.00,ENE,68,2.0,2.5,82,0.00,,---,0.00,VWS V14.01,2013-02-06 13:51:00,
2013-02-06 07:52:00,56.8,51.4,30.00,East,90,1.6,2.9,82,0.00,,---,0.00,VWS V14.01,2013-02-06 13:52:00,
2013-02-06 07:53:00,56.8,51.7,30.00,SSE,158,1.3,2.5,83,0.00,,---,0.00,VWS V14.01,2013-02-06 13:53:00,
2013-02-06 07:54:00,56.8,51.7,30.00,SE,135,0.9,2.5,83,0.00,,---,0.00,VWS V14.01,2013-02-06 13:54:00,
2013-02-06 07:55:00,57.0,51.9,29.97,SE,135,2.5,2.5,83,0.00,,---,0.00,VWS V14.01,2013-02-06 13:55:00,
2013-02-06 07:56:00,56.8,51.7,30.00,SE,135,2.0,2.9,83,0.00,,---,0.00,VWS V14.01,2013-02-06 13:56:00,
2013-02-06 07:57:00,56.8,51.7,30.00,SE,135,2.2,2.9,83,0.00,,---,0.00,VWS V14.01,2013-02-06 13:57:00,
2013-02-06 07:58:00,56.8,51.7,30.00,ESE,112,2.2,2.7,83,0.00,,---,0.00,VWS V14.01,2013-02-06 13:58:00,
2013-02-06 07:59:00,56.8,51.7,30.00,SE,135,2.0,2.2,83,0.00,,---,0.00,VWS V14.01,2013-02-06 13:59:00,
2013-02-06 08:00:00,57.3,52.5,29.97,ESE,112,2.5,2.5,84,0.00,,---,0.00,VWS V14.01,2013-02-06 14:00:00,
2013-02-06 08:01:00,57.0,52.2,30.00,ESE,112,1.3,3.1,84,0.00,,---,0.00,VWS V14.01,2013-02-06 14:01:00,
2013-02-06 08:02:00,57.0,52.2,29.97,East,90,1.3,1.6,84,0.00,,---,0.00,VWS V14.01,2013-02-06 14:02:00,
2013-02-06 08:03:00,57.0,52.2,29.97,SE,135,0.0,2.0,84,0.00,,---,0.00,VWS V14.01,2013-02-06 14:03:00,
2013-02-06 08:04:00,57.0,51.9,29.97,SE,135,1.3,1.6,83,0.00,,---,0.00,VWS V14.01,2013-02-06 14:04:00,
2013-02-06 08:05:00,57.5,52.7,29.97,SE,135,2.7,2.9,84,0.00,,---,0.00,VWS V14.01,2013-02-06 14:05:00,
2013-02-06 08:06:00,57.0,51.9,29.97,SE,135,2.5,2.5,83,0.00,,---,0.00,VWS V14.01,2013-02-06 14:06:00,
2013-02-06 08:07:00,57.0,52.2,29.97,SE,135,0.0,2.5,84,0.00,,---,0.00,VWS V14.01,2013-02-06 14:07:00,
2013-02-06 08:08:00,57.2,52.0,29.97,SE,135,0.0,0.0,83,0.00,,---,0.00,VWS V14.01,2013-02-06 14:08:00,
2013-02-06 08:09:00,57.2,52.4,29.97,East,90,0.0,0.0,84,0.00,,---,0.00,VWS V14.01,2013-02-06 14:09:00,
2013-02-06 08:10:00,57.7,52.9,30.00,East,90,3.1,4.3,84,0.00,,---,0.00,VWS V14.01,2013-02-06 14:10:00,
2013-02-06 08:11:00,57.3,52.5,29.97,ESE,112,2.5,2.5,84,0.00,,---,0.00,VWS V14.01,2013-02-06 14:11:00,
2013-02-06 08:12:00,57.3,52.5,29.97,ENE,68,0.9,2.9,84,0.00,,---,0.00,VWS V14.01,2013-02-06 14:12:00,
2013-02-06 08:13:00,57.3,52.5,29.97,SE,135,2.5,2.7,84,0.00,,---,0.00,VWS V14.01,2013-02-06 14:13:00,
2013-02-06 08:14:00,57.5,52.7,29.97,East,90,3.1,3.1,84,0.00,,---,0.00,VWS V14.01,2013-02-06 14:14:00,
2013-02-06 08:15:00,58.0,53.6,30.00,ESE,112,2.7,3.6,85,0.00,,---,0.00,VWS V14.01,2013-02-06 14:15:00,
2013-02-06 08:16:00,57.5,52.7,29.97,SE,135,2.7,2.9,84,0.00,,---,0.00,VWS V14.01,2013-02-06 14:16:00,
2013-02-06 08:17:00,57.7,52.9,30.00,SE,135,1.6,2.7,84,0.00,,---,0.00,VWS V14.01,2013-02-06 14:17:00,
2013-02-06 08:20:00,58.2,53.7,30.00,SE,135,0.0,2.5,85,0.00,,---,0.00,VWS V14.01,2013-02-06 14:20:00,
2013-02-06 08:21:00,57.7,52.9,30.00,East,90,3.1,4.3,84,0.00,,---,0.00,VWS V14.01,2013-02-06 14:21:00,
2013-02-06 08:22:00,57.9,53.4,30.00,East,90,4.7,4.7,85,0.00,,---,0.00,VWS V14.01,2013-02-06 14:22:00,
2013-02-06 08:23:00,57.9,53.4,30.00,SE,135,2.5,4.7,85,0.00,,---,0.00,VWS V14.01,2013-02-06 14:23:00,
2013-02-06 08:24:00,57.9,53.4,30.00,SE,135,2.7,3.8,85,0.00,,---,0.00,VWS V14.01,2013-02-06 14:24:00,
2013-02-06 08:25:00,58.2,53.4,30.00,East,90,2.2,3.8,84,0.00,,---,0.00,VWS V14.01,2013-02-06 14:25:00,
2013-02-06 08:28:00,58.0,53.6,30.00,ESE,112,2.0,4.0,85,0.00,,---,0.00,VWS V14.01,2013-02-06 14:28:00,
2013-02-06 08:29:00,58.0,53.6,30.00,SE,135,2.5,2.7,85,0.00,,---,0.00,VWS V14.01,2013-02-06 14:29:00,
2013-02-06 08:30:00,58.2,53.1,30.00,ESE,112,0.0,0.0,83,0.00,,---,0.00,VWS V14.01,2013-02-06 14:30:00,
2013-02-06 08:31:00,58.2,53.7,30.00,SE,135,0.0,2.5,85,0.00,,---,0.00,VWS V14.01,2013-02-06 14:31:00,
2013-02-06 08:32:00,58.2,53.4,30.00,East,90,2.9,3.6,84,0.00,,---,0.00,VWS V14.01,2013-02-06 14:32:00,
2013-02-06 08:33:00,58.2,53.4,30.00,ESE,112,2.9,3.1,84,0.00,,---,0.00,VWS V14.01,2013-02-06 14:33:00,
2013-02-06 08:34:00,58.2,53.4,30.00,SE,135,2.0,2.9,84,0.00,,---,0.00,VWS V14.01,2013-02-06 14:34:00,
2013-02-06 08:35:00,58.4,53.2,30.00,SE,135,0.0,0.9,83,0.00,,---,0.00,VWS V14.01,2013-02-06 14:35:00,
2013-02-06 08:36:00,58.2,53.4,30.00,East,90,2.2,3.8,84,0.00,,---,0.00,VWS V14.01,2013-02-06 14:36:00,
2013-02-06 08:37:00,58.2,53.4,30.00,East,90,1.3,2.2,84,0.00,,---,0.00,VWS V14.01,2013-02-06 14:37:00,
2013-02-06 08:38:00,58.2,53.4,30.00,SE,135,0.0,1.3,84,0.00,,---,0.00,VWS V14.01,2013-02-06 14:38:00,
2013-02-06 08:39:00,58.2,53.4,30.00,SE,135,0.0,0.0,84,0.00,,---,0.00,VWS V14.01,2013-02-06 14:39:00,
2013-02-06 08:40:00,58.7,53.6,30.00,South,180,2.5,3.8,83,0.00,,---,0.00,VWS V14.01,2013-02-06 14:40:00,
2013-02-06 08:41:00,58.2,53.1,30.00,ESE,112,0.0,0.0,83,0.00,,---,0.00,VWS V14.01,2013-02-06 14:41:00,
2013-02-06 08:42:00,58.2,53.1,30.00,SE,135,2.7,2.7,83,0.00,,---,0.00,VWS V14.01,2013-02-06 14:42:00,
2013-02-06 08:44:00,58.4,53.2,30.00,SE,135,1.3,1.3,83,0.00,,---,0.00,VWS V14.01,2013-02-06 14:44:00,
2013-02-06 08:45:00,59.1,54.0,30.00,East,90,3.1,3.1,83,0.00,,---,0.00,VWS V14.01,2013-02-06 14:45:00,
2013-02-06 08:48:00,58.6,53.4,30.00,ESE,112,2.7,2.9,83,0.00,,---,0.00,VWS V14.01,2013-02-06 14:48:00,
2013-02-06 08:49:00,58.6,53.4,30.00,South,180,2.2,3.6,83,0.00,,---,0.00,VWS V14.01,2013-02-06 14:49:00,
2013-02-06 08:50:00,59.3,54.1,30.00,SE,135,2.9,3.8,83,0.00,,---,0.00,VWS V14.01,2013-02-06 14:50:00,
2013-02-06 08:51:00,58.7,53.6,30.00,South,180,2.5,3.8,83,0.00,,---,0.00,VWS V14.01,2013-02-06 14:51:00,
2013-02-06 08:52:00,58.9,53.8,30.00,East,90,7.8,7.8,83,0.00,,---,0.00,VWS V14.01,2013-02-06 14:52:00,
2013-02-06 08:53:00,58.9,53.8,30.00,East,90,2.7,7.8,83,0.00,,---,0.00,VWS V14.01,2013-02-06 14:53:00,
2013-02-06 08:54:00,58.9,54.1,30.00,East,90,4.0,6.3,84,0.00,,---,0.00,VWS V14.01,2013-02-06 14:54:00,
2013-02-06 08:55:00,60.0,54.8,30.00,East,90,4.9,7.6,83,0.00,,---,0.00,VWS V14.01,2013-02-06 14:55:00,
2013-02-06 08:56:00,59.1,54.0,30.00,East,90,3.1,3.1,83,0.00,,---,0.00,VWS V14.01,2013-02-06 14:56:00,
2013-02-06 08:57:00,59.1,54.0,30.00,SSE,158,4.3,4.3,83,0.00,,---,0.00,VWS V14.01,2013-02-06 14:57:00,
2013-02-06 08:58:00,59.1,54.0,30.00,SE,135,4.9,4.9,83,0.00,,---,0.00,VWS V14.01,2013-02-06 14:58:00,
2013-02-06 08:59:00,59.3,54.1,30.00,SSE,158,2.7,4.9,83,0.00,,---,0.00,VWS V14.01,2013-02-06 14:59:00,
2013-02-06 09:00:00,60.3,54.5,30.00,SE,135,3.1,4.0,81,0.00,,---,0.00,VWS V14.01,2013-02-06 15:00:00,
2013-02-06 09:01:00,59.3,54.1,30.00,SE,135,2.9,3.8,83,0.00,,---,0.00,VWS V14.01,2013-02-06 15:01:00,
2013-02-06 09:03:00,59.5,54.3,30.00,ESE,112,1.6,4.3,83,0.00,,---,0.00,VWS V14.01,2013-02-06 15:03:00,
2013-02-06 09:04:00,59.5,54.3,30.00,SE,135,4.7,4.7,83,0.00,,---,0.00,VWS V14.01,2013-02-06 15:04:00,
2013-02-06 09:05:00,60.0,54.1,30.00,East,90,4.0,5.6,81,0.00,,---,0.00,VWS V14.01,2013-02-06 15:05:00,
2013-02-06 09:06:00,60.0,54.8,30.00,East,90,4.9,7.6,83,0.00,,---,0.00,VWS V14.01,2013-02-06 15:06:00,
2013-02-06 09:07:00,60.0,54.5,30.00,SE,135,4.3,5.4,82,0.00,,---,0.00,VWS V14.01,2013-02-06 15:07:00,
2013-02-06 09:10:00,60.2,54.3,30.00,East,90,4.3,6.0,81,0.00,,---,0.00,VWS V14.01,2013-02-06 15:10:00,
2013-02-06 09:11:00,60.3,54.5,30.00,SE,135,3.1,4.0,81,0.00,,---,0.00,VWS V14.01,2013-02-06 15:11:00,
2013-02-06 09:12:00,60.2,54.3,30.00,ESE,112,3.6,3.6,81,0.00,,---,0.00,VWS V14.01,2013-02-06 15:12:00,
2013-02-06 09:15:00,60.9,54.7,30.00,ESE,112,5.6,6.5,80,0.00,,---,0.00,VWS V14.01,2013-02-06 15:15:00,
2013-02-06 09:16:00,60.0,54.2,30.00,East,90,4.0,5.6,81,0.00,,---,0.00,VWS V14.01,2013-02-06 15:16:00,
2013-02-06 09:17:00,59.8,54.0,30.00,ESE,112,2.9,4.0,81,0.00,,---,0.00,VWS V14.01,2013-02-06 15:17:00,
2013-02-06 09:18:00,59.8,54.0,30.00,ESE,112,3.4,4.3,81,0.00,,---,0.00,VWS V14.01,2013-02-06 15:18:00,
2013-02-06 09:19:00,59.8,54.0,30.00,East,90,3.8,4.9,81,0.00,,---,0.00,VWS V14.01,2013-02-06 15:19:00,
2013-02-06 09:20:00,61.4,54.8,30.00,ESE,112,5.6,5.6,79,0.00,,---,0.00,VWS V14.01,2013-02-06 15:20:00,
2013-02-06 09:21:00,60.2,54.3,30.00,East,90,4.3,6.0,81,0.00,,---,0.00,VWS V14.01,2013-02-06 15:21:00,
2013-02-06 09:23:00,60.5,54.3,30.00,SSW,202,2.7,4.7,80,0.00,,---,0.00,VWS V14.01,2013-02-06 15:23:00,
2013-02-06 09:24:00,60.5,54.3,30.00,ESE,112,2.9,6.3,80,0.00,,---,0.00,VWS V14.01,2013-02-06 15:24:00,
2013-02-06 09:25:00,62.1,55.2,30.00,East,90,0.0,3.8,78,0.00,,---,0.00,VWS V14.01,2013-02-06 15:25:00,
2013-02-06 09:26:00,60.9,54.7,30.00,ESE,112,5.6,6.5,80,0.00,,---,0.00,VWS V14.01,2013-02-06 15:26:00,
2013-02-06 09:27:00,60.9,54.7,30.00,SE,135,2.9,5.6,80,0.00,,---,0.00,VWS V14.01,2013-02-06 15:27:00,
2013-02-06 09:28:00,60.9,54.7,30.00,SSE,158,3.4,3.4,80,0.00,,---,0.00,VWS V14.01,2013-02-06 15:28:00,
2013-02-06 09:29:00,61.0,54.8,30.00,SE,135,2.9,3.4,80,0.00,,---,0.00,VWS V14.01,2013-02-06 15:29:00,
2013-02-06 09:30:00,62.6,55.0,30.00,SE,135,2.0,4.9,76,0.00,,---,0.00,VWS V14.01,2013-02-06 15:30:00,
2013-02-06 09:31:00,61.4,54.8,30.00,ESE,112,5.6,5.6,79,0.00,,---,0.00,VWS V14.01,2013-02-06 15:31:00,
2013-02-06 09:32:00,61.4,54.8,30.00,ESE,112,5.8,5.8,79,0.00,,---,0.00,VWS V14.01,2013-02-06 15:32:00,
2013-02-06 09:33:00,61.8,55.2,30.00,ESE,112,3.8,6.3,79,0.00,,---,0.00,VWS V14.01,2013-02-06 15:33:00,
2013-02-06 09:34:00,61.9,55.0,30.00,ESE,112,4.3,4.3,78,0.00,,---,0.00,VWS V14.01,2013-02-06 15:34:00,
2013-02-06 09:35:00,63.0,55.3,30.00,East,90,4.3,5.8,76,0.00,,---,0.00,VWS V14.01,2013-02-06 15:35:00,
2013-02-06 09:36:00,62.1,55.2,30.00,East,90,0.0,3.8,78,0.00,,---,0.00,VWS V14.01,2013-02-06 15:36:00,
2013-02-06 09:38:00,62.3,55.0,30.00,SE,135,2.2,3.6,77,0.00,,---,0.00,VWS V14.01,2013-02-06 15:38:00,
2013-02-06 09:39:00,62.5,55.2,30.00,SE,135,3.1,3.4,77,0.00,,---,0.00,VWS V14.01,2013-02-06 15:39:00,
2013-02-06 09:40:00,65.8,56.6,30.00,South,180,5.4,6.0,72,0.00,,---,0.00,VWS V14.01,2013-02-06 15:40:00,
2013-02-06 09:41:00,62.6,55.0,30.00,SE,135,2.0,4.9,76,0.00,,---,0.00,VWS V14.01,2013-02-06 15:41:00,
2013-02-06 09:42:00,62.6,55.0,30.00,East,90,4.9,4.9,76,0.00,,---,0.00,VWS V14.01,2013-02-06 15:42:00,
2013-02-06 09:43:00,62.6,55.0,30.00,SSE,158,2.5,4.9,76,0.00,,---,0.00,VWS V14.01,2013-02-06 15:43:00,
2013-02-06 09:44:00,62.8,55.2,30.00,East,90,3.8,3.8,76,0.00,,---,0.00,VWS V14.01,2013-02-06 15:44:00,
2013-02-06 09:45:00,65.7,54.8,30.00,SE,135,6.0,6.5,68,0.00,,---,0.00,VWS V14.01,2013-02-06 15:45:00,
2013-02-06 09:46:00,63.0,55.3,30.00,East,90,4.3,5.8,76,0.00,,---,0.00,VWS V14.01,2013-02-06 15:46:00,
2013-02-06 09:47:00,63.3,55.7,30.00,ESE,112,3.6,4.3,76,0.00,,---,0.00,VWS V14.01,2013-02-06 15:47:00,
2013-02-06 09:48:00,64.4,56.7,30.00,South,180,2.5,4.5,76,0.00,,---,0.00,VWS V14.01,2013-02-06 15:48:00,
2013-02-06 09:49:00,64.8,56.7,30.00,SE,135,3.6,4.5,75,0.00,,---,0.00,VWS V14.01,2013-02-06 15:49:00,
2013-02-06 09:50:00,64.8,54.4,30.00,ESE,112,7.8,8.1,69,0.00,,---,0.00,VWS V14.01,2013-02-06 15:50:00,
2013-02-06 09:51:00,65.8,56.6,30.00,South,180,5.4,6.0,72,0.00,,---,0.00,VWS V14.01,2013-02-06 15:51:00,
2013-02-06 09:52:00,66.0,56.3,30.00,SSE,158,6.5,7.6,71,0.00,,---,0.00,VWS V14.01,2013-02-06 15:52:00,
2013-02-06 09:53:00,66.2,56.1,30.00,SE,135,5.8,6.5,70,0.00,,---,0.00,VWS V14.01,2013-02-06 15:53:00,
2013-02-06 09:54:00,66.2,55.7,30.00,East,90,7.4,8.5,69,0.00,,---,0.00,VWS V14.01,2013-02-06 15:54:00,
2013-02-06 09:55:00,64.1,54.1,30.00,East,90,3.8,10.1,70,0.00,,---,0.00,VWS V14.01,2013-02-06 15:55:00,
2013-02-06 09:56:00,65.7,54.8,30.00,SE,135,6.0,6.5,68,0.00,,---,0.00,VWS V14.01,2013-02-06 15:56:00,
2013-02-06 09:57:00,65.5,55.0,30.00,South,180,2.5,7.4,69,0.00,,---,0.00,VWS V14.01,2013-02-06 15:57:00,
2013-02-06 09:58:00,65.3,54.9,30.00,SE,135,4.9,6.0,69,0.00,,---,0.00,VWS V14.01,2013-02-06 15:58:00,
2013-02-06 09:59:00,65.3,54.9,30.00,SSE,158,6.5,6.5,69,0.00,,---,0.00,VWS V14.01,2013-02-06 15:59:00,
2013-02-06 10:00:00,63.5,54.3,30.00,SSE,158,9.8,9.8,72,0.00,,---,0.00,VWS V14.01,2013-02-06 16:00:00,
2013-02-06 10:01:00,64.8,54.4,30.00,ESE,112,7.8,8.1,69,0.00,,---,0.00,VWS V14.01,2013-02-06 16:01:00,
2013-02-06 10:02:00,64.6,54.2,30.00,ESE,112,6.5,7.8,69,0.00,,---,0.00,VWS V14.01,2013-02-06 16:02:00,
2013-02-06 10:03:00,64.2,54.3,30.00,SE,135,4.0,7.4,70,0.00,,---,0.00,VWS V14.01,2013-02-06 16:03:00,
2013-02-06 10:04:00,64.2,54.3,30.00,SE,135,7.6,7.6,70,0.00,,---,0.00,VWS V14.01,2013-02-06 16:04:00,
2013-02-06 10:05:00,63.3,54.2,30.00,South,180,6.5,9.6,72,0.00,,---,0.00,VWS V14.01,2013-02-06 16:05:00,
2013-02-06 10:06:00,64.1,54.1,30.00,East,90,3.8,10.1,70,0.00,,---,0.00,VWS V14.01,2013-02-06 16:06:00,
2013-02-06 10:07:00,63.9,53.9,30.00,SE,135,5.6,10.5,70,0.00,,---,0.00,VWS V14.01,2013-02-06 16:07:00,
2013-02-06 10:08:00,63.9,54.3,30.00,ESE,112,6.0,6.5,71,0.00,,---,0.00,VWS V14.01,2013-02-06 16:08:00,
2013-02-06 10:09:00,63.7,54.1,30.00,SE,135,8.5,8.7,71,0.00,,---,0.00,VWS V14.01,2013-02-06 16:09:00,
2013-02-06 10:10:00,63.2,54.4,30.00,SSE,158,6.3,8.7,73,0.00,,---,0.00,VWS V14.01,2013-02-06 16:10:00,
2013-02-06 10:11:00,63.5,54.3,30.00,SSE,158,9.8,9.8,72,0.00,,---,0.00,VWS V14.01,2013-02-06 16:11:00,
2013-02-06 10:12:00,63.5,54.3,30.00,SSE,158,4.0,9.8,72,0.00,,---,0.00,VWS V14.01,2013-02-06 16:12:00,
2013-02-06 10:13:00,63.5,54.3,30.00,South,180,10.3,10.3,72,0.00,,---,0.00,VWS V14.01,2013-02-06 16:13:00,
2013-02-06 10:14:00,63.3,54.2,30.00,South,180,5.4,10.3,72,0.00,,---,0.00,VWS V14.01,2013-02-06 16:14:00,
2013-02-06 10:15:00,63.9,55.1,30.00,SSE,158,4.3,7.6,73,0.00,,---,0.00,VWS V14.01,2013-02-06 16:15:00,
2013-02-06 10:16:00,63.3,54.2,30.00,South,180,6.5,9.6,72,0.00,,---,0.00,VWS V14.01,2013-02-06 16:16:00,
2013-02-06 10:17:00,63.3,54.6,30.00,SE,135,4.0,6.5,73,0.00,,---,0.00,VWS V14.01,2013-02-06 16:17:00,
2013-02-06 10:18:00,63.3,54.6,30.00,SSE,158,3.8,4.9,73,0.00,,---,0.00,VWS V14.01,2013-02-06 16:18:00,
2013-02-06 10:19:00,63.2,54.4,30.00,SE,135,8.7,8.7,73,0.00,,---,0.00,VWS V14.01,2013-02-06 16:19:00,
2013-02-06 10:20:00,64.9,55.7,30.00,ESE,112,5.4,5.6,72,0.00,,---,0.00,VWS V14.01,2013-02-06 16:20:00,
2013-02-06 10:21:00,63.2,54.4,30.00,SSE,158,6.3,8.7,73,0.00,,---,0.00,VWS V14.01,2013-02-06 16:21:00,
2013-02-06 10:22:00,63.2,54.4,30.00,SSW,202,4.9,7.4,73,0.00,,---,0.00,VWS V14.01,2013-02-06 16:22:00,
2013-02-06 10:23:00,63.3,54.9,30.00,ESE,112,5.4,8.1,74,0.00,,---,0.00,VWS V14.01,2013-02-06 16:23:00,
2013-02-06 10:24:00,63.5,55.1,30.00,SE,135,4.0,6.5,74,0.00,,---,0.00,VWS V14.01,2013-02-06 16:24:00,
2013-02-06 10:25:00,64.6,55.0,30.00,SE,135,4.3,7.4,71,0.00,,---,0.00,VWS V14.01,2013-02-06 16:25:00,
2013-02-06 10:26:00,63.9,55.1,30.00,SSE,158,4.3,7.6,73,0.00,,---,0.00,VWS V14.01,2013-02-06 16:26:00,
2013-02-06 10:27:00,64.2,55.0,30.00,SE,135,8.7,10.1,72,0.00,,---,0.00,VWS V14.01,2013-02-06 16:27:00,
2013-02-06 10:28:00,64.6,55.4,30.00,ESE,112,3.8,8.7,72,0.00,,---,0.00,VWS V14.01,2013-02-06 16:28:00,
2013-02-06 10:29:00,64.8,55.5,30.00,South,180,4.0,5.4,72,0.00,,---,0.00,VWS V14.01,2013-02-06 16:29:00,
2013-02-06 10:30:00,64.9,55.3,30.00,SSE,158,5.4,7.6,71,0.00,,---,0.00,VWS V14.01,2013-02-06 16:30:00,
2013-02-06 10:31:00,64.9,55.7,30.00,ESE,112,5.4,5.6,72,0.00,,---,0.00,VWS V14.01,2013-02-06 16:31:00,
2013-02-06 10:32:00,64.9,55.3,30.00,SSE,158,7.2,7.8,71,0.00,,---,0.00,VWS V14.01,2013-02-06 16:32:00,
2013-02-06 10:33:00,64.9,55.3,30.00,SSE,158,6.5,7.2,71,0.00,,---,0.00,VWS V14.01,2013-02-06 16:33:00,
2013-02-06 10:34:00,64.8,55.2,30.00,ESE,112,8.5,8.5,71,0.00,,---,0.00,VWS V14.01,2013-02-06 16:34:00,
2013-02-06 10:35:00,64.6,55.0,30.00,SE,135,6.9,6.9,71,0.00,,---,0.00,VWS V14.01,2013-02-06 16:35:00,
2013-02-06 10:36:00,64.6,55.0,30.00,SE,135,4.3,7.4,71,0.00,,---,0.00,VWS V14.01,2013-02-06 16:36:00,
2013-02-06 10:38:00,65.1,55.5,30.00,SSE,158,4.9,6.0,71,0.00,,---,0.00,VWS V14.01,2013-02-06 16:38:00,
2013-02-06 10:40:00,64.8,55.2,30.00,SE,135,6.0,6.5,71,0.00,,---,0.00,VWS V14.01,2013-02-06 16:40:00,
2013-02-06 10:41:00,64.9,55.3,30.00,SSE,158,5.4,7.6,71,0.00,,---,0.00,VWS V14.01,2013-02-06 16:41:00,
2013-02-06 10:43:00,64.8,55.2,30.00,SE,135,4.3,7.8,71,0.00,,---,0.00,VWS V14.01,2013-02-06 16:43:00,
2013-02-06 10:45:00,64.9,55.3,30.00,SE,135,5.4,6.5,71,0.00,,---,0.00,VWS V14.01,2013-02-06 16:45:00,
2013-02-06 10:47:00,64.6,55.0,30.00,SE,135,3.1,6.9,71,0.00,,---,0.00,VWS V14.01,2013-02-06 16:47:00,
2013-02-06 10:48:00,64.6,55.0,30.00,SE,135,7.8,7.8,71,0.00,,---,0.00,VWS V14.01,2013-02-06 16:48:00,
2013-02-06 10:50:00,64.6,55.0,30.00,ESE,112,3.4,6.0,71,0.00,,---,0.00,VWS V14.01,2013-02-06 16:50:00,
2013-02-06 10:51:00,64.8,55.2,30.00,SE,135,6.0,6.5,71,0.00,,---,0.00,VWS V14.01,2013-02-06 16:51:00,
2013-02-06 10:52:00,64.9,55.3,30.00,SSE,158,5.4,6.7,71,0.00,,---,0.00,VWS V14.01,2013-02-06 16:52:00,
2013-02-06 10:53:00,64.9,55.3,30.00,SE,135,5.6,6.5,71,0.00,,---,0.00,VWS V14.01,2013-02-06 16:53:00,
2013-02-06 10:54:00,64.9,55.3,30.00,SE,135,3.6,6.7,71,0.00,,---,0.00,VWS V14.01,2013-02-06 16:54:00,
2013-02-06 10:55:00,65.1,55.5,30.00,SE,135,3.8,6.3,71,0.00,,---,0.00,VWS V14.01,2013-02-06 16:55:00,
2013-02-06 10:56:00,64.9,55.3,30.00,SE,135,5.4,6.5,71,0.00,,---,0.00,VWS V14.01,2013-02-06 16:56:00,
2013-02-06 10:57:00,64.8,55.2,30.00,SE,135,4.9,7.8,71,0.00,,---,0.00,VWS V14.01,2013-02-06 16:57:00,
2013-02-06 10:58:00,64.8,55.2,30.00,SE,135,6.7,7.6,71,0.00,,---,0.00,VWS V14.01,2013-02-06 16:58:00,
2013-02-06 10:59:00,64.8,54.8,30.00,SE,135,7.4,9.8,70,0.00,,---,0.00,VWS V14.01,2013-02-06 16:59:00,
2013-02-06 11:00:00,65.1,55.1,30.00,SE,135,7.8,10.1,70,0.00,,---,0.00,VWS V14.01,2013-02-06 17:00:00,
2013-02-06 11:01:00,64.6,55.0,30.00,ESE,112,3.4,6.0,71,0.00,,---,0.00,VWS V14.01,2013-02-06 17:01:00,
2013-02-06 11:02:00,64.6,55.0,30.00,South,180,7.6,9.4,71,0.00,,---,0.00,VWS V14.01,2013-02-06 17:02:00,
2013-02-06 11:03:00,64.8,55.2,30.00,South,180,7.6,7.8,71,0.00,,---,0.00,VWS V14.01,2013-02-06 17:03:00,
2013-02-06 11:04:00,64.8,55.2,30.00,South,180,7.8,8.7,71,0.00,,---,0.00,VWS V14.01,2013-02-06 17:04:00,
2013-02-06 11:05:00,64.9,54.9,30.00,East,90,4.3,11.0,70,0.00,,---,0.00,VWS V14.01,2013-02-06 17:05:00,
2013-02-06 11:06:00,65.1,55.5,30.00,SE,135,3.8,6.3,71,0.00,,---,0.00,VWS V14.01,2013-02-06 17:06:00,
2013-02-06 11:07:00,65.3,55.7,30.00,ESE,112,3.1,3.8,71,0.00,,---,0.00,VWS V14.01,2013-02-06 17:07:00,
2013-02-06 11:08:00,65.3,55.7,30.00,SE,135,3.8,8.5,71,0.00,,---,0.00,VWS V14.01,2013-02-06 17:08:00,
2013-02-06 11:09:00,65.3,55.7,30.00,SSE,158,3.8,6.3,71,0.00,,---,0.00,VWS V14.01,2013-02-06 17:09:00,
2013-02-06 11:10:00,64.9,55.3,30.00,SE,135,6.9,10.3,71,0.00,,---,0.00,VWS V14.01,2013-02-06 17:10:00,
2013-02-06 11:11:00,65.1,55.1,30.00,SE,135,7.8,10.1,70,0.00,,---,0.00,VWS V14.01,2013-02-06 17:11:00,
2013-02-06 11:12:00,65.1,55.1,30.00,NE,45,4.7,7.8,70,0.00,,---,0.00,VWS V14.01,2013-02-06 17:12:00,
2013-02-06 11:13:00,65.1,55.1,30.00,ESE,112,4.3,6.5,70,0.00,,---,0.00,VWS V14.01,2013-02-06 17:13:00,
2013-02-06 11:14:00,64.9,54.9,30.00,SE,135,4.0,8.5,70,0.00,,---,0.00,VWS V14.01,2013-02-06 17:14:00,
2013-02-06 11:15:00,64.9,55.3,30.00,ESE,112,7.6,7.6,71,0.00,,---,0.00,VWS V14.01,2013-02-06 17:15:00,
2013-02-06 11:16:00,64.9,54.9,30.00,East,90,4.3,11.0,70,0.00,,---,0.00,VWS V14.01,2013-02-06 17:16:00,
2013-02-06 11:17:00,64.9,55.3,30.00,SE,135,5.4,7.8,71,0.00,,---,0.00,VWS V14.01,2013-02-06 17:17:00,
2013-02-06 11:18:00,64.9,55.3,30.00,SE,135,9.0,9.0,71,0.00,,---,0.00,VWS V14.01,2013-02-06 17:18:00,
2013-02-06 11:19:00,64.8,55.2,30.00,ESE,112,5.8,10.3,71,0.00,,---,0.00,VWS V14.01,2013-02-06 17:19:00,
2013-02-06 11:20:00,65.1,55.5,30.00,ESE,112,6.3,7.6,71,0.00,,---,0.00,VWS V14.01,2013-02-06 17:20:00,
2013-02-06 11:21:00,64.9,55.3,30.00,SE,135,6.9,10.3,71,0.00,,---,0.00,VWS V14.01,2013-02-06 17:21:00,
2013-02-06 11:22:00,64.8,55.2,30.00,ESE,112,5.8,10.7,71,0.00,,---,0.00,VWS V14.01,2013-02-06 17:22:00,
2013-02-06 11:23:00,64.8,55.2,30.00,SE,135,6.0,8.5,71,0.00,,---,0.00,VWS V14.01,2013-02-06 17:23:00,
2013-02-06 11:24:00,64.9,55.3,30.00,SSE,158,4.9,6.3,71,0.00,,---,0.00,VWS V14.01,2013-02-06 17:24:00,
2013-02-06 11:25:00,65.3,55.3,30.00,SE,135,4.0,7.2,70,0.00,,---,0.00,VWS V14.01,2013-02-06 17:25:00,
2013-02-06 11:26:00,64.9,55.3,30.00,ESE,112,7.6,7.6,71,0.00,,---,0.00,VWS V14.01,2013-02-06 17:26:00,
2013-02-06 11:27:00,65.1,55.5,30.00,SE,135,4.3,7.6,71,0.00,,---,0.00,VWS V14.01,2013-02-06 17:27:00,
2013-02-06 11:28:00,65.1,55.5,30.00,SSE,158,7.2,7.2,71,0.00,,---,0.00,VWS V14.01,2013-02-06 17:28:00,
2013-02-06 11:29:00,65.1,55.5,30.00,ESE,112,8.5,8.5,71,0.00,,---,0.00,VWS V14.01,2013-02-06 17:29:00,
2013-02-06 11:30:00,65.7,55.6,30.00,SE,135,6.3,6.3,70,0.00,,---,0.00,VWS V14.01,2013-02-06 17:30:00,
2013-02-06 11:31:00,65.1,55.5,30.00,ESE,112,6.3,7.6,71,0.00,,---,0.00,VWS V14.01,2013-02-06 17:31:00,
2013-02-06 11:32:00,65.1,55.5,30.00,SSE,158,5.6,7.6,71,0.00,,---,0.00,VWS V14.01,2013-02-06 17:32:00,
2013-02-06 11:33:00,65.1,55.5,30.00,SE,135,8.1,8.7,71,0.00,,---,0.00,VWS V14.01,2013-02-06 17:33:00,
2013-02-06 11:34:00,65.3,55.3,30.00,SE,135,2.9,8.1,70,0.00,,---,0.00,VWS V14.01,2013-02-06 17:34:00,
2013-02-06 11:35:00,66.2,55.7,30.00,South,180,5.6,6.5,69,0.00,,---,0.00,VWS V14.01,2013-02-06 17:35:00,
2013-02-06 11:36:00,65.3,55.3,30.00,SE,135,4.0,7.2,70,0.00,,---,0.00,VWS V14.01,2013-02-06 17:36:00,
2013-02-06 11:37:00,65.3,55.3,30.00,ESE,112,4.3,7.6,70,0.00,,---,0.00,VWS V14.01,2013-02-06 17:37:00,
2013-02-06 11:38:00,65.3,55.3,30.00,South,180,5.8,6.7,70,0.00,,---,0.00,VWS V14.01,2013-02-06 17:38:00,
2013-02-06 11:39:00,65.3,55.3,30.00,SE,135,4.0,6.5,70,0.00,,---,0.00,VWS V14.01,2013-02-06 17:39:00,
2013-02-06 11:40:00,66.4,55.1,30.00,SSE,158,4.7,9.6,67,0.00,,---,0.00,VWS V14.01,2013-02-06 17:40:00,
2013-02-06 11:41:00,65.7,55.6,30.00,SE,135,6.3,6.3,70,0.00,,---,0.00,VWS V14.01,2013-02-06 17:41:00,
2013-02-06 11:42:00,65.8,55.8,30.00,ESE,112,3.4,6.3,70,0.00,,---,0.00,VWS V14.01,2013-02-06 17:42:00,
2013-02-06 11:43:00,65.8,55.8,30.00,South,180,3.4,3.4,70,0.00,,---,0.00,VWS V14.01,2013-02-06 17:43:00,
2013-02-06 11:44:00,66.0,56.0,30.00,East,90,6.5,6.5,70,0.00,,---,0.00,VWS V14.01,2013-02-06 17:44:00,
2013-02-06 11:45:00,67.8,56.4,30.00,SE,135,2.7,3.4,67,0.00,,---,0.00,VWS V14.01,2013-02-06 17:45:00,
2013-02-06 11:46:00,66.2,55.7,30.00,South,180,5.6,6.5,69,0.00,,---,0.00,VWS V14.01,2013-02-06 17:46:00,
2013-02-06 11:47:00,66.2,55.7,30.00,SW,225,5.8,5.8,69,0.00,,---,0.00,VWS V14.01,2013-02-06 17:47:00,
2013-02-06 11:48:00,66.2,55.3,30.00,SE,135,6.5,6.5,68,0.00,,---,0.00,VWS V14.01,2013-02-06 17:48:00,
2013-02-06 11:49:00,66.4,55.5,30.00,SSE,158,3.4,6.5,68,0.00,,---,0.00,VWS V14.01,2013-02-06 17:49:00,
2013-02-06 11:50:00,67.6,55.4,30.00,SE,135,2.9,5.6,65,0.00,,---,0.00,VWS V14.01,2013-02-06 17:50:00,
2013-02-06 11:51:00,66.4,55.1,30.00,SSE,158,4.7,9.6,67,0.00,,---,0.00,VWS V14.01,2013-02-06 17:51:00,
2013-02-06 11:52:00,66.4,55.1,30.00,SSE,158,3.6,8.1,67,0.00,,---,0.00,VWS V14.01,2013-02-06 17:52:00,
2013-02-06 11:53:00,66.5,55.7,30.00,SE,135,3.8,4.0,68,0.00,,---,0.00,VWS V14.01,2013-02-06 17:53:00,
2013-02-06 11:54:00,66.7,55.8,30.00,East,90,3.6,3.8,68,0.00,,---,0.00,VWS V14.01,2013-02-06 17:54:00,
2013-02-06 11:55:00,68.1,55.9,30.00,SE,135,4.9,4.9,65,0.00,,---,0.00,VWS V14.01,2013-02-06 17:55:00,
2013-02-06 11:57:00,67.8,56.4,30.00,SSE,158,3.6,4.9,67,0.00,,---,0.00,VWS V14.01,2013-02-06 17:57:00,
2013-02-06 11:58:00,67.8,56.0,30.00,SE,135,4.0,8.5,66,0.00,,---,0.00,VWS V14.01,2013-02-06 17:58:00,
2013-02-06 11:59:00,67.8,56.0,30.00,SSE,158,4.0,6.0,66,0.00,,---,0.00,VWS V14.01,2013-02-06 17:59:00,
2013-02-06 12:00:00,68.3,56.1,30.00,SSE,158,4.7,4.7,65,0.00,,---,0.00,VWS V14.01,2013-02-06 18:00:00,
2013-02-06 12:01:00,67.6,55.4,30.00,SE,135,2.9,5.6,65,0.00,,---,0.00,VWS V14.01,2013-02-06 18:01:00,
2013-02-06 12:02:00,67.6,55.4,30.00,SE,135,2.9,4.7,65,0.00,,---,0.00,VWS V14.01,2013-02-06 18:02:00,
2013-02-06 12:03:00,68.0,55.8,30.00,South,180,3.1,3.8,65,0.00,,---,0.00,VWS V14.01,2013-02-06 18:03:00,
2013-02-06 12:04:00,68.0,55.8,30.00,South,180,5.4,5.4,65,0.00,,---,0.00,VWS V14.01,2013-02-06 18:04:00,
2013-02-06 12:05:00,68.5,55.4,30.00,SE,135,2.9,4.9,63,0.00,,---,0.00,VWS V14.01,2013-02-06 18:05:00,
2013-02-06 12:06:00,68.1,55.9,30.00,SE,135,4.9,4.9,65,0.00,,---,0.00,VWS V14.01,2013-02-06 18:06:00,
2013-02-06 12:07:00,68.3,56.1,30.00,SSE,158,6.0,6.0,65,0.00,,---,0.00,VWS V14.01,2013-02-06 18:07:00,
2013-02-06 12:08:00,68.3,56.1,30.00,SSE,158,4.0,6.0,65,0.00,,---,0.00,VWS V14.01,2013-02-06 18:08:00,
2013-02-06 12:09:00,68.5,56.3,30.00,South,180,4.0,4.0,65,0.00,,---,0.00,VWS V14.01,2013-02-06 18:09:00,
2013-02-06 12:10:00,68.5,55.0,29.97,SE,135,4.0,7.6,62,0.00,,---,0.00,VWS V14.01,2013-02-06 18:10:00,
2013-02-06 12:11:00,68.3,56.1,30.00,SSE,158,4.7,4.7,65,0.00,,---,0.00,VWS V14.01,2013-02-06 18:11:00,
2013-02-06 12:12:00,68.1,55.5,30.00,ESE,112,2.9,5.6,64,0.00,,---,0.00,VWS V14.01,2013-02-06 18:12:00,
2013-02-06 12:13:00,68.1,55.5,30.00,South,180,2.7,4.3,64,0.00,,---,0.00,VWS V14.01,2013-02-06 18:13:00,
2013-02-06 12:14:00,68.3,55.2,30.00,NE,45,4.3,4.9,63,0.00,,---,0.00,VWS V14.01,2013-02-06 18:14:00,
2013-02-06 12:15:00,68.7,54.7,29.97,SE,135,6.5,9.8,61,0.00,,---,0.00,VWS V14.01,2013-02-06 18:15:00,
2013-02-06 12:16:00,68.5,55.4,30.00,SE,135,2.9,4.9,63,0.00,,---,0.00,VWS V14.01,2013-02-06 18:16:00,
2013-02-06 12:17:00,68.5,55.4,29.97,ESE,112,3.6,4.3,63,0.00,,---,0.00,VWS V14.01,2013-02-06 18:17:00,
2013-02-06 12:18:00,68.5,55.4,29.97,SE,135,3.6,5.4,63,0.00,,---,0.00,VWS V14.01,2013-02-06 18:18:00,
2013-02-06 12:19:00,68.5,55.4,29.97,SSE,158,4.3,6.0,63,0.00,,---,0.00,VWS V14.01,2013-02-06 18:19:00,
2013-02-06 12:20:00,68.8,54.9,29.97,SSE,158,5.6,7.6,61,0.00,,---,0.00,VWS V14.01,2013-02-06 18:20:00,
2013-02-06 12:21:00,68.5,55.0,29.97,SE,135,4.0,7.6,62,0.00,,---,0.00,VWS V14.01,2013-02-06 18:21:00,
2013-02-06 12:22:00,68.7,55.1,29.97,SE,135,6.5,6.5,62,0.00,,---,0.00,VWS V14.01,2013-02-06 18:22:00,
2013-02-06 12:23:00,68.7,55.1,29.97,ESE,112,5.8,6.5,62,0.00,,---,0.00,VWS V14.01,2013-02-06 18:23:00,
2013-02-06 12:24:00,68.7,55.1,29.97,South,180,4.0,6.0,62,0.00,,---,0.00,VWS V14.01,2013-02-06 18:24:00,
2013-02-06 12:25:00,68.7,54.7,29.97,SE,135,3.1,4.7,61,0.00,,---,0.00,VWS V14.01,2013-02-06 18:25:00,
2013-02-06 12:26:00,68.7,54.7,29.97,SE,135,6.5,9.8,61,0.00,,---,0.00,VWS V14.01,2013-02-06 18:26:00,
2013-02-06 12:27:00,69.2,55.2,29.97,South,180,6.5,7.2,61,0.00,,---,0.00,VWS V14.01,2013-02-06 18:27:00,
2013-02-06 12:28:00,69.6,55.5,29.97,SSE,158,6.5,6.5,61,0.00,,---,0.00,VWS V14.01,2013-02-06 18:28:00,
2013-02-06 12:29:00,69.2,54.7,29.97,South,180,7.6,9.6,60,0.00,,---,0.00,VWS V14.01,2013-02-06 18:29:00,
2013-02-06 12:30:00,70.6,56.5,29.97,SSE,158,2.5,3.6,61,0.00,,---,0.00,VWS V14.01,2013-02-06 18:30:00,
2013-02-06 12:31:00,68.8,54.9,29.97,SSE,158,5.6,7.6,61,0.00,,---,0.00,VWS V14.01,2013-02-06 18:31:00,
2013-02-06 12:32:00,68.7,54.7,29.97,SE,135,4.3,5.6,61,0.00,,---,0.00,VWS V14.01,2013-02-06 18:32:00,
2013-02-06 12:33:00,68.7,54.7,29.97,SSE,158,4.0,4.3,61,0.00,,---,0.00,VWS V14.01,2013-02-06 18:33:00,
2013-02-06 12:34:00,69.0,55.0,29.97,SE,135,4.3,4.3,61,0.00,,---,0.00,VWS V14.01,2013-02-06 18:34:00,
2013-02-06 12:35:00,72.6,56.0,29.97,ENE,68,4.3,4.9,56,0.00,,---,0.00,VWS V14.01,2013-02-06 18:35:00,
2013-02-06 12:36:00,68.7,54.7,29.97,SE,135,3.1,4.7,61,0.00,,---,0.00,VWS V14.01,2013-02-06 18:36:00,
2013-02-06 12:37:00,68.8,54.9,29.97,SE,135,3.8,3.8,61,0.00,,---,0.00,VWS V14.01,2013-02-06 18:37:00,
2013-02-06 12:38:00,68.8,54.9,29.97,ENE,68,1.6,4.3,61,0.00,,---,0.00,VWS V14.01,2013-02-06 18:38:00,
2013-02-06 12:39:00,69.2,55.2,29.97,ENE,68,1.6,1.6,61,0.00,,---,0.00,VWS V14.01,2013-02-06 18:39:00,
2013-02-06 12:40:00,71.7,55.2,29.97,SSE,158,3.1,4.3,56,0.00,,---,0.00,VWS V14.01,2013-02-06 18:40:00,
2013-02-06 12:41:00,70.6,56.5,29.97,SSE,158,2.5,3.6,61,0.00,,---,0.00,VWS V14.01,2013-02-06 18:41:00,
2013-02-06 12:42:00,72.0,56.9,29.97,SE,135,3.6,3.8,59,0.00,,---,0.00,VWS V14.01,2013-02-06 18:42:00,
2013-02-06 12:43:00,72.2,56.6,29.97,SE,135,5.8,5.8,58,0.00,,---,0.00,VWS V14.01,2013-02-06 18:43:00,
2013-02-06 12:44:00,72.4,56.3,29.97,SE,135,6.5,6.5,57,0.00,,---,0.00,VWS V14.01,2013-02-06 18:44:00,
2013-02-06 12:45:00,72.6,54.5,29.97,South,180,6.0,8.5,53,0.00,,---,0.00,VWS V14.01,2013-02-06 18:45:00,
2013-02-06 12:46:00,72.6,56.0,29.97,ENE,68,4.3,4.9,56,0.00,,---,0.00,VWS V14.01,2013-02-06 18:46:00,
2013-02-06 12:47:00,72.6,56.0,29.97,SE,135,6.3,7.6,56,0.00,,---,0.00,VWS V14.01,2013-02-06 18:47:00,
2013-02-06 12:48:00,72.6,56.0,29.97,South,180,0.0,6.3,56,0.00,,---,0.00,VWS V14.01,2013-02-06 18:48:00,
2013-02-06 12:49:00,71.2,54.7,29.97,South,180,4.9,4.9,56,0.00,,---,0.00,VWS V14.01,2013-02-06 18:49:00,
2013-02-06 12:50:00,72.8,54.1,29.97,SE,135,5.4,7.4,52,0.00,,---,0.00,VWS V14.01,2013-02-06 18:50:00,
2013-02-06 12:51:00,71.7,55.2,29.97,SSE,158,3.1,4.3,56,0.00,,---,0.00,VWS V14.01,2013-02-06 18:51:00,
2013-02-06 12:52:00,71.7,55.2,29.97,SE,135,1.6,6.0,56,0.00,,---,0.00,VWS V14.01,2013-02-06 18:52:00,
2013-02-06 12:53:00,72.2,55.2,29.97,SE,135,2.9,6.5,55,0.00,,---,0.00,VWS V14.01,2013-02-06 18:53:00,
2013-02-06 12:54:00,72.4,55.3,29.97,SE,135,3.1,6.5,55,0.00,,---,0.00,VWS V14.01,2013-02-06 18:54:00,
2013-02-06 12:55:00,72.6,53.4,29.94,South,180,10.1,10.3,51,0.00,,---,0.00,VWS V14.01,2013-02-06 18:55:00,
2013-02-06 12:56:00,72.6,54.5,29.97,South,180,6.0,8.5,53,0.00,,---,0.00,VWS V14.01,2013-02-06 18:56:00,
2013-02-06 12:57:00,72.6,54.5,29.97,SSW,202,2.9,8.5,53,0.00,,---,0.00,VWS V14.01,2013-02-06 18:57:00,
2013-02-06 12:58:00,72.6,54.5,29.97,SE,135,5.6,5.6,53,0.00,,---,0.00,VWS V14.01,2013-02-06 18:58:00,
2013-02-06 12:59:00,72.8,54.1,29.97,SE,135,5.6,5.6,52,0.00,,---,0.00,VWS V14.01,2013-02-06 18:59:00,
2013-02-06 13:00:00,72.0,53.5,29.94,South,180,3.4,6.5,52,0.00,,---,0.00,VWS V14.01,2013-02-06 19:00:00,
2013-02-06 13:01:00,72.8,54.1,29.97,SE,135,5.4,7.4,52,0.00,,---,0.00,VWS V14.01,2013-02-06 19:01:00,
2013-02-06 13:02:00,72.8,54.1,29.94,South,180,2.9,10.1,52,0.00,,---,0.00,VWS V14.01,2013-02-06 19:02:00,
2013-02-06 13:03:00,73.1,54.5,29.94,SE,135,7.8,8.5,52,0.00,,---,0.00,VWS V14.01,2013-02-06 19:03:00,
2013-02-06 13:04:00,72.9,53.8,29.94,SSE,158,5.6,7.8,51,0.00,,---,0.00,VWS V14.01,2013-02-06 19:04:00,
2013-02-06 13:05:00,72.0,54.0,29.94,SE,135,4.0,6.0,53,0.00,,---,0.00,VWS V14.01,2013-02-06 19:05:00,
2013-02-06 13:06:00,72.6,53.4,29.94,South,180,10.1,10.3,51,0.00,,---,0.00,VWS V14.01,2013-02-06 19:06:00,
2013-02-06 13:07:00,71.9,53.3,29.94,SSE,158,5.4,10.1,52,0.00,,---,0.00,VWS V14.01,2013-02-06 19:07:00,
2013-02-06 13:08:00,72.2,54.2,29.94,SSE,158,8.5,8.5,53,0.00,,---,0.00,VWS V14.01,2013-02-06 19:08:00,
2013-02-06 13:09:00,72.4,53.8,29.94,SSE,158,5.8,8.5,52,0.00,,---,0.00,VWS V14.01,2013-02-06 19:09:00,
2013-02-06 13:10:00,73.5,54.8,29.94,SE,135,5.6,5.6,52,0.00,,---,0.00,VWS V14.01,2013-02-06 19:10:00,
2013-02-06 13:11:00,72.0,53.5,29.94,South,180,3.4,6.5,52,0.00,,---,0.00,VWS V14.01,2013-02-06 19:11:00,
2013-02-06 13:12:00,71.3,53.3,29.94,South,180,3.1,3.4,53,0.00,,---,0.00,VWS V14.01,2013-02-06 19:12:00,
2013-02-06 13:13:00,71.3,52.8,29.94,ESE,112,6.0,8.5,52,0.00,,---,0.00,VWS V14.01,2013-02-06 19:13:00,
2013-02-06 13:14:00,71.3,53.3,29.94,SSE,158,4.0,6.0,53,0.00,,---,0.00,VWS V14.01,2013-02-06 19:14:00,
2013-02-06 13:15:00,72.6,53.4,29.94,ESE,112,3.1,4.0,51,0.00,,---,0.00,VWS V14.01,2013-02-06 19:15:00,
2013-02-06 13:16:00,72.0,54.0,29.94,SE,135,4.0,6.0,53,0.00,,---,0.00,VWS V14.01,2013-02-06 19:16:00,
2013-02-06 13:17:00,72.4,54.8,29.94,SE,135,6.9,6.9,54,0.00,,---,0.00,VWS V14.01,2013-02-06 19:17:00,
2013-02-06 13:18:00,72.6,54.0,29.94,SE,135,5.8,7.4,52,0.00,,---,0.00,VWS V14.01,2013-02-06 19:18:00,
2013-02-06 13:19:00,72.8,54.1,29.94,East,90,3.1,5.8,52,0.00,,---,0.00,VWS V14.01,2013-02-06 19:19:00,
2013-02-06 13:20:00,71.9,53.3,29.94,SE,135,5.6,5.6,52,0.00,,---,0.00,VWS V14.01,2013-02-06 19:20:00,
2013-02-06 13:21:00,73.5,54.8,29.94,SE,135,5.6,5.6,52,0.00,,---,0.00,VWS V14.01,2013-02-06 19:21:00,
2013-02-06 13:22:00,73.6,54.9,29.94,ESE,112,7.6,7.6,52,0.00,,---,0.00,VWS V14.01,2013-02-06 19:22:00,
2013-02-06 13:23:00,73.6,54.4,29.94,South,180,5.4,7.8,51,0.00,,---,0.00,VWS V14.01,2013-02-06 19:23:00,
2013-02-06 13:24:00,72.9,53.8,29.94,ESE,112,4.0,5.4,51,0.00,,---,0.00,VWS V14.01,2013-02-06 19:24:00,
2013-02-06 13:25:00,71.5,53.5,29.94,ESE,112,3.6,5.6,53,0.00,,---,0.00,VWS V14.01,2013-02-06 19:25:00,
2013-02-06 13:26:00,72.6,53.4,29.94,ESE,112,3.1,4.0,51,0.00,,---,0.00,VWS V14.01,2013-02-06 19:26:00,
2013-02-06 13:27:00,73.3,54.1,29.94,South,180,2.9,3.1,51,0.00,,---,0.00,VWS V14.01,2013-02-06 19:27:00,
2013-02-06 13:28:00,72.8,54.1,29.94,ESE,112,3.1,3.8,52,0.00,,---,0.00,VWS V14.01,2013-02-06 19:28:00,
2013-02-06 13:29:00,72.6,53.4,29.94,ESE,112,5.4,6.3,51,0.00,,---,0.00,VWS V14.01,2013-02-06 19:29:00,
2013-02-06 13:30:00,71.7,53.7,29.94,SE,135,6.5,6.5,53,0.00,,---,0.00,VWS V14.01,2013-02-06 19:30:00,
2013-02-06 13:31:00,71.9,53.3,29.94,SE,135,5.6,5.6,52,0.00,,---,0.00,VWS V14.01,2013-02-06 19:31:00,
2013-02-06 13:32:00,71.7,53.1,29.94,ESE,112,4.0,6.5,52,0.00,,---,0.00,VWS V14.01,2013-02-06 19:32:00,
2013-02-06 13:33:00,71.5,53.0,29.94,South,180,2.7,5.4,52,0.00,,---,0.00,VWS V14.01,2013-02-06 19:33:00,
2013-02-06 13:34:00,71.5,53.0,29.94,SE,135,3.4,4.9,52,0.00,,---,0.00,VWS V14.01,2013-02-06 19:34:00,
2013-02-06 13:35:00,72.6,54.0,29.94,East,90,3.4,6.0,52,0.00,,---,0.00,VWS V14.01,2013-02-06 19:35:00,
2013-02-06 13:36:00,71.5,53.5,29.94,ESE,112,3.6,5.6,53,0.00,,---,0.00,VWS V14.01,2013-02-06 19:36:00,
2013-02-06 13:37:00,71.7,53.7,29.94,South,180,4.9,5.6,53,0.00,,---,0.00,VWS V14.01,2013-02-06 19:37:00,
2013-02-06 13:38:00,71.7,53.7,29.94,SSE,158,6.3,6.3,53,0.00,,---,0.00,VWS V14.01,2013-02-06 19:38:00,
2013-02-06 13:39:00,71.7,53.7,29.94,South,180,3.8,6.3,53,0.00,,---,0.00,VWS V14.01,2013-02-06 19:39:00,
2013-02-06 13:40:00,72.4,53.3,29.94,SE,135,6.3,7.6,51,0.00,,---,0.00,VWS V14.01,2013-02-06 19:40:00,
2013-02-06 13:41:00,71.7,53.7,29.94,SE,135,6.5,6.5,53,0.00,,---,0.00,VWS V14.01,2013-02-06 19:41:00,
2013-02-06 13:42:00,72.0,54.0,29.94,East,90,5.6,7.4,53,0.00,,---,0.00,VWS V14.01,2013-02-06 19:42:00,
2013-02-06 13:43:00,72.2,54.2,29.94,ESE,112,1.3,5.6,53,0.00,,---,0.00,VWS V14.01,2013-02-06 19:43:00,
2013-02-06 13:44:00,72.0,54.0,29.94,East,90,3.8,6.3,53,0.00,,---,0.00,VWS V14.01,2013-02-06 19:44:00,
2013-02-06 13:45:00,71.7,53.1,29.94,ESE,112,6.0,6.3,52,0.00,,---,0.00,VWS V14.01,2013-02-06 19:45:00,
2013-02-06 13:46:00,72.6,54.0,29.94,East,90,3.4,6.0,52,0.00,,---,0.00,VWS V14.01,2013-02-06 19:46:00,
2013-02-06 13:47:00,73.5,54.8,29.94,SSE,158,4.0,4.0,52,0.00,,---,0.00,VWS V14.01,2013-02-06 19:47:00,
2013-02-06 13:48:00,73.3,54.6,29.94,ESE,112,6.0,6.0,52,0.00,,---,0.00,VWS V14.01,2013-02-06 19:48:00,
2013-02-06 13:49:00,73.1,54.5,29.94,SE,135,4.3,6.0,52,0.00,,---,0.00,VWS V14.01,2013-02-06 19:49:00,
2013-02-06 13:50:00,73.8,54.6,29.94,SE,135,5.8,8.5,51,0.00,,---,0.00,VWS V14.01,2013-02-06 19:50:00,
2013-02-06 13:51:00,72.4,53.3,29.94,SE,135,6.3,7.6,51,0.00,,---,0.00,VWS V14.01,2013-02-06 19:51:00,
2013-02-06 13:52:00,72.2,53.1,29.94,SE,135,5.8,6.3,51,0.00,,---,0.00,VWS V14.01,2013-02-06 19:52:00,
2013-02-06 13:53:00,72.0,53.5,29.94,SE,135,3.1,5.8,52,0.00,,---,0.00,VWS V14.01,2013-02-06 19:53:00,
2013-02-06 13:54:00,72.0,53.5,29.94,ENE,68,4.0,6.3,52,0.00,,---,0.00,VWS V14.01,2013-02-06 19:54:00,
2013-02-06 13:55:00,73.1,53.4,29.91,SSE,158,2.5,7.6,50,0.00,,---,0.00,VWS V14.01,2013-02-06 19:55:00,
2013-02-06 13:56:00,71.7,53.1,29.94,ESE,112,6.0,6.3,52,0.00,,---,0.00,VWS V14.01,2013-02-06 19:56:00,
2013-02-06 13:57:00,71.9,53.3,29.94,SSE,158,2.7,6.0,52,0.00,,---,0.00,VWS V14.01,2013-02-06 19:57:00,
2013-02-06 13:58:00,72.4,53.8,29.94,ESE,112,3.4,6.0,52,0.00,,---,0.00,VWS V14.01,2013-02-06 19:58:00,
2013-02-06 13:59:00,72.9,54.3,29.94,SE,135,4.3,5.8,52,0.00,,---,0.00,VWS V14.01,2013-02-06 19:59:00,
2013-02-06 14:00:00,72.9,53.2,29.91,East,90,2.2,3.6,50,0.00,,---,0.00,VWS V14.01,2013-02-06 20:00:00,
2013-02-06 14:01:00,73.8,54.6,29.94,SE,135,5.8,8.5,51,0.00,,---,0.00,VWS V14.01,2013-02-06 20:01:00,
2013-02-06 14:02:00,73.8,54.0,29.91,South,180,4.9,7.6,50,0.00,,---,0.00,VWS V14.01,2013-02-06 20:02:00,
2013-02-06 14:03:00,74.3,54.5,29.91,SSE,158,6.3,6.3,50,0.00,,---,0.00,VWS V14.01,2013-02-06 20:03:00,
2013-02-06 14:04:00,73.8,54.0,29.91,SE,135,5.8,7.2,50,0.00,,---,0.00,VWS V14.01,2013-02-06 20:04:00,
2013-02-06 14:05:00,73.3,53.5,29.88,ESE,112,6.0,6.3,50,0.00,,---,0.00,VWS V14.01,2013-02-06 20:05:00,
2013-02-06 14:06:00,73.1,53.4,29.91,SSE,158,2.5,7.6,50,0.00,,---,0.00,VWS V14.01,2013-02-06 20:06:00,
2013-02-06 14:07:00,73.3,53.5,29.91,SSE,158,6.0,6.0,50,0.00,,---,0.00,VWS V14.01,2013-02-06 20:07:00,
2013-02-06 14:08:00,73.1,53.4,29.91,SSE,158,6.9,6.9,50,0.00,,---,0.00,VWS V14.01,2013-02-06 20:08:00,
2013-02-06 14:09:00,73.1,53.4,29.91,ESE,112,6.0,6.9,50,0.00,,---,0.00,VWS V14.01,2013-02-06 20:09:00,
2013-02-06 14:10:00,72.6,52.9,29.88,ESE,112,5.4,7.4,50,0.00,,---,0.00,VWS V14.01,2013-02-06 20:10:00,
2013-02-06 14:11:00,72.9,53.2,29.91,East,90,2.2,3.6,50,0.00,,---,0.00,VWS V14.01,2013-02-06 20:11:00,
2013-02-06 14:12:00,72.8,53.0,29.91,SE,135,2.7,6.3,50,0.00,,---,0.00,VWS V14.01,2013-02-06 20:12:00,
2013-02-06 14:13:00,72.4,52.7,29.91,South,180,3.4,5.8,50,0.00,,---,0.00,VWS V14.01,2013-02-06 20:13:00,
2013-02-06 14:14:00,72.2,52.6,29.91,East,90,3.8,5.4,50,0.00,,---,0.00,VWS V14.01,2013-02-06 20:14:00,
2013-02-06 14:15:00,73.6,53.9,29.88,ESE,112,4.3,4.7,50,0.00,,---,0.00,VWS V14.01,2013-02-06 20:15:00,
2013-02-06 14:16:00,73.3,53.5,29.88,ESE,112,6.0,6.3,50,0.00,,---,0.00,VWS V14.01,2013-02-06 20:16:00,
2013-02-06 14:17:00,73.5,53.7,29.88,SE,135,5.8,6.5,50,0.00,,---,0.00,VWS V14.01,2013-02-06 20:17:00,
2013-02-06 14:18:00,73.3,53.5,29.88,ESE,112,5.6,6.0,50,0.00,,---,0.00,VWS V14.01,2013-02-06 20:18:00,
2013-02-06 14:19:00,73.6,53.9,29.88,ESE,112,4.0,5.6,50,0.00,,---,0.00,VWS V14.01,2013-02-06 20:19:00,
2013-02-06 14:20:00,75.4,54.9,29.88,South,180,2.2,2.2,49,0.00,,---,0.00,VWS V14.01,2013-02-06 20:20:00,
2013-02-06 14:21:00,72.6,52.9,29.88,ESE,112,5.4,7.4,50,0.00,,---,0.00,VWS V14.01,2013-02-06 20:21:00,
2013-02-06 14:22:00,72.6,52.9,29.88,East,90,4.9,7.4,50,0.00,,---,0.00,VWS V14.01,2013-02-06 20:22:00,
2013-02-06 14:23:00,72.6,52.9,29.88,SE,135,4.3,4.9,50,0.00,,---,0.00,VWS V14.01,2013-02-06 20:23:00,
2013-02-06 14:24:00,72.6,52.9,29.88,South,180,7.6,7.6,50,0.00,,---,0.00,VWS V14.01,2013-02-06 20:24:00,
2013-02-06 14:25:00,75.6,54.5,29.88,SE,135,5.6,5.8,48,0.00,,---,0.00,VWS V14.01,2013-02-06 20:25:00,
2013-02-06 14:26:00,73.6,53.9,29.88,ESE,112,4.3,4.7,50,0.00,,---,0.00,VWS V14.01,2013-02-06 20:26:00,
2013-02-06 14:27:00,74.3,54.0,29.88,East,90,4.9,6.3,49,0.00,,---,0.00,VWS V14.01,2013-02-06 20:27:00,
2013-02-06 14:28:00,74.5,54.1,29.88,South,180,4.3,4.9,49,0.00,,---,0.00,VWS V14.01,2013-02-06 20:28:00,
2013-02-06 14:29:00,74.7,54.3,29.88,East,90,3.6,4.5,49,0.00,,---,0.00,VWS V14.01,2013-02-06 20:29:00,
2013-02-06 14:30:00,75.2,54.2,29.88,ESE,112,9.6,9.8,48,0.00,,---,0.00,VWS V14.01,2013-02-06 20:30:00,
2013-02-06 14:31:00,75.4,54.9,29.88,South,180,2.2,2.2,49,0.00,,---,0.00,VWS V14.01,2013-02-06 20:31:00,
2013-02-06 14:32:00,75.6,55.1,29.88,SSE,158,4.0,5.6,49,0.00,,---,0.00,VWS V14.01,2013-02-06 20:32:00,
2013-02-06 14:33:00,75.8,55.3,29.88,SE,135,4.3,6.5,49,0.00,,---,0.00,VWS V14.01,2013-02-06 20:33:00,
2013-02-06 14:34:00,75.8,55.3,29.88,SE,135,8.1,8.1,49,0.00,,---,0.00,VWS V14.01,2013-02-06 20:34:00,
2013-02-06 14:35:00,75.9,54.9,29.88,East,90,6.0,8.1,48,0.00,,---,0.00,VWS V14.01,2013-02-06 20:35:00,
2013-02-06 14:36:00,75.6,54.5,29.88,SE,135,5.6,5.8,48,0.00,,---,0.00,VWS V14.01,2013-02-06 20:36:00,
2013-02-06 14:37:00,75.8,54.7,29.88,SE,135,8.7,8.7,48,0.00,,---,0.00,VWS V14.01,2013-02-06 20:37:00,
2013-02-06 14:38:00,75.6,54.5,29.88,ESE,112,6.0,8.7,48,0.00,,---,0.00,VWS V14.01,2013-02-06 20:38:00,
2013-02-06 14:39:00,75.1,53.5,29.88,East,90,6.0,7.8,47,0.00,,---,0.00,VWS V14.01,2013-02-06 20:39:00,
2013-02-06 14:40:00,76.1,53.9,29.88,SSE,158,5.6,9.8,46,0.00,,---,0.00,VWS V14.01,2013-02-06 20:40:00,
2013-02-06 14:41:00,75.2,54.2,29.88,ESE,112,9.6,9.8,48,0.00,,---,0.00,VWS V14.01,2013-02-06 20:41:00,
2013-02-06 14:43:00,75.4,54.4,29.88,NE,45,3.8,7.6,48,0.00,,---,0.00,VWS V14.01,2013-02-06 20:43:00,
2013-02-06 14:45:00,75.9,54.3,29.88,SE,135,9.6,10.3,47,0.00,,---,0.00,VWS V14.01,2013-02-06 20:45:00,
2013-02-06 14:46:00,75.9,54.9,29.88,East,90,6.0,8.1,48,0.00,,---,0.00,VWS V14.01,2013-02-06 20:46:00,
2013-02-06 14:47:00,75.6,54.5,29.88,East,90,6.3,8.1,48,0.00,,---,0.00,VWS V14.01,2013-02-06 20:47:00,
2013-02-06 14:48:00,75.2,53.6,29.88,ENE,68,3.6,8.1,47,0.00,,---,0.00,VWS V14.01,2013-02-06 20:48:00,
2013-02-06 14:49:00,75.6,54.5,29.88,SE,135,3.1,3.6,48,0.00,,---,0.00,VWS V14.01,2013-02-06 20:49:00,
2013-02-06 14:50:00,75.8,54.1,29.88,SSE,158,7.2,11.0,47,0.00,,---,0.00,VWS V14.01,2013-02-06 20:50:00,
2013-02-06 14:51:00,76.1,53.9,29.88,SSE,158,5.6,9.8,46,0.00,,---,0.00,VWS V14.01,2013-02-06 20:51:00,
2013-02-06 14:52:00,76.1,54.4,29.88,SE,135,5.6,8.7,47,0.00,,---,0.00,VWS V14.01,2013-02-06 20:52:00,
2013-02-06 14:53:00,76.1,54.4,29.88,South,180,3.1,7.2,47,0.00,,---,0.00,VWS V14.01,2013-02-06 20:53:00,
2013-02-06 14:54:00,76.1,54.4,29.88,South,180,6.5,7.6,47,0.00,,---,0.00,VWS V14.01,2013-02-06 20:54:00,
2013-02-06 14:55:00,76.3,54.0,29.88,South,180,5.8,8.7,46,0.00,,---,0.00,VWS V14.01,2013-02-06 20:55:00,
2013-02-06 14:56:00,75.9,54.3,29.88,SE,135,9.6,10.3,47,0.00,,---,0.00,VWS V14.01,2013-02-06 20:56:00,
2013-02-06 14:57:00,75.8,54.1,29.88,SSE,158,4.9,9.8,47,0.00,,---,0.00,VWS V14.01,2013-02-06 20:57:00,
2013-02-06 14:58:00,75.8,54.1,29.88,South,180,4.3,4.9,47,0.00,,---,0.00,VWS V14.01,2013-02-06 20:58:00,
2013-02-06 14:59:00,75.8,54.1,29.88,ESE,112,3.8,4.9,47,0.00,,---,0.00,VWS V14.01,2013-02-06 20:59:00,
2013-02-06 15:00:00,75.9,54.3,29.88,SE,135,5.4,6.0,47,0.00,,---,0.00,VWS V14.01,2013-02-06 21:00:00,
2013-02-06 15:01:00,75.8,54.1,29.88,SSE,158,7.2,11.0,47,0.00,,---,0.00,VWS V14.01,2013-02-06 21:01:00,
2013-02-06 15:02:00,75.8,54.1,29.88,SE,135,4.9,7.2,47,0.00,,---,0.00,VWS V14.01,2013-02-06 21:02:00,
2013-02-06 15:03:00,75.8,54.1,29.88,SSE,158,4.0,7.8,47,0.00,,---,0.00,VWS V14.01,2013-02-06 21:03:00,
2013-02-06 15:04:00,75.9,54.3,29.88,East,90,6.0,6.5,47,0.00,,---,0.00,VWS V14.01,2013-02-06 21:04:00,
2013-02-06 15:05:00,76.1,53.9,29.88,SE,135,7.2,8.1,46,0.00,,---,0.00,VWS V14.01,2013-02-06 21:05:00,
2013-02-06 15:06:00,76.3,54.0,29.88,South,180,5.8,8.7,46,0.00,,---,0.00,VWS V14.01,2013-02-06 21:06:00,
2013-02-06 15:07:00,76.3,54.0,29.88,SSE,158,5.4,5.8,46,0.00,,---,0.00,VWS V14.01,2013-02-06 21:07:00,
2013-02-06 15:08:00,76.1,53.9,29.88,SE,135,9.6,9.6,46,0.00,,---,0.00,VWS V14.01,2013-02-06 21:08:00,
2013-02-06 15:09:00,75.8,53.5,29.88,ESE,112,4.3,9.6,46,0.00,,---,0.00,VWS V14.01,2013-02-06 21:09:00,
2013-02-06 15:10:00,75.2,53.0,29.88,SE,135,5.4,5.4,46,0.00,,---,0.00,VWS V14.01,2013-02-06 21:10:00,
2013-02-06 15:11:00,75.9,54.3,29.88,SE,135,5.4,6.0,47,0.00,,---,0.00,VWS V14.01,2013-02-06 21:11:00,
2013-02-06 15:12:00,76.1,53.9,29.88,ESE,112,3.4,5.4,46,0.00,,---,0.00,VWS V14.01,2013-02-06 21:12:00,
2013-02-06 15:13:00,76.3,54.0,29.88,SE,135,9.2,9.2,46,0.00,,---,0.00,VWS V14.01,2013-02-06 21:13:00,
2013-02-06 15:14:00,76.3,54.0,29.88,ESE,112,7.4,9.8,46,0.00,,---,0.00,VWS V14.01,2013-02-06 21:14:00,
2013-02-06 15:15:00,74.9,53.3,29.88,East,90,4.9,5.8,47,0.00,,---,0.00,VWS V14.01,2013-02-06 21:15:00,
2013-02-06 15:16:00,76.1,53.9,29.88,SE,135,7.2,8.1,46,0.00,,---,0.00,VWS V14.01,2013-02-06 21:16:00,
2013-02-06 15:17:00,75.9,53.7,29.88,SE,135,3.8,7.8,46,0.00,,---,0.00,VWS V14.01,2013-02-06 21:17:00,
2013-02-06 15:18:00,75.4,53.2,29.88,SE,135,2.9,4.9,46,0.00,,---,0.00,VWS V14.01,2013-02-06 21:18:00,
2013-02-06 15:19:00,75.2,53.0,29.88,South,180,6.0,8.7,46,0.00,,---,0.00,VWS V14.01,2013-02-06 21:19:00,
2013-02-06 15:20:00,74.2,52.7,29.85,SE,135,10.3,10.3,47,0.00,,---,0.00,VWS V14.01,2013-02-06 21:20:00,
2013-02-06 15:21:00,75.2,53.0,29.88,SE,135,5.4,5.4,46,0.00,,---,0.00,VWS V14.01,2013-02-06 21:21:00,
2013-02-06 15:22:00,75.1,53.5,29.88,SE,135,9.0,9.0,47,0.00,,---,0.00,VWS V14.01,2013-02-06 21:22:00,
2013-02-06 15:23:00,74.9,53.3,29.88,ESE,112,7.8,9.0,47,0.00,,---,0.00,VWS V14.01,2013-02-06 21:23:00,
2013-02-06 15:24:00,75.1,53.5,29.88,SSE,158,4.0,10.1,47,0.00,,---,0.00,VWS V14.01,2013-02-06 21:24:00,
2013-02-06 15:25:00,72.6,51.8,29.85,ESE,112,6.5,7.8,48,0.00,,---,0.00,VWS V14.01,2013-02-06 21:25:00,
2013-02-06 15:26:00,74.9,53.3,29.88,East,90,4.9,5.8,47,0.00,,---,0.00,VWS V14.01,2013-02-06 21:26:00,
2013-02-06 15:27:00,75.1,53.5,29.88,SE,135,4.9,6.3,47,0.00,,---,0.00,VWS V14.01,2013-02-06 21:27:00,
2013-02-06 15:28:00,74.7,53.2,29.88,SSE,158,5.6,9.6,47,0.00,,---,0.00,VWS V14.01,2013-02-06 21:28:00,
2013-02-06 15:29:00,74.2,52.7,29.88,SSE,158,6.3,10.1,47,0.00,,---,0.00,VWS V14.01,2013-02-06 21:29:00,
2013-02-06 15:30:00,71.9,52.2,29.85,SE,135,6.5,7.8,50,0.00,,---,0.00,VWS V14.01,2013-02-06 21:30:00,
2013-02-06 15:31:00,74.2,52.7,29.85,SE,135,10.3,10.3,47,0.00,,---,0.00,VWS V14.01,2013-02-06 21:31:00,
2013-02-06 15:32:00,74.0,52.5,29.85,ESE,112,5.6,10.3,47,0.00,,---,0.00,VWS V14.01,2013-02-06 21:32:00,
2013-02-06 15:33:00,73.6,52.8,29.85,East,90,3.6,6.3,48,0.00,,---,0.00,VWS V14.01,2013-02-06 21:33:00,
2013-02-06 15:34:00,73.3,52.4,29.85,ESE,112,8.7,8.7,48,0.00,,---,0.00,VWS V14.01,2013-02-06 21:34:00,
2013-02-06 15:35:00,72.8,51.9,29.85,ENE,68,4.9,8.7,48,0.00,,---,0.00,VWS V14.01,2013-02-06 21:35:00,
2013-02-06 15:36:00,74.2,53.8,29.85,ESE,112,5.4,5.8,49,0.00,,---,0.00,VWS V14.01,2013-02-06 21:36:00,
2013-02-06 15:37:00,72.2,52.0,29.85,SE,135,8.7,8.7,49,0.00,,---,0.00,VWS V14.01,2013-02-06 21:37:00,
2013-02-06 15:38:00,72.2,52.0,29.85,ESE,112,5.4,10.7,49,0.00,,---,0.00,VWS V14.01,2013-02-06 21:38:00,
2013-02-06 15:39:00,72.0,51.8,29.85,SE,135,7.2,7.4,49,0.00,,---,0.00,VWS V14.01,2013-02-06 21:39:00,
2013-02-06 15:40:00,71.9,51.7,29.85,SSE,158,7.8,7.8,49,0.00,,---,0.00,VWS V14.01,2013-02-06 21:40:00,
2013-02-06 15:41:00,75.8,54.7,29.85,ESE,112,4.3,6.5,48,0.00,,---,0.00,VWS V14.01,2013-02-06 21:41:00,
2013-02-06 15:42:00,72.2,52.6,29.85,ESE,112,9.0,9.8,50,0.00,,---,0.00,VWS V14.01,2013-02-06 21:42:00,
2013-02-06 15:43:00,72.8,52.5,29.85,East,90,7.6,9.0,49,0.00,,---,0.00,VWS V14.01,2013-02-06 21:43:00,
2013-02-06 15:45:00,73.3,53.5,29.85,SE,135,5.4,6.5,50,0.00,,---,0.00,VWS V14.01,2013-02-06 21:45:00,
2013-02-06 15:46:00,75.6,54.5,29.85,ESE,112,7.6,12.5,48,0.00,,---,0.00,VWS V14.01,2013-02-06 21:46:00,
2013-02-06 15:47:00,74.2,53.8,29.85,ESE,112,5.4,5.8,49,0.00,,---,0.00,VWS V14.01,2013-02-06 21:47:00,
2013-02-06 15:48:00,74.5,53.6,29.85,SE,135,2.9,6.5,48,0.00,,---,0.00,VWS V14.01,2013-02-06 21:48:00,
2013-02-06 15:49:00,74.9,54.5,29.85,ESE,112,6.0,6.0,49,0.00,,---,0.00,VWS V14.01,2013-02-06 21:49:00,
2013-02-06 15:50:00,75.2,54.2,29.85,East,90,3.6,6.0,48,0.00,,---,0.00,VWS V14.01,2013-02-06 21:50:00,
2013-02-06 15:51:00,75.9,54.3,29.85,East,90,4.7,7.6,47,0.00,,---,0.00,VWS V14.01,2013-02-06 21:51:00,
2013-02-06 15:52:00,75.8,54.7,29.85,ESE,112,4.3,6.5,48,0.00,,---,0.00,VWS V14.01,2013-02-06 21:52:00,
2013-02-06 15:53:00,74.9,53.9,29.85,SE,135,4.0,6.5,48,0.00,,---,0.00,VWS V14.01,2013-02-06 21:53:00,
2013-02-06 15:54:00,74.7,53.2,29.85,SE,135,3.1,5.6,47,0.00,,---,0.00,VWS V14.01,2013-02-06 21:54:00,
2013-02-06 15:55:00,74.9,53.9,29.85,South,180,5.4,5.4,48,0.00,,---,0.00,VWS V14.01,2013-02-06 21:55:00,
2013-02-06 15:56:00,76.5,54.2,29.85,SE,135,7.4,7.4,46,0.00,,---,0.00,VWS V14.01,2013-02-06 21:56:00,
2013-02-06 15:57:00,75.6,54.5,29.85,ESE,112,7.6,12.5,48,0.00,,---,0.00,VWS V14.01,2013-02-06 21:57:00,
2013-02-06 15:58:00,75.6,54.0,29.85,SE,135,5.6,7.6,47,0.00,,---,0.00,VWS V14.01,2013-02-06 21:58:00,
2013-02-06 15:59:00,75.9,54.3,29.85,ESE,112,6.7,7.4,47,0.00,,---,0.00,VWS V14.01,2013-02-06 21:59:00,
2013-02-06 16:00:00,75.9,54.3,29.85,East,90,7.8,7.8,47,0.00,,---,0.00,VWS V14.01,2013-02-06 22:00:00,
2013-02-06 16:01:00,75.8,54.1,29.85,SE,135,7.6,10.1,47,0.00,,---,0.00,VWS V14.01,2013-02-06 22:01:00,
2013-02-06 16:02:00,76.5,54.2,29.85,South,180,3.6,6.0,46,0.00,,---,0.00,VWS V14.01,2013-02-06 22:02:00,
2013-02-06 16:03:00,76.1,54.4,29.85,NE,45,4.0,5.4,47,0.00,,---,0.00,VWS V14.01,2013-02-06 22:03:00,
2013-02-06 16:04:00,76.3,54.6,29.85,ESE,112,6.0,6.0,47,0.00,,---,0.00,VWS V14.01,2013-02-06 22:04:00,
2013-02-06 16:05:00,76.5,54.2,29.85,East,90,7.4,10.5,46,0.00,,---,0.00,VWS V14.01,2013-02-06 22:05:00,
2013-02-06 16:06:00,76.3,54.0,29.85,SE,135,4.3,7.4,46,0.00,,---,0.00,VWS V14.01,2013-02-06 22:06:00,
2013-02-06 16:07:00,76.5,53.6,29.82,ESE,112,5.4,5.8,45,0.00,,---,0.00,VWS V14.01,2013-02-06 22:07:00,
2013-02-06 16:08:00,76.3,54.0,29.85,SE,135,7.6,8.1,46,0.00,,---,0.00,VWS V14.01,2013-02-06 22:08:00,
2013-02-06 16:09:00,76.3,54.0,29.85,SE,135,7.6,9.4,46,0.00,,---,0.00,VWS V14.01,2013-02-06 22:09:00,
2013-02-06 16:10:00,76.3,54.0,29.85,SE,135,8.1,8.1,46,0.00,,---,0.00,VWS V14.01,2013-02-06 22:10:00,
2013-02-06 16:12:00,76.7,53.7,29.82,SSE,158,6.0,7.4,45,0.00,,---,0.00,VWS V14.01,2013-02-06 22:12:00,
2013-02-06 16:14:00,76.5,54.2,29.85,South,180,4.3,6.0,46,0.00,,---,0.00,VWS V14.01,2013-02-06 22:14:00,
2013-02-06 16:16:00,76.3,53.4,29.82,East,90,6.3,8.7,45,0.00,,---,0.00,VWS V14.01,2013-02-06 22:16:00,
2013-02-06 16:17:00,76.7,53.7,29.82,East,90,6.5,7.4,45,0.00,,---,0.00,VWS V14.01,2013-02-06 22:17:00,
2013-02-06 16:18:00,76.5,53.6,29.82,ESE,112,5.4,5.8,45,0.00,,---,0.00,VWS V14.01,2013-02-06 22:18:00,
2013-02-06 16:19:00,76.5,53.6,29.82,ESE,112,3.6,10.1,45,0.00,,---,0.00,VWS V14.01,2013-02-06 22:19:00,
2013-02-06 16:20:00,76.7,53.7,29.82,SE,135,6.3,6.3,45,0.00,,---,0.00,VWS V14.01,2013-02-06 22:20:00,
2013-02-06 16:21:00,76.8,53.9,29.82,South,180,7.4,7.4,45,0.00,,---,0.00,VWS V14.01,2013-02-06 22:21:00,
2013-02-06 16:22:00,76.7,53.7,29.82,ESE,112,5.8,5.8,45,0.00,,---,0.00,VWS V14.01,2013-02-06 22:22:00,
2013-02-06 16:23:00,76.7,53.7,29.82,SSE,158,6.0,7.4,45,0.00,,---,0.00,VWS V14.01,2013-02-06 22:23:00,
2013-02-06 16:24:00,76.8,53.9,29.82,SE,135,7.6,7.6,45,0.00,,---,0.00,VWS V14.01,2013-02-06 22:24:00,
2013-02-06 16:25:00,76.5,53.6,29.82,SSE,158,6.3,10.1,45,0.00,,---,0.00,VWS V14.01,2013-02-06 22:25:00,
2013-02-06 16:26:00,76.7,53.7,29.82,ESE,112,4.3,6.3,45,0.00,,---,0.00,VWS V14.01,2013-02-06 22:26:00,
2013-02-06 16:27:00,76.7,53.7,29.82,South,180,7.4,7.6,45,0.00,,---,0.00,VWS V14.01,2013-02-06 22:27:00,
2013-02-06 16:28:00,76.8,53.9,29.82,SE,135,3.8,8.5,45,0.00,,---,0.00,VWS V14.01,2013-02-06 22:28:00,
2013-02-06 16:29:00,76.7,53.7,29.82,SE,135,7.6,12.3,45,0.00,,---,0.00,VWS V14.01,2013-02-06 22:29:00,
2013-02-06 16:30:00,76.5,53.6,29.82,ESE,112,10.5,10.5,45,0.00,,---,0.00,VWS V14.01,2013-02-06 22:30:00,
2013-02-06 16:31:00,76.5,53.6,29.82,SE,135,3.1,10.5,45,0.00,,---,0.00,VWS V14.01,2013-02-06 22:31:00,
2013-02-06 16:32:00,76.5,53.6,29.82,SSE,158,4.7,4.7,45,0.00,,---,0.00,VWS V14.01,2013-02-06 22:32:00,
2013-02-06 16:33:00,75.8,52.9,29.82,South,180,7.4,9.8,45,0.00,,---,0.00,VWS V14.01,2013-02-06 22:33:00,
2013-02-06 16:34:00,76.7,53.7,29.82,East,90,5.4,9.6,45,0.00,,---,0.00,VWS V14.01,2013-02-06 22:34:00,
2013-02-06 16:35:00,76.8,53.9,29.82,SE,135,5.4,5.4,45,0.00,,---,0.00,VWS V14.01,2013-02-06 22:35:00,
2013-02-06 16:36:00,76.8,53.9,29.82,SE,135,8.7,9.6,45,0.00,,---,0.00,VWS V14.01,2013-02-06 22:36:00,
2013-02-06 16:37:00,76.5,53.6,29.82,East,90,4.0,8.7,45,0.00,,---,0.00,VWS V14.01,2013-02-06 22:37:00,
2013-02-06 16:38:00,76.1,53.3,29.82,SE,135,3.4,13.2,45,0.00,,---,0.00,VWS V14.01,2013-02-06 22:38:00,
2013-02-06 16:39:00,76.8,53.9,29.82,SE,135,3.8,8.5,45,0.00,,---,0.00,VWS V14.01,2013-02-06 22:39:00,
2013-02-06 16:40:00,76.8,53.9,29.82,SE,135,10.7,10.7,45,0.00,,---,0.00,VWS V14.01,2013-02-06 22:40:00,
2013-02-06 16:41:00,76.8,53.9,29.82,South,180,7.6,10.7,45,0.00,,---,0.00,VWS V14.01,2013-02-06 22:41:00,
2013-02-06 16:42:00,76.7,53.7,29.82,ESE,112,2.7,7.6,45,0.00,,---,0.00,VWS V14.01,2013-02-06 22:42:00,
2013-02-06 16:43:00,75.1,52.9,29.82,South,180,11.4,11.4,46,0.00,,---,0.00,VWS V14.01,2013-02-06 22:43:00,
2013-02-06 16:44:00,75.8,52.9,29.82,South,180,7.4,9.8,45,0.00,,---,0.00,VWS V14.01,2013-02-06 22:44:00,
2013-02-06 16:45:00,75.4,52.6,29.82,SE,135,6.9,7.4,45,0.00,,---,0.00,VWS V14.01,2013-02-06 22:45:00,
2013-02-06 16:46:00,75.6,52.8,29.82,SSE,158,4.7,7.4,45,0.00,,---,0.00,VWS V14.01,2013-02-06 22:46:00,
2013-02-06 16:47:00,75.8,52.9,29.82,SSE,158,4.3,4.7,45,0.00,,---,0.00,VWS V14.01,2013-02-06 22:47:00,
2013-02-06 16:48:00,74.3,52.2,29.82,SSE,158,5.6,5.6,46,0.00,,---,0.00,VWS V14.01,2013-02-06 22:48:00,
2013-02-06 16:49:00,76.1,53.3,29.82,SE,135,3.4,13.2,45,0.00,,---,0.00,VWS V14.01,2013-02-06 22:49:00,
2013-02-06 16:50:00,76.1,53.3,29.82,ESE,112,9.6,9.6,45,0.00,,---,0.00,VWS V14.01,2013-02-06 22:50:00,
2013-02-06 16:51:00,76.1,53.3,29.82,South,180,5.8,10.7,45,0.00,,---,0.00,VWS V14.01,2013-02-06 22:51:00,
2013-02-06 16:52:00,75.8,52.9,29.82,SE,135,6.5,7.6,45,0.00,,---,0.00,VWS V14.01,2013-02-06 22:52:00,
2013-02-06 16:53:00,73.6,52.2,29.82,SSE,158,5.6,5.6,47,0.00,,---,0.00,VWS V14.01,2013-02-06 22:53:00,
2013-02-06 16:54:00,75.1,52.9,29.82,South,180,11.4,11.4,46,0.00,,---,0.00,VWS V14.01,2013-02-06 22:54:00,
2013-02-06 16:55:00,74.7,52.6,29.82,SE,135,3.8,11.4,46,0.00,,---,0.00,VWS V14.01,2013-02-06 22:55:00,
2013-02-06 16:56:00,74.7,52.6,29.82,South,180,5.8,6.0,46,0.00,,---,0.00,VWS V14.01,2013-02-06 22:56:00,
2013-02-06 16:57:00,74.5,52.4,29.82,SSE,158,5.6,5.8,46,0.00,,---,0.00,VWS V14.01,2013-02-06 22:57:00,
2013-02-06 16:58:00,74.7,52.6,29.82,SSE,158,5.6,5.6,46,0.00,,---,0.00,VWS V14.01,2013-02-06 22:58:00,
2013-02-06 16:59:00,74.5,53.0,29.82,SSE,158,5.6,5.6,47,0.00,,---,0.00,VWS V14.01,2013-02-06 22:59:00,
2013-02-06 17:00:00,74.0,51.9,29.82,SSE,158,5.6,5.6,46,0.00,,---,0.00,VWS V14.01,2013-02-06 23:00:00,
2013-02-06 17:01:00,74.0,52.5,29.82,SSE,158,5.6,5.6,47,0.00,,---,0.00,VWS V14.01,2013-02-06 23:01:00,
2013-02-06 17:02:00,74.0,52.5,29.82,SSE,158,5.6,5.6,47,0.00,,---,0.00,VWS V14.01,2013-02-06 23:02:00,
2013-02-06 17:03:00,73.8,52.3,29.82,SSE,158,5.6,5.6,47,0.00,,---,0.00,VWS V14.01,2013-02-06 23:03:00,
2013-02-06 17:04:00,73.3,51.9,29.82,SSE,158,5.6,5.6,47,0.00,,---,0.00,VWS V14.01,2013-02-06 23:04:00,
2013-02-06 17:05:00,73.6,52.2,29.82,SSE,158,5.6,5.6,47,0.00,,---,0.00,VWS V14.01,2013-02-06 23:05:00,
2013-02-06 17:06:00,73.5,52.0,29.82,SSE,158,5.6,5.6,47,0.00,,---,0.00,VWS V14.01,2013-02-06 23:06:00,
2013-02-06 17:07:00,74.0,52.5,29.82,SSE,158,5.6,5.6,47,0.00,,---,0.00,VWS V14.01,2013-02-06 23:07:00,
2013-02-06 17:08:00,74.3,52.8,29.82,SSE,158,5.6,5.6,47,0.00,,---,0.00,VWS V14.01,2013-02-06 23:08:00,
2013-02-06 17:09:00,73.6,52.8,29.85,SSE,158,5.6,5.6,48,0.00,,---,0.00,VWS V14.01,2013-02-06 23:09:00,
2013-02-06 17:10:00,74.5,53.0,29.82,SSE,158,5.6,5.6,47,0.00,,---,0.00,VWS V14.01,2013-02-06 23:10:00,
2013-02-06 17:11:00,74.5,53.0,29.82,SSE,158,5.6,5.6,47,0.00,,---,0.00,VWS V14.01,2013-02-06 23:11:00,
2013-02-06 17:12:00,74.5,53.0,29.82,SSE,158,5.6,5.6,47,0.00,,---,0.00,VWS V14.01,2013-02-06 23:12:00,
2013-02-06 17:13:00,74.0,52.5,29.82,SSE,158,5.6,5.6,47,0.00,,---,0.00,VWS V14.01,2013-02-06 23:13:00,
2013-02-06 17:14:00,75.1,53.5,29.85,SSE,158,5.6,5.6,47,0.00,,---,0.00,VWS V14.01,2013-02-06 23:14:00,
2013-02-06 17:15:00,73.3,51.9,29.82,SSE,158,5.6,5.6,47,0.00,,---,0.00,VWS V14.01,2013-02-06 23:15:00,
2013-02-06 17:16:00,73.5,52.6,29.85,SSE,158,5.6,5.6,48,0.00,,---,0.00,VWS V14.01,2013-02-06 23:16:00,
2013-02-06 17:17:00,73.6,52.8,29.85,SSE,158,5.6,5.6,48,0.00,,---,0.00,VWS V14.01,2013-02-06 23:17:00,
2013-02-06 17:18:00,73.6,52.8,29.85,SSE,158,5.6,5.6,48,0.00,,---,0.00,VWS V14.01,2013-02-06 23:18:00,
2013-02-06 17:19:00,74.5,53.0,29.85,SSE,158,5.6,5.6,47,0.00,,---,0.00,VWS V14.01,2013-02-06 23:19:00,
2013-02-06 17:20:00,73.6,52.8,29.85,SSE,158,5.6,5.6,48,0.00,,---,0.00,VWS V14.01,2013-02-06 23:20:00,
2013-02-06 17:21:00,73.6,52.8,29.85,SSE,158,5.6,5.6,48,0.00,,---,0.00,VWS V14.01,2013-02-06 23:21:00,
2013-02-06 17:22:00,74.2,53.2,29.85,SSE,158,5.6,5.6,48,0.00,,---,0.00,VWS V14.01,2013-02-06 23:22:00,
2013-02-06 17:23:00,74.5,53.0,29.85,SSE,158,5.6,5.6,47,0.00,,---,0.00,VWS V14.01,2013-02-06 23:23:00,
2013-02-06 17:24:00,74.2,52.7,29.85,South,180,6.9,7.8,47,0.00,,---,0.00,VWS V14.01,2013-02-06 23:24:00,
2013-02-06 17:26:00,75.2,53.6,29.85,SSE,158,5.6,5.6,47,0.00,,---,0.00,VWS V14.01,2013-02-06 23:26:00,
2013-02-06 17:27:00,75.1,53.5,29.85,SSE,158,5.6,5.6,47,0.00,,---,0.00,VWS V14.01,2013-02-06 23:27:00,
2013-02-06 17:28:00,75.1,53.5,29.85,SSE,158,5.6,5.6,47,0.00,,---,0.00,VWS V14.01,2013-02-06 23:28:00,
2013-02-06 17:29:00,73.5,52.0,29.85,East,90,10.1,11.9,47,0.00,,---,0.00,VWS V14.01,2013-02-06 23:29:00,
2013-02-06 17:30:00,74.5,53.0,29.85,SSE,158,5.6,5.6,47,0.00,,---,0.00,VWS V14.01,2013-02-06 23:30:00,
2013-02-06 17:31:00,74.3,52.8,29.85,SSE,158,5.6,5.6,47,0.00,,---,0.00,VWS V14.01,2013-02-06 23:31:00,
2013-02-06 17:32:00,74.3,52.8,29.85,SSE,158,5.6,5.6,47,0.00,,---,0.00,VWS V14.01,2013-02-06 23:32:00,
2013-02-06 17:33:00,74.2,52.7,29.85,SSE,158,5.6,5.6,47,0.00,,---,0.00,VWS V14.01,2013-02-06 23:33:00,
2013-02-06 17:34:00,72.0,51.3,29.85,SE,135,7.6,7.6,48,0.00,,---,0.00,VWS V14.01,2013-02-06 23:34:00,
2013-02-06 17:35:00,74.2,52.7,29.85,South,180,6.9,7.8,47,0.00,,---,0.00,VWS V14.01,2013-02-06 23:35:00,
2013-02-06 17:36:00,74.2,52.7,29.85,SSE,158,3.8,6.9,47,0.00,,---,0.00,VWS V14.01,2013-02-06 23:36:00,
2013-02-06 17:37:00,74.0,52.5,29.85,SE,135,9.8,9.8,47,0.00,,---,0.00,VWS V14.01,2013-02-06 23:37:00,
2013-02-06 17:38:00,74.0,52.5,29.85,SSE,158,9.6,9.8,47,0.00,,---,0.00,VWS V14.01,2013-02-06 23:38:00,
2013-02-06 17:39:00,71.2,51.0,29.85,South,180,7.4,8.1,49,0.00,,---,0.00,VWS V14.01,2013-02-06 23:39:00,
2013-02-06 17:40:00,73.5,52.0,29.85,East,90,10.1,11.9,47,0.00,,---,0.00,VWS V14.01,2013-02-06 23:40:00,
2013-02-06 17:41:00,73.3,51.9,29.85,SSE,158,9.8,10.1,47,0.00,,---,0.00,VWS V14.01,2013-02-06 23:41:00,
2013-02-06 17:42:00,73.1,51.7,29.85,South,180,5.6,10.7,47,0.00,,---,0.00,VWS V14.01,2013-02-06 23:42:00,
2013-02-06 17:43:00,73.1,51.7,29.85,SE,135,7.4,9.6,47,0.00,,---,0.00,VWS V14.01,2013-02-06 23:43:00,
2013-02-06 17:44:00,72.8,51.9,29.85,SE,135,6.3,7.6,48,0.00,,---,0.00,VWS V14.01,2013-02-06 23:44:00,
2013-02-06 17:45:00,70.6,51.1,29.85,SE,135,4.5,10.1,50,0.00,,---,0.00,VWS V14.01,2013-02-06 23:45:00,
2013-02-06 17:46:00,71.7,51.5,29.85,SE,135,9.8,12.3,49,0.00,,---,0.00,VWS V14.01,2013-02-06 23:46:00,
2013-02-06 17:47:00,71.5,51.4,29.85,SE,135,8.5,9.8,49,0.00,,---,0.00,VWS V14.01,2013-02-06 23:47:00,
2013-02-06 17:48:00,71.3,51.2,29.85,SSE,158,4.0,10.5,49,0.00,,---,0.00,VWS V14.01,2013-02-06 23:48:00,
2013-02-06 17:49:00,71.2,51.0,29.85,SE,135,5.8,8.5,49,0.00,,---,0.00,VWS V14.01,2013-02-06 23:49:00,
2013-02-06 17:50:00,70.1,51.1,29.85,SE,135,6.5,10.7,51,0.00,,---,0.00,VWS V14.01,2013-02-06 23:50:00,
2013-02-06 17:51:00,71.0,50.9,29.85,South,180,10.7,10.7,49,0.00,,---,0.00,VWS V14.01,2013-02-06 23:51:00,
2013-02-06 17:53:00,70.8,51.3,29.85,SE,135,7.8,9.0,50,0.00,,---,0.00,VWS V14.01,2013-02-06 23:53:00,
2013-02-06 17:54:00,70.6,51.1,29.85,SSE,158,6.3,10.3,50,0.00,,---,0.00,VWS V14.01,2013-02-06 23:54:00,
2013-02-06 17:55:00,69.9,51.0,29.85,SSE,158,8.7,8.7,51,0.00,,---,0.00,VWS V14.01,2013-02-06 23:55:00,
2013-02-06 17:56:00,70.6,51.1,29.85,SE,135,4.5,10.1,50,0.00,,---,0.00,VWS V14.01,2013-02-06 23:56:00,
2013-02-06 17:57:00,70.4,51.5,29.85,SE,135,6.5,7.8,51,0.00,,---,0.00,VWS V14.01,2013-02-06 23:57:00,
2013-02-06 17:58:00,70.4,51.5,29.85,SE,135,5.6,7.4,51,0.00,,---,0.00,VWS V14.01,2013-02-06 23:58:00,
2013-02-06 17:59:00,70.3,51.3,29.85,SE,135,4.9,7.4,51,0.00,,---,0.00,VWS V14.01,2013-02-06 23:59:00,
2013-02-06 18:00:00,69.6,50.7,29.85,SE,135,5.6,8.5,51,0.00,,---,0.00,VWS V14.01,2013-02-07 00:00:00,
2013-02-06 18:01:00,70.1,51.1,29.85,SE,135,6.5,10.7,51,0.00,,---,0.00,VWS V14.01,2013-02-07 00:01:00,
2013-02-06 18:02:00,70.1,51.1,29.85,ESE,112,8.5,8.5,51,0.00,,---,0.00,VWS V14.01,2013-02-07 00:02:00,
2013-02-06 18:03:00,70.1,51.1,29.85,East,90,6.5,8.7,51,0.00,,---,0.00,VWS V14.01,2013-02-07 00:03:00,
2013-02-06 18:04:00,69.9,51.0,29.85,South,180,4.9,6.5,51,0.00,,---,0.00,VWS V14.01,2013-02-07 00:04:00,
2013-02-06 18:05:00,69.2,50.8,29.88,ESE,112,6.5,7.6,52,0.00,,---,0.00,VWS V14.01,2013-02-07 00:05:00,
2013-02-06 18:06:00,69.9,51.0,29.85,SSE,158,8.7,8.7,51,0.00,,---,0.00,VWS V14.01,2013-02-07 00:06:00,
2013-02-06 18:07:00,69.7,50.8,29.85,South,180,8.7,13.0,51,0.00,,---,0.00,VWS V14.01,2013-02-07 00:07:00,
2013-02-06 18:08:00,69.6,50.7,29.85,ESE,112,9.6,9.6,51,0.00,,---,0.00,VWS V14.01,2013-02-07 00:08:00,
2013-02-06 18:09:00,69.6,50.7,29.85,SE,135,10.1,10.1,51,0.00,,---,0.00,VWS V14.01,2013-02-07 00:09:00,
2013-02-06 18:10:00,69.0,50.2,29.88,SE,135,8.7,11.9,51,0.00,,---,0.00,VWS V14.01,2013-02-07 00:10:00,
2013-02-06 18:11:00,69.6,50.7,29.85,SE,135,5.6,8.5,51,0.00,,---,0.00,VWS V14.01,2013-02-07 00:11:00,
2013-02-06 18:12:00,69.6,50.7,29.85,SE,135,5.8,6.3,51,0.00,,---,0.00,VWS V14.01,2013-02-07 00:12:00,
2013-02-06 18:13:00,69.4,50.5,29.85,SE,135,4.9,5.8,51,0.00,,---,0.00,VWS V14.01,2013-02-07 00:13:00,
2013-02-06 18:14:00,69.4,51.0,29.85,South,180,7.6,8.1,52,0.00,,---,0.00,VWS V14.01,2013-02-07 00:14:00,
2013-02-06 18:15:00,68.8,50.5,29.88,South,180,6.0,7.2,52,0.00,,---,0.00,VWS V14.01,2013-02-07 00:15:00,
2013-02-06 18:16:00,69.2,50.8,29.88,ESE,112,6.5,7.6,52,0.00,,---,0.00,VWS V14.01,2013-02-07 00:16:00,
2013-02-06 18:17:00,69.2,50.8,29.88,SSE,158,5.8,8.1,52,0.00,,---,0.00,VWS V14.01,2013-02-07 00:17:00,
2013-02-06 18:18:00,69.2,50.3,29.88,SE,135,7.6,10.7,51,0.00,,---,0.00,VWS V14.01,2013-02-07 00:18:00,
2013-02-06 18:19:00,69.0,50.2,29.88,SSE,158,7.6,10.1,51,0.00,,---,0.00,VWS V14.01,2013-02-07 00:19:00,
2013-02-06 18:20:00,68.7,50.9,29.88,South,180,4.0,9.4,53,0.00,,---,0.00,VWS V14.01,2013-02-07 00:20:00,
2013-02-06 18:21:00,69.0,50.2,29.88,SE,135,8.7,11.9,51,0.00,,---,0.00,VWS V14.01,2013-02-07 00:21:00,
2013-02-06 18:22:00,69.0,50.2,29.88,SE,135,7.8,10.1,51,0.00,,---,0.00,VWS V14.01,2013-02-07 00:22:00,
2013-02-06 18:23:00,69.0,50.7,29.88,ESE,112,9.6,9.6,52,0.00,,---,0.00,VWS V14.01,2013-02-07 00:23:00,
2013-02-06 18:24:00,68.8,50.5,29.88,SE,135,3.6,13.0,52,0.00,,---,0.00,VWS V14.01,2013-02-07 00:24:00,
2013-02-06 18:25:00,68.5,50.7,29.88,SE,135,4.3,4.3,53,0.00,,---,0.00,VWS V14.01,2013-02-07 00:25:00,
2013-02-06 18:26:00,68.8,50.5,29.88,South,180,6.0,7.2,52,0.00,,---,0.00,VWS V14.01,2013-02-07 00:26:00,
2013-02-06 18:27:00,68.8,50.5,29.88,South,180,6.0,8.1,52,0.00,,---,0.00,VWS V14.01,2013-02-07 00:27:00,
2013-02-06 18:28:00,68.7,50.4,29.88,South,180,5.8,6.3,52,0.00,,---,0.00,VWS V14.01,2013-02-07 00:28:00,
2013-02-06 18:29:00,68.7,50.4,29.88,South,180,5.6,11.0,52,0.00,,---,0.00,VWS V14.01,2013-02-07 00:29:00,
2013-02-06 18:30:00,68.1,50.9,29.88,SSE,158,6.0,7.4,54,0.00,,---,0.00,VWS V14.01,2013-02-07 00:30:00,
2013-02-06 18:31:00,68.7,50.9,29.88,South,180,4.0,9.4,53,0.00,,---,0.00,VWS V14.01,2013-02-07 00:31:00,
2013-02-06 18:32:00,68.5,50.7,29.88,SE,135,6.5,6.5,53,0.00,,---,0.00,VWS V14.01,2013-02-07 00:32:00,
2013-02-06 18:33:00,68.5,50.7,29.88,SE,135,7.2,7.4,53,0.00,,---,0.00,VWS V14.01,2013-02-07 00:33:00,
2013-02-06 18:34:00,68.5,50.7,29.88,SE,135,5.4,7.2,53,0.00,,---,0.00,VWS V14.01,2013-02-07 00:34:00,
2013-02-06 18:35:00,68.1,51.4,29.88,SE,135,6.7,7.6,55,0.00,,---,0.00,VWS V14.01,2013-02-07 00:35:00,
2013-02-06 18:36:00,68.5,50.7,29.88,SE,135,4.3,4.3,53,0.00,,---,0.00,VWS V14.01,2013-02-07 00:36:00,
2013-02-06 18:37:00,68.3,50.5,29.88,South,180,5.4,5.6,53,0.00,,---,0.00,VWS V14.01,2013-02-07 00:37:00,
2013-02-06 18:38:00,68.3,50.5,29.88,SSE,158,4.0,5.8,53,0.00,,---,0.00,VWS V14.01,2013-02-07 00:38:00,
2013-02-06 18:39:00,68.3,51.0,29.88,South,180,5.4,5.6,54,0.00,,---,0.00,VWS V14.01,2013-02-07 00:39:00,
2013-02-06 18:40:00,67.8,51.5,29.88,SSE,158,6.5,6.5,56,0.00,,---,0.00,VWS V14.01,2013-02-07 00:40:00,
2013-02-06 18:41:00,68.1,50.9,29.88,SSE,158,6.0,7.4,54,0.00,,---,0.00,VWS V14.01,2013-02-07 00:41:00,
2013-02-06 18:42:00,68.1,50.9,29.88,SSE,158,3.8,6.0,54,0.00,,---,0.00,VWS V14.01,2013-02-07 00:42:00,
2013-02-06 18:44:00,68.1,51.4,29.88,South,180,4.9,8.1,55,0.00,,---,0.00,VWS V14.01,2013-02-07 00:44:00,
2013-02-06 18:45:00,67.4,51.7,29.88,South,180,6.3,6.7,57,0.00,,---,0.00,VWS V14.01,2013-02-07 00:45:00,
2013-02-06 18:46:00,68.1,51.4,29.88,SE,135,6.7,7.6,55,0.00,,---,0.00,VWS V14.01,2013-02-07 00:46:00,
2013-02-06 18:47:00,68.0,51.2,29.88,SE,135,5.6,6.7,55,0.00,,---,0.00,VWS V14.01,2013-02-07 00:47:00,
2013-02-06 18:48:00,68.0,51.2,29.88,SSE,158,5.6,7.8,55,0.00,,---,0.00,VWS V14.01,2013-02-07 00:48:00,
2013-02-06 18:49:00,68.0,51.7,29.88,SE,135,4.0,9.4,56,0.00,,---,0.00,VWS V14.01,2013-02-07 00:49:00,
2013-02-06 18:50:00,67.2,52.0,29.88,South,180,4.9,8.5,58,0.00,,---,0.00,VWS V14.01,2013-02-07 00:50:00,
2013-02-06 18:51:00,67.8,51.5,29.88,SSE,158,6.5,6.5,56,0.00,,---,0.00,VWS V14.01,2013-02-07 00:51:00,
2013-02-06 18:52:00,67.8,51.5,29.88,ESE,112,3.8,9.6,56,0.00,,---,0.00,VWS V14.01,2013-02-07 00:52:00,
2013-02-06 18:53:00,67.6,51.8,29.88,SE,135,6.3,6.3,57,0.00,,---,0.00,VWS V14.01,2013-02-07 00:53:00,
2013-02-06 18:54:00,67.6,51.8,29.88,SSE,158,4.9,6.3,57,0.00,,---,0.00,VWS V14.01,2013-02-07 00:54:00,
2013-02-06 18:55:00,67.1,52.7,29.88,SSE,158,6.7,6.7,60,0.00,,---,0.00,VWS V14.01,2013-02-07 00:55:00,
2013-02-06 18:56:00,67.4,51.7,29.88,South,180,6.3,6.7,57,0.00,,---,0.00,VWS V14.01,2013-02-07 00:56:00,
2013-02-06 18:57:00,67.4,51.7,29.88,SE,135,6.5,6.5,57,0.00,,---,0.00,VWS V14.01,2013-02-07 00:57:00,
2013-02-06 18:58:00,67.4,51.7,29.88,SE,135,8.7,8.7,57,0.00,,---,0.00,VWS V14.01,2013-02-07 00:58:00,
2013-02-06 18:59:00,67.4,52.2,29.88,SSW,202,5.6,8.7,58,0.00,,---,0.00,VWS V14.01,2013-02-07 00:59:00,
2013-02-06 19:00:00,66.9,53.0,29.88,SSE,158,9.6,9.6,61,0.00,,---,0.00,VWS V14.01,2013-02-07 01:00:00,
2013-02-06 19:01:00,67.2,52.0,29.88,South,180,4.9,8.5,58,0.00,,---,0.00,VWS V14.01,2013-02-07 01:01:00,
2013-02-06 19:02:00,67.2,52.5,29.88,SE,135,3.8,8.5,59,0.00,,---,0.00,VWS V14.01,2013-02-07 01:02:00,
2013-02-06 19:03:00,67.2,52.5,29.88,SE,135,6.5,6.7,59,0.00,,---,0.00,VWS V14.01,2013-02-07 01:03:00,
2013-02-06 19:04:00,67.2,52.5,29.88,SSE,158,3.6,6.5,59,0.00,,---,0.00,VWS V14.01,2013-02-07 01:04:00,
2013-02-06 19:05:00,66.5,53.1,29.88,SSE,158,12.5,12.5,62,0.00,,---,0.00,VWS V14.01,2013-02-07 01:05:00,
2013-02-06 19:06:00,67.1,52.7,29.88,SSE,158,6.7,6.7,60,0.00,,---,0.00,VWS V14.01,2013-02-07 01:06:00,
2013-02-06 19:07:00,67.1,52.7,29.88,SE,135,6.3,6.7,60,0.00,,---,0.00,VWS V14.01,2013-02-07 01:07:00,
2013-02-06 19:08:00,67.1,52.7,29.88,ESE,112,6.5,6.5,60,0.00,,---,0.00,VWS V14.01,2013-02-07 01:08:00,
2013-02-06 19:09:00,66.9,52.6,29.88,SSE,158,2.9,7.8,60,0.00,,---,0.00,VWS V14.01,2013-02-07 01:09:00,
2013-02-06 19:10:00,66.4,53.4,29.88,SSE,158,4.3,8.5,63,0.00,,---,0.00,VWS V14.01,2013-02-07 01:10:00,
2013-02-06 19:12:00,66.7,52.9,29.88,SE,135,8.7,9.6,61,0.00,,---,0.00,VWS V14.01,2013-02-07 01:12:00,
2013-02-06 19:13:00,66.7,52.9,29.88,SSE,158,8.5,11.0,61,0.00,,---,0.00,VWS V14.01,2013-02-07 01:13:00,
2013-02-06 19:14:00,66.7,53.3,29.88,SE,135,8.1,8.5,62,0.00,,---,0.00,VWS V14.01,2013-02-07 01:14:00,
2013-02-06 19:15:00,66.0,53.5,29.88,SSE,158,4.3,4.3,64,0.00,,---,0.00,VWS V14.01,2013-02-07 01:15:00,
2013-02-06 19:16:00,66.5,53.1,29.88,SSE,158,12.5,12.5,62,0.00,,---,0.00,VWS V14.01,2013-02-07 01:16:00,
2013-02-06 19:17:00,66.5,53.1,29.88,SE,135,10.3,12.5,62,0.00,,---,0.00,VWS V14.01,2013-02-07 01:17:00,
2013-02-06 19:18:00,66.5,53.6,29.88,SSW,202,7.8,11.9,63,0.00,,---,0.00,VWS V14.01,2013-02-07 01:18:00,
2013-02-06 19:19:00,66.4,53.4,29.88,SSE,158,4.9,13.4,63,0.00,,---,0.00,VWS V14.01,2013-02-07 01:19:00,
2013-02-06 19:20:00,65.7,53.6,29.88,SW,225,5.4,10.7,65,0.00,,---,0.00,VWS V14.01,2013-02-07 01:20:00,
2013-02-06 19:21:00,66.4,53.4,29.88,SSE,158,4.3,8.5,63,0.00,,---,0.00,VWS V14.01,2013-02-07 01:21:00,
2013-02-06 19:22:00,66.2,53.2,29.88,SSE,158,4.3,4.3,63,0.00,,---,0.00,VWS V14.01,2013-02-07 01:22:00,
2013-02-06 19:23:00,66.2,53.7,29.88,SSE,158,4.3,4.3,64,0.00,,---,0.00,VWS V14.01,2013-02-07 01:23:00,
2013-02-06 19:24:00,66.0,53.5,29.88,SSE,158,4.3,4.3,64,0.00,,---,0.00,VWS V14.01,2013-02-07 01:24:00,
2013-02-06 19:25:00,65.5,53.4,29.88,SSE,158,5.8,6.0,65,0.00,,---,0.00,VWS V14.01,2013-02-07 01:25:00,
2013-02-06 19:26:00,66.0,53.5,29.88,SSE,158,4.3,4.3,64,0.00,,---,0.00,VWS V14.01,2013-02-07 01:26:00,
2013-02-06 19:27:00,65.8,53.3,29.88,SSE,158,4.3,4.3,64,0.00,,---,0.00,VWS V14.01,2013-02-07 01:27:00,
2013-02-06 19:28:00,65.8,53.3,29.88,SSE,158,4.3,4.3,64,0.00,,---,0.00,VWS V14.01,2013-02-07 01:28:00,
2013-02-06 19:29:00,65.8,53.8,29.88,SSE,158,4.3,4.3,65,0.00,,---,0.00,VWS V14.01,2013-02-07 01:29:00,
2013-02-06 19:30:00,65.1,53.9,29.88,South,180,4.9,6.5,67,0.00,,---,0.00,VWS V14.01,2013-02-07 01:30:00,
2013-02-06 19:31:00,65.7,53.6,29.88,SW,225,5.4,10.7,65,0.00,,---,0.00,VWS V14.01,2013-02-07 01:31:00,
2013-02-06 19:32:00,65.7,53.6,29.88,SSE,158,9.6,9.6,65,0.00,,---,0.00,VWS V14.01,2013-02-07 01:32:00,
2013-02-06 19:33:00,65.5,53.4,29.88,ESE,112,7.2,9.8,65,0.00,,---,0.00,VWS V14.01,2013-02-07 01:33:00,
2013-02-06 19:34:00,65.5,53.4,29.88,South,180,5.4,7.2,65,0.00,,---,0.00,VWS V14.01,2013-02-07 01:34:00,
2013-02-06 19:35:00,65.5,53.4,29.88,SE,135,6.0,6.0,65,0.00,,---,0.00,VWS V14.01,2013-02-07 01:35:00,
2013-02-06 19:36:00,64.8,53.2,29.88,SSE,158,6.0,8.7,66,0.00,,---,0.00,VWS V14.01,2013-02-07 01:36:00,
2013-02-06 19:37:00,65.3,53.7,29.88,South,180,6.3,6.3,66,0.00,,---,0.00,VWS V14.01,2013-02-07 01:37:00,
2013-02-06 19:38:00,65.1,53.5,29.88,SE,135,6.3,7.8,66,0.00,,---,0.00,VWS V14.01,2013-02-07 01:38:00,
2013-02-06 19:39:00,65.1,53.5,29.88,SE,135,5.4,6.3,66,0.00,,---,0.00,VWS V14.01,2013-02-07 01:39:00,
2013-02-06 19:40:00,65.1,53.5,29.88,SE,135,3.6,8.1,66,0.00,,---,0.00,VWS V14.01,2013-02-07 01:40:00,
2013-02-06 19:41:00,64.6,53.4,29.88,SE,135,7.2,9.6,67,0.00,,---,0.00,VWS V14.01,2013-02-07 01:41:00,
2013-02-06 19:42:00,64.9,53.3,29.88,SSE,158,10.3,10.3,66,0.00,,---,0.00,VWS V14.01,2013-02-07 01:42:00,
2013-02-06 19:43:00,64.9,53.3,29.88,SSE,158,5.8,12.8,66,0.00,,---,0.00,VWS V14.01,2013-02-07 01:43:00,
2013-02-06 19:44:00,64.9,53.3,29.88,SSE,158,5.8,6.0,66,0.00,,---,0.00,VWS V14.01,2013-02-07 01:44:00,
2013-02-06 19:45:00,64.9,53.3,29.88,SE,135,6.5,7.6,66,0.00,,---,0.00,VWS V14.01,2013-02-07 01:45:00,
2013-02-06 19:46:00,64.4,53.2,29.88,SSE,158,8.7,8.7,67,0.00,,---,0.00,VWS V14.01,2013-02-07 01:46:00,
2013-02-06 19:47:00,64.8,53.2,29.88,SSE,158,6.0,8.7,66,0.00,,---,0.00,VWS V14.01,2013-02-07 01:47:00,
2013-02-06 19:48:00,64.8,53.2,29.88,SE,135,4.5,7.6,66,0.00,,---,0.00,VWS V14.01,2013-02-07 01:48:00,
2013-02-06 19:49:00,64.8,53.2,29.88,SE,135,3.8,4.5,66,0.00,,---,0.00,VWS V14.01,2013-02-07 01:49:00,
2013-02-06 19:50:00,64.8,53.6,29.88,South,180,6.3,7.2,67,0.00,,---,0.00,VWS V14.01,2013-02-07 01:50:00,
2013-02-06 19:51:00,64.2,53.1,29.91,SE,135,6.7,6.7,67,0.00,,---,0.00,VWS V14.01,2013-02-07 01:51:00,
2013-02-06 19:53:00,64.6,53.4,29.88,SSE,158,5.6,7.4,67,0.00,,---,0.00,VWS V14.01,2013-02-07 01:53:00,
2013-02-06 19:54:00,64.4,53.2,29.88,SE,135,6.3,6.3,67,0.00,,---,0.00,VWS V14.01,2013-02-07 01:54:00,
2013-02-06 19:55:00,64.4,53.2,29.88,SE,135,3.8,6.3,67,0.00,,---,0.00,VWS V14.01,2013-02-07 01:55:00,
2013-02-06 19:56:00,64.1,52.9,29.91,SE,135,4.9,6.7,67,0.00,,---,0.00,VWS V14.01,2013-02-07 01:56:00,
2013-02-06 19:57:00,64.4,53.2,29.88,SSE,158,8.7,8.7,67,0.00,,---,0.00,VWS V14.01,2013-02-07 01:57:00,
2013-02-06 19:58:00,64.4,53.2,29.88,SE,135,8.1,10.7,67,0.00,,---,0.00,VWS V14.01,2013-02-07 01:58:00,
2013-02-06 19:59:00,64.2,53.1,29.88,SE,135,7.4,8.1,67,0.00,,---,0.00,VWS V14.01,2013-02-07 01:59:00,
2013-02-06 20:00:00,64.2,53.1,29.88,South,180,6.5,7.4,67,0.00,,---,0.00,VWS V14.01,2013-02-07 02:00:00,
2013-02-06 20:01:00,64.1,52.9,29.91,SE,135,6.7,9.8,67,0.00,,---,0.00,VWS V14.01,2013-02-07 02:01:00,
2013-02-06 20:02:00,64.2,53.1,29.91,SE,135,6.7,6.7,67,0.00,,---,0.00,VWS V14.01,2013-02-07 02:02:00,
2013-02-06 20:03:00,64.2,53.1,29.91,SE,135,6.5,8.7,67,0.00,,---,0.00,VWS V14.01,2013-02-07 02:03:00,
2013-02-06 20:04:00,64.1,52.9,29.91,SE,135,6.3,6.5,67,0.00,,---,0.00,VWS V14.01,2013-02-07 02:04:00,
2013-02-06 20:05:00,64.1,52.9,29.91,SSE,158,11.9,11.9,67,0.00,,---,0.00,VWS V14.01,2013-02-07 02:05:00,
2013-02-06 20:06:00,63.7,52.6,29.91,ESE,112,5.4,8.7,67,0.00,,---,0.00,VWS V14.01,2013-02-07 02:06:00,
2013-02-06 20:07:00,64.1,52.9,29.91,SE,135,4.9,6.7,67,0.00,,---,0.00,VWS V14.01,2013-02-07 02:07:00,
2013-02-06 20:08:00,63.9,52.7,29.91,SE,135,7.6,7.6,67,0.00,,---,0.00,VWS V14.01,2013-02-07 02:08:00,
2013-02-06 20:09:00,63.9,52.7,29.91,South,180,12.8,15.4,67,0.00,,---,0.00,VWS V14.01,2013-02-07 02:09:00,
2013-02-06 20:10:00,64.1,52.9,29.91,SE,135,14.3,14.3,67,0.00,,---,0.00,VWS V14.01,2013-02-07 02:10:00,
2013-02-06 20:11:00,63.5,52.8,29.91,SE,135,5.8,10.3,68,0.00,,---,0.00,VWS V14.01,2013-02-07 02:11:00,
2013-02-06 20:12:00,64.1,52.9,29.91,SE,135,6.7,9.8,67,0.00,,---,0.00,VWS V14.01,2013-02-07 02:12:00,
2013-02-06 20:13:00,63.9,52.7,29.91,SE,135,6.0,7.8,67,0.00,,---,0.00,VWS V14.01,2013-02-07 02:13:00,
2013-02-06 20:15:00,63.9,52.7,29.91,SSE,158,5.6,5.8,67,0.00,,---,0.00,VWS V14.01,2013-02-07 02:15:00,
2013-02-06 20:16:00,63.5,52.8,29.91,SE,135,5.4,9.8,68,0.00,,---,0.00,VWS V14.01,2013-02-07 02:16:00,
2013-02-06 20:18:00,63.7,52.6,29.91,SSE,158,3.4,5.4,67,0.00,,---,0.00,VWS V14.01,2013-02-07 02:18:00,
2013-02-06 20:19:00,63.7,52.6,29.91,South,180,5.4,6.0,67,0.00,,---,0.00,VWS V14.01,2013-02-07 02:19:00,
2013-02-06 20:20:00,63.7,52.6,29.91,ESE,112,8.5,8.5,67,0.00,,---,0.00,VWS V14.01,2013-02-07 02:20:00,
2013-02-06 20:21:00,63.2,52.5,29.91,ESE,112,4.9,5.8,68,0.00,,---,0.00,VWS V14.01,2013-02-07 02:21:00,
2013-02-06 20:22:00,63.5,52.8,29.91,SE,135,5.8,10.3,68,0.00,,---,0.00,VWS V14.01,2013-02-07 02:22:00,
2013-02-06 20:25:00,63.5,52.8,29.91,SE,135,7.2,11.0,68,0.00,,---,0.00,VWS V14.01,2013-02-07 02:25:00,
2013-02-06 20:26:00,63.0,52.7,29.91,SE,135,3.6,9.8,69,0.00,,---,0.00,VWS V14.01,2013-02-07 02:26:00,
2013-02-06 20:27:00,63.5,52.8,29.91,SE,135,5.4,9.8,68,0.00,,---,0.00,VWS V14.01,2013-02-07 02:27:00,
2013-02-06 20:28:00,63.5,52.8,29.91,SE,135,6.5,8.7,68,0.00,,---,0.00,VWS V14.01,2013-02-07 02:28:00,
2013-02-06 20:29:00,63.3,52.6,29.91,SE,135,8.7,8.7,68,0.00,,---,0.00,VWS V14.01,2013-02-07 02:29:00,
2013-02-06 20:30:00,63.3,52.6,29.91,SE,135,8.1,8.7,68,0.00,,---,0.00,VWS V14.01,2013-02-07 02:30:00,
2013-02-06 20:31:00,62.8,52.5,29.91,SE,135,3.4,5.6,69,0.00,,---,0.00,VWS V14.01,2013-02-07 02:31:00,
2013-02-06 20:32:00,63.2,52.5,29.91,ESE,112,4.9,5.8,68,0.00,,---,0.00,VWS V14.01,2013-02-07 02:32:00,
2013-02-06 20:33:00,63.2,52.8,29.91,SE,135,4.3,7.8,69,0.00,,---,0.00,VWS V14.01,2013-02-07 02:33:00,
2013-02-06 20:34:00,63.2,52.8,29.91,South,180,4.7,7.6,69,0.00,,---,0.00,VWS V14.01,2013-02-07 02:34:00,
2013-02-06 20:35:00,63.2,52.8,29.91,SE,135,5.4,6.0,69,0.00,,---,0.00,VWS V14.01,2013-02-07 02:35:00,
2013-02-06 20:36:00,62.6,52.7,29.94,SSE,158,3.4,7.8,70,0.00,,---,0.00,VWS V14.01,2013-02-07 02:36:00,
2013-02-06 20:37:00,63.0,52.7,29.91,SE,135,3.6,9.8,69,0.00,,---,0.00,VWS V14.01,2013-02-07 02:37:00,
2013-02-06 20:38:00,63.0,52.7,29.91,SE,135,7.6,8.5,69,0.00,,---,0.00,VWS V14.01,2013-02-07 02:38:00,
2013-02-06 20:39:00,63.0,52.7,29.91,SSE,158,5.6,9.6,69,0.00,,---,0.00,VWS V14.01,2013-02-07 02:39:00,
2013-02-06 20:40:00,63.0,52.7,29.91,ESE,112,8.5,8.5,69,0.00,,---,0.00,VWS V14.01,2013-02-07 02:40:00,
2013-02-06 20:41:00,62.5,52.6,29.94,SE,135,4.0,12.5,70,0.00,,---,0.00,VWS V14.01,2013-02-07 02:41:00,
2013-02-06 20:42:00,62.8,52.5,29.91,SE,135,3.4,5.6,69,0.00,,---,0.00,VWS V14.01,2013-02-07 02:42:00,
2013-02-06 20:43:00,62.8,52.5,29.91,SSE,158,3.8,6.0,69,0.00,,---,0.00,VWS V14.01,2013-02-07 02:43:00,
2013-02-06 20:44:00,62.8,52.5,29.91,ESE,112,6.5,6.5,69,0.00,,---,0.00,VWS V14.01,2013-02-07 02:44:00,
2013-02-06 20:45:00,62.6,52.3,29.91,SE,135,5.8,7.4,69,0.00,,---,0.00,VWS V14.01,2013-02-07 02:45:00,
2013-02-06 20:46:00,62.3,52.4,29.94,SSE,158,7.8,7.8,70,0.00,,---,0.00,VWS V14.01,2013-02-07 02:46:00,
2013-02-06 20:47:00,62.6,52.7,29.94,SSE,158,3.4,7.8,70,0.00,,---,0.00,VWS V14.01,2013-02-07 02:47:00,
2013-02-06 20:48:00,62.6,52.7,29.94,SSE,158,3.8,9.6,70,0.00,,---,0.00,VWS V14.01,2013-02-07 02:48:00,
2013-02-06 20:49:00,62.6,52.7,29.94,SE,135,12.5,13.6,70,0.00,,---,0.00,VWS V14.01,2013-02-07 02:49:00,
2013-02-06 20:50:00,62.6,52.7,29.94,SE,135,8.7,12.5,70,0.00,,---,0.00,VWS V14.01,2013-02-07 02:50:00,
2013-02-06 20:51:00,62.1,52.6,29.94,SSE,158,6.5,7.6,71,0.00,,---,0.00,VWS V14.01,2013-02-07 02:51:00,
2013-02-06 20:52:00,62.5,52.6,29.94,SE,135,4.0,12.5,70,0.00,,---,0.00,VWS V14.01,2013-02-07 02:52:00,
2013-02-06 20:54:00,62.5,52.6,29.94,SE,135,4.0,4.7,70,0.00,,---,0.00,VWS V14.01,2013-02-07 02:54:00,
2013-02-06 20:55:00,62.5,52.6,29.94,SE,135,3.6,10.5,70,0.00,,---,0.00,VWS V14.01,2013-02-07 02:55:00,
2013-02-06 20:56:00,61.9,52.4,29.94,SE,135,4.3,6.3,71,0.00,,---,0.00,VWS V14.01,2013-02-07 02:56:00,
2013-02-06 20:58:00,62.3,52.4,29.94,SE,135,3.1,7.8,70,0.00,,---,0.00,VWS V14.01,2013-02-07 02:58:00,
2013-02-06 20:59:00,62.3,52.4,29.94,East,90,5.4,9.6,70,0.00,,---,0.00,VWS V14.01,2013-02-07 02:59:00,
2013-02-06 21:01:00,61.8,52.7,29.94,SE,135,6.5,8.5,72,0.00,,---,0.00,VWS V14.01,2013-02-07 03:01:00,
2013-02-06 21:02:00,62.1,52.6,29.94,SSE,158,6.5,7.6,71,0.00,,---,0.00,VWS V14.01,2013-02-07 03:02:00,
2013-02-06 21:03:00,62.1,52.6,29.94,SE,135,5.8,6.5,71,0.00,,---,0.00,VWS V14.01,2013-02-07 03:03:00,
2013-02-06 21:04:00,62.1,52.6,29.94,SE,135,4.0,7.4,71,0.00,,---,0.00,VWS V14.01,2013-02-07 03:04:00,
2013-02-06 21:05:00,61.9,52.4,29.94,SE,135,7.4,7.4,71,0.00,,---,0.00,VWS V14.01,2013-02-07 03:05:00,
2013-02-06 21:06:00,61.9,52.4,29.94,SE,135,6.3,7.8,71,0.00,,---,0.00,VWS V14.01,2013-02-07 03:06:00,
2013-02-06 21:07:00,61.4,52.3,29.94,SE,135,4.9,6.7,72,0.00,,---,0.00,VWS V14.01,2013-02-07 03:07:00,
2013-02-06 21:08:00,61.9,52.4,29.94,SE,135,5.8,7.8,71,0.00,,---,0.00,VWS V14.01,2013-02-07 03:08:00,
2013-02-06 21:09:00,61.9,52.4,29.94,SE,135,6.0,6.0,71,0.00,,---,0.00,VWS V14.01,2013-02-07 03:09:00,
2013-02-06 21:12:00,61.2,52.1,29.94,SSE,158,8.1,8.1,72,0.00,,---,0.00,VWS V14.01,2013-02-07 03:12:00,
2013-02-06 21:13:00,61.8,52.7,29.94,ESE,112,6.5,7.6,72,0.00,,---,0.00,VWS V14.01,2013-02-07 03:13:00,
2013-02-06 21:14:00,61.8,52.7,29.94,SE,135,4.0,6.5,72,0.00,,---,0.00,VWS V14.01,2013-02-07 03:14:00,
2013-02-06 21:15:00,61.6,52.5,29.94,SE,135,7.4,7.4,72,0.00,,---,0.00,VWS V14.01,2013-02-07 03:15:00,
2013-02-06 21:16:00,61.6,52.5,29.94,SE,135,4.0,7.4,72,0.00,,---,0.00,VWS V14.01,2013-02-07 03:16:00,
2013-02-06 21:17:00,61.0,52.3,29.94,ESE,112,4.9,9.8,73,0.00,,---,0.00,VWS V14.01,2013-02-07 03:17:00,
2013-02-06 21:18:00,61.4,52.3,29.94,SE,135,4.9,6.7,72,0.00,,---,0.00,VWS V14.01,2013-02-07 03:18:00,
2013-02-06 21:19:00,61.4,52.3,29.94,SE,135,2.9,5.4,72,0.00,,---,0.00,VWS V14.01,2013-02-07 03:19:00,
2013-02-06 21:20:00,61.4,52.3,29.94,SE,135,4.0,4.9,72,0.00,,---,0.00,VWS V14.01,2013-02-07 03:20:00,
2013-02-06 21:21:00,61.4,52.3,29.94,SSE,158,2.9,6.3,72,0.00,,---,0.00,VWS V14.01,2013-02-07 03:21:00,
2013-02-06 21:22:00,60.9,52.2,29.94,SE,135,3.4,5.8,73,0.00,,---,0.00,VWS V14.01,2013-02-07 03:22:00,
2013-02-06 21:23:00,61.2,52.1,29.94,SSE,158,8.1,8.1,72,0.00,,---,0.00,VWS V14.01,2013-02-07 03:23:00,
2013-02-06 21:24:00,61.2,52.1,29.94,SE,135,3.6,8.1,72,0.00,,---,0.00,VWS V14.01,2013-02-07 03:24:00,
2013-02-06 21:25:00,61.0,52.0,29.94,SSE,158,5.4,5.4,72,0.00,,---,0.00,VWS V14.01,2013-02-07 03:25:00,
2013-02-06 21:26:00,61.0,52.0,29.94,SSE,158,2.9,5.4,72,0.00,,---,0.00,VWS V14.01,2013-02-07 03:26:00,
2013-02-06 21:27:00,60.7,52.0,29.94,SSE,158,5.4,5.8,73,0.00,,---,0.00,VWS V14.01,2013-02-07 03:27:00,
2013-02-06 21:28:00,61.0,52.3,29.94,ESE,112,4.9,9.8,73,0.00,,---,0.00,VWS V14.01,2013-02-07 03:28:00,
2013-02-06 21:29:00,61.0,52.3,29.94,SE,135,4.3,6.5,73,0.00,,---,0.00,VWS V14.01,2013-02-07 03:29:00,
2013-02-06 21:30:00,61.0,52.3,29.94,East,90,4.9,4.9,73,0.00,,---,0.00,VWS V14.01,2013-02-07 03:30:00,
2013-02-06 21:31:00,61.0,52.3,29.94,SE,135,6.3,6.3,73,0.00,,---,0.00,VWS V14.01,2013-02-07 03:31:00,
2013-02-06 21:32:00,60.7,52.4,29.94,SSE,158,5.8,8.5,74,0.00,,---,0.00,VWS V14.01,2013-02-07 03:32:00,
2013-02-06 21:33:00,60.9,52.2,29.94,SE,135,3.4,5.8,73,0.00,,---,0.00,VWS V14.01,2013-02-07 03:33:00,
2013-02-06 21:34:00,60.9,52.2,29.94,SSE,158,6.5,6.5,73,0.00,,---,0.00,VWS V14.01,2013-02-07 03:34:00,
2013-02-06 21:35:00,60.9,52.2,29.94,SE,135,2.9,6.5,73,0.00,,---,0.00,VWS V14.01,2013-02-07 03:35:00,
2013-02-06 21:36:00,60.9,52.2,29.94,East,90,5.6,5.6,73,0.00,,---,0.00,VWS V14.01,2013-02-07 03:36:00,
2013-02-06 21:37:00,60.5,52.6,29.91,South,180,7.6,7.6,75,0.00,,---,0.00,VWS V14.01,2013-02-07 03:37:00,
2013-02-06 21:38:00,60.7,52.0,29.94,SSE,158,5.4,5.8,73,0.00,,---,0.00,VWS V14.01,2013-02-07 03:38:00,
2013-02-06 21:39:00,60.7,52.4,29.94,SE,135,6.5,6.5,74,0.00,,---,0.00,VWS V14.01,2013-02-07 03:39:00,
2013-02-06 21:40:00,60.7,52.4,29.94,SE,135,3.1,9.6,74,0.00,,---,0.00,VWS V14.01,2013-02-07 03:40:00,
2013-02-06 21:41:00,60.7,52.4,29.94,South,180,8.5,8.5,74,0.00,,---,0.00,VWS V14.01,2013-02-07 03:41:00,
2013-02-06 21:42:00,60.5,52.6,29.91,SE,135,5.4,9.6,75,0.00,,---,0.00,VWS V14.01,2013-02-07 03:42:00,
2013-02-06 21:43:00,60.7,52.4,29.94,SSE,158,5.8,8.5,74,0.00,,---,0.00,VWS V14.01,2013-02-07 03:43:00,
2013-02-06 21:44:00,60.7,52.4,29.94,East,90,3.4,8.5,74,0.00,,---,0.00,VWS V14.01,2013-02-07 03:44:00,
2013-02-06 21:45:00,60.7,52.4,29.94,SE,135,2.9,4.3,74,0.00,,---,0.00,VWS V14.01,2013-02-07 03:45:00,
2013-02-06 21:46:00,60.5,52.2,29.91,SE,135,6.0,7.2,74,0.00,,---,0.00,VWS V14.01,2013-02-07 03:46:00,
2013-02-06 21:47:00,60.3,52.8,29.91,SE,135,6.5,6.5,76,0.00,,---,0.00,VWS V14.01,2013-02-07 03:47:00,
2013-02-06 21:48:00,60.5,52.6,29.91,South,180,7.6,7.6,75,0.00,,---,0.00,VWS V14.01,2013-02-07 03:48:00,
2013-02-06 21:49:00,60.5,52.6,29.91,SE,135,7.2,7.6,75,0.00,,---,0.00,VWS V14.01,2013-02-07 03:49:00,
2013-02-06 21:50:00,60.5,52.6,29.91,SE,135,4.9,7.2,75,0.00,,---,0.00,VWS V14.01,2013-02-07 03:50:00,
2013-02-06 21:51:00,60.5,52.6,29.91,ESE,112,8.5,8.5,75,0.00,,---,0.00,VWS V14.01,2013-02-07 03:51:00,
2013-02-06 21:52:00,60.2,52.9,29.94,SE,135,6.5,6.5,77,0.00,,---,0.00,VWS V14.01,2013-02-07 03:52:00,
2013-02-06 21:53:00,60.5,52.6,29.91,SE,135,5.4,9.6,75,0.00,,---,0.00,VWS V14.01,2013-02-07 03:53:00,
2013-02-06 21:54:00,60.3,52.8,29.91,SE,135,6.5,6.7,76,0.00,,---,0.00,VWS V14.01,2013-02-07 03:54:00,
2013-02-06 21:55:00,60.3,52.8,29.91,SE,135,6.5,6.5,76,0.00,,---,0.00,VWS V14.01,2013-02-07 03:55:00,
2013-02-06 21:56:00,60.3,52.4,29.91,SE,135,6.5,6.5,75,0.00,,---,0.00,VWS V14.01,2013-02-07 03:56:00,
2013-02-06 21:57:00,59.8,52.9,29.94,SE,135,6.5,6.5,78,0.00,,---,0.00,VWS V14.01,2013-02-07 03:57:00,
2013-02-06 21:58:00,60.3,52.8,29.91,SE,135,6.5,6.5,76,0.00,,---,0.00,VWS V14.01,2013-02-07 03:58:00,
2013-02-06 21:59:00,60.2,52.6,29.91,SE,135,6.5,6.5,76,0.00,,---,0.00,VWS V14.01,2013-02-07 03:59:00,
2013-02-06 22:00:00,60.2,52.6,29.91,SE,135,6.5,6.5,76,0.00,,---,0.00,VWS V14.01,2013-02-07 04:00:00,
2013-02-06 22:01:00,60.2,52.6,29.94,SE,135,6.5,6.5,76,0.00,,---,0.00,VWS V14.01,2013-02-07 04:01:00,
2013-02-06 22:02:00,59.8,53.3,29.94,SE,135,6.5,6.5,79,0.00,,---,0.00,VWS V14.01,2013-02-07 04:02:00,
2013-02-06 22:03:00,60.2,52.9,29.94,SE,135,6.5,6.5,77,0.00,,---,0.00,VWS V14.01,2013-02-07 04:03:00,
2013-02-06 22:04:00,60.0,52.8,29.94,SE,135,6.5,6.5,77,0.00,,---,0.00,VWS V14.01,2013-02-07 04:04:00,
2013-02-06 22:05:00,60.0,52.8,29.94,SE,135,6.5,6.5,77,0.00,,---,0.00,VWS V14.01,2013-02-07 04:05:00,
2013-02-06 22:06:00,60.0,52.8,29.94,SE,135,6.5,6.5,77,0.00,,---,0.00,VWS V14.01,2013-02-07 04:06:00,
2013-02-06 22:07:00,59.8,53.3,29.91,SE,135,6.5,6.5,79,0.00,,---,0.00,VWS V14.01,2013-02-07 04:07:00,
2013-02-06 22:08:00,59.8,52.9,29.94,SE,135,6.5,6.5,78,0.00,,---,0.00,VWS V14.01,2013-02-07 04:08:00,
2013-02-06 22:09:00,59.8,52.9,29.94,SE,135,6.5,6.5,78,0.00,,---,0.00,VWS V14.01,2013-02-07 04:09:00,
2013-02-06 22:10:00,59.8,52.9,29.94,SE,135,6.5,6.5,78,0.00,,---,0.00,VWS V14.01,2013-02-07 04:10:00,
2013-02-06 22:11:00,59.8,52.9,29.94,SE,135,6.5,6.5,78,0.00,,---,0.00,VWS V14.01,2013-02-07 04:11:00,
2013-02-06 22:12:00,59.8,53.3,29.91,SE,135,6.5,6.5,79,0.00,,---,0.00,VWS V14.01,2013-02-07 04:12:00,
2013-02-06 22:13:00,59.8,53.3,29.94,SE,135,6.5,6.5,79,0.00,,---,0.00,VWS V14.01,2013-02-07 04:13:00,
2013-02-06 22:14:00,59.8,53.3,29.94,SE,135,6.5,6.5,79,0.00,,---,0.00,VWS V14.01,2013-02-07 04:14:00,
2013-02-06 22:15:00,59.8,53.3,29.94,SE,135,6.5,6.5,79,0.00,,---,0.00,VWS V14.01,2013-02-07 04:15:00,
2013-02-06 22:17:00,59.8,53.3,29.91,SE,135,6.5,6.5,79,0.00,,---,0.00,VWS V14.01,2013-02-07 04:17:00,
2013-02-06 22:18:00,59.8,53.3,29.91,SE,135,6.5,6.5,79,0.00,,---,0.00,VWS V14.01,2013-02-07 04:18:00,
2013-02-06 22:19:00,59.8,53.3,29.91,SE,135,6.5,6.5,79,0.00,,---,0.00,VWS V14.01,2013-02-07 04:19:00,
2013-02-06 22:20:00,59.8,53.3,29.91,SE,135,6.5,6.5,79,0.00,,---,0.00,VWS V14.01,2013-02-07 04:20:00,
2013-02-06 22:21:00,59.8,53.3,29.91,SE,135,6.5,6.5,79,0.00,,---,0.00,VWS V14.01,2013-02-07 04:21:00,
2013-02-06 22:22:00,59.8,53.3,29.91,SE,135,6.5,6.5,79,0.00,,---,0.00,VWS V14.01,2013-02-07 04:22:00,
2013-02-06 22:23:00,59.8,53.6,29.94,SE,135,6.5,6.5,80,0.00,,---,0.00,VWS V14.01,2013-02-07 04:23:00,
2013-02-06 22:24:00,59.8,53.3,29.91,SE,135,6.5,6.5,79,0.00,,---,0.00,VWS V14.01,2013-02-07 04:24:00,
2013-02-06 22:25:00,59.8,53.3,29.91,SE,135,6.5,6.5,79,0.00,,---,0.00,VWS V14.01,2013-02-07 04:25:00,
2013-02-06 22:26:00,59.8,53.6,29.91,SE,135,6.5,6.5,80,0.00,,---,0.00,VWS V14.01,2013-02-07 04:26:00,
2013-02-06 22:27:00,59.8,53.6,29.91,SE,135,6.5,6.5,80,0.00,,---,0.00,VWS V14.01,2013-02-07 04:27:00,
2013-02-06 22:28:00,59.8,53.6,29.94,SE,135,6.5,6.5,80,0.00,,---,0.00,VWS V14.01,2013-02-07 04:28:00,
2013-02-06 22:29:00,59.8,53.3,29.91,SE,135,6.5,6.5,79,0.00,,---,0.00,VWS V14.01,2013-02-07 04:29:00,
2013-02-06 22:30:00,59.8,53.6,29.91,SE,135,6.5,6.5,80,0.00,,---,0.00,VWS V14.01,2013-02-07 04:30:00,
2013-02-06 22:31:00,59.8,53.6,29.94,SE,135,6.5,6.5,80,0.00,,---,0.00,VWS V14.01,2013-02-07 04:31:00,
2013-02-06 22:32:00,59.8,53.6,29.94,SE,135,6.5,6.5,80,0.00,,---,0.00,VWS V14.01,2013-02-07 04:32:00,
2013-02-06 22:33:00,60.0,54.1,29.94,ESE,112,3.1,7.2,81,0.00,,---,0.00,VWS V14.01,2013-02-07 04:33:00,
2013-02-06 22:34:00,59.8,53.6,29.94,SE,135,6.5,6.5,80,0.00,,---,0.00,VWS V14.01,2013-02-07 04:34:00,
2013-02-06 22:35:00,59.8,53.6,29.94,SE,135,6.5,6.5,80,0.00,,---,0.00,VWS V14.01,2013-02-07 04:35:00,
2013-02-06 22:36:00,59.8,53.6,29.94,SE,135,6.5,6.5,80,0.00,,---,0.00,VWS V14.01,2013-02-07 04:36:00,
2013-02-06 22:37:00,59.8,53.6,29.94,SE,135,6.5,6.5,80,0.00,,---,0.00,VWS V14.01,2013-02-07 04:37:00,
2013-02-06 22:38:00,60.0,54.1,29.94,SSE,158,5.6,5.6,81,0.00,,---,0.00,VWS V14.01,2013-02-07 04:38:00,
2013-02-06 22:39:00,59.8,53.6,29.94,SE,135,6.5,6.5,80,0.00,,---,0.00,VWS V14.01,2013-02-07 04:39:00,
2013-02-06 22:41:00,59.8,53.6,29.94,SE,135,6.5,6.5,80,0.00,,---,0.00,VWS V14.01,2013-02-07 04:41:00,
2013-02-06 22:42:00,60.0,53.8,29.94,SSE,158,7.2,7.2,80,0.00,,---,0.00,VWS V14.01,2013-02-07 04:42:00,
2013-02-06 22:43:00,60.2,54.0,29.94,SE,135,3.4,4.3,80,0.00,,---,0.00,VWS V14.01,2013-02-07 04:43:00,
2013-02-06 22:44:00,60.0,54.2,29.94,ESE,112,3.1,7.2,81,0.00,,---,0.00,VWS V14.01,2013-02-07 04:44:00,
2013-02-06 22:45:00,60.0,54.2,29.94,ESE,112,6.5,7.4,81,0.00,,---,0.00,VWS V14.01,2013-02-07 04:45:00,
2013-02-06 22:46:00,60.0,54.2,29.94,SE,135,2.5,6.5,81,0.00,,---,0.00,VWS V14.01,2013-02-07 04:46:00,
2013-02-06 22:47:00,60.0,54.2,29.94,SE,135,8.5,8.5,81,0.00,,---,0.00,VWS V14.01,2013-02-07 04:47:00,
2013-02-06 22:48:00,60.2,54.0,29.94,SE,135,4.9,4.9,80,0.00,,---,0.00,VWS V14.01,2013-02-07 04:48:00,
2013-02-06 22:49:00,60.0,54.2,29.94,SSE,158,5.6,5.6,81,0.00,,---,0.00,VWS V14.01,2013-02-07 04:49:00,
2013-02-06 22:50:00,60.0,54.2,29.94,SSE,158,5.4,5.6,81,0.00,,---,0.00,VWS V14.01,2013-02-07 04:50:00,
2013-02-06 22:51:00,60.0,54.2,29.94,SSE,158,6.3,6.3,81,0.00,,---,0.00,VWS V14.01,2013-02-07 04:51:00,
2013-02-06 22:52:00,60.2,54.0,29.94,ESE,112,3.6,6.3,80,0.00,,---,0.00,VWS V14.01,2013-02-07 04:52:00,
2013-02-06 22:53:00,60.2,54.3,29.94,ESE,112,3.1,4.9,81,0.00,,---,0.00,VWS V14.01,2013-02-07 04:53:00,
2013-02-06 22:54:00,60.2,54.0,29.94,SE,135,3.4,4.3,80,0.00,,---,0.00,VWS V14.01,2013-02-07 04:54:00,
2013-02-06 22:55:00,60.2,54.0,29.94,SE,135,3.1,4.3,80,0.00,,---,0.00,VWS V14.01,2013-02-07 04:55:00,
2013-02-06 22:56:00,60.2,54.0,29.94,SE,135,2.0,5.6,80,0.00,,---,0.00,VWS V14.01,2013-02-07 04:56:00,
2013-02-06 22:57:00,60.2,54.0,29.94,ESE,112,5.4,5.4,80,0.00,,---,0.00,VWS V14.01,2013-02-07 04:57:00,
2013-02-06 22:58:00,60.2,54.3,29.94,SE,135,5.4,8.7,81,0.00,,---,0.00,VWS V14.01,2013-02-07 04:58:00,
2013-02-06 22:59:00,60.2,54.0,29.94,SE,135,4.9,4.9,80,0.00,,---,0.00,VWS V14.01,2013-02-07 04:59:00,
2013-02-06 23:00:00,60.2,54.3,29.94,SE,135,4.5,5.4,81,0.00,,---,0.00,VWS V14.01,2013-02-07 05:00:00,
2013-02-06 23:01:00,60.2,54.0,29.94,SE,135,3.8,6.7,80,0.00,,---,0.00,VWS V14.01,2013-02-07 05:01:00,
2013-02-06 23:02:00,60.2,54.0,29.94,SE,135,2.7,3.8,80,0.00,,---,0.00,VWS V14.01,2013-02-07 05:02:00,
2013-02-06 23:04:00,60.2,54.3,29.94,ESE,112,3.1,4.9,81,0.00,,---,0.00,VWS V14.01,2013-02-07 05:04:00,
2013-02-06 23:05:00,60.2,54.3,29.94,East,90,3.6,7.6,81,0.00,,---,0.00,VWS V14.01,2013-02-07 05:05:00,
2013-02-06 23:06:00,60.2,54.3,29.94,SE,135,5.4,5.4,81,0.00,,---,0.00,VWS V14.01,2013-02-07 05:06:00,
2013-02-06 23:07:00,60.2,54.3,29.94,SE,135,7.4,10.1,81,0.00,,---,0.00,VWS V14.01,2013-02-07 05:07:00,
2013-02-06 23:08:00,60.2,54.3,29.94,SSE,158,2.9,7.4,81,0.00,,---,0.00,VWS V14.01,2013-02-07 05:08:00,
2013-02-06 23:09:00,60.2,54.3,29.94,SE,135,5.4,8.7,81,0.00,,---,0.00,VWS V14.01,2013-02-07 05:09:00,
2013-02-06 23:10:00,60.3,54.8,29.94,South,180,6.3,7.6,82,0.00,,---,0.00,VWS V14.01,2013-02-07 05:10:00,
2013-02-06 23:11:00,60.3,54.8,29.94,East,90,5.8,6.3,82,0.00,,---,0.00,VWS V14.01,2013-02-07 05:11:00,
2013-02-06 23:12:00,60.2,54.3,29.94,SE,135,5.8,5.8,81,0.00,,---,0.00,VWS V14.01,2013-02-07 05:12:00,
2013-02-06 23:13:00,60.3,54.8,29.94,SSE,158,4.7,7.6,82,0.00,,---,0.00,VWS V14.01,2013-02-07 05:13:00,
2013-02-06 23:14:00,60.2,54.3,29.94,SE,135,4.0,5.6,81,0.00,,---,0.00,VWS V14.01,2013-02-07 05:14:00,
2013-02-06 23:15:00,60.2,54.3,29.94,SE,135,5.4,6.3,81,0.00,,---,0.00,VWS V14.01,2013-02-07 05:15:00,
2013-02-06 23:17:00,60.2,54.3,29.94,SSE,158,6.0,6.0,81,0.00,,---,0.00,VWS V14.01,2013-02-07 05:17:00,
2013-02-06 23:18:00,60.3,54.5,29.94,ESE,112,4.9,8.5,81,0.00,,---,0.00,VWS V14.01,2013-02-07 05:18:00,
2013-02-06 23:19:00,60.3,54.5,29.94,ESE,112,4.3,4.9,81,0.00,,---,0.00,VWS V14.01,2013-02-07 05:19:00,
2013-02-06 23:20:00,60.3,54.5,29.94,SSE,158,7.6,7.6,81,0.00,,---,0.00,VWS V14.01,2013-02-07 05:20:00,
2013-02-06 23:22:00,60.3,54.8,29.94,East,90,5.8,6.3,82,0.00,,---,0.00,VWS V14.01,2013-02-07 05:22:00,
2013-02-06 23:23:00,60.3,54.8,29.94,SE,135,7.6,8.1,82,0.00,,---,0.00,VWS V14.01,2013-02-07 05:23:00,
2013-02-06 23:24:00,60.3,54.8,29.94,SE,135,4.0,5.6,82,0.00,,---,0.00,VWS V14.01,2013-02-07 05:24:00,
2013-02-06 23:25:00,60.3,54.8,29.94,ENE,68,6.0,6.3,82,0.00,,---,0.00,VWS V14.01,2013-02-07 05:25:00,
2013-02-06 23:26:00,60.3,54.8,29.94,SE,135,3.1,6.0,82,0.00,,---,0.00,VWS V14.01,2013-02-07 05:26:00,
2013-02-06 23:27:00,60.3,54.8,29.94,SSE,158,2.7,5.4,82,0.00,,---,0.00,VWS V14.01,2013-02-07 05:27:00,
2013-02-06 23:28:00,60.3,54.5,29.94,SE,135,7.4,7.4,81,0.00,,---,0.00,VWS V14.01,2013-02-07 05:28:00,
2013-02-06 23:29:00,60.3,54.5,29.94,SE,135,4.7,6.3,81,0.00,,---,0.00,VWS V14.01,2013-02-07 05:29:00,
2013-02-06 23:30:00,60.3,54.5,29.94,ESE,112,4.3,4.9,81,0.00,,---,0.00,VWS V14.01,2013-02-07 05:30:00,
2013-02-06 23:31:00,60.3,54.5,29.94,ESE,112,6.3,6.3,81,0.00,,---,0.00,VWS V14.01,2013-02-07 05:31:00,
2013-02-06 23:32:00,60.3,54.5,29.94,SE,135,2.7,6.3,81,0.00,,---,0.00,VWS V14.01,2013-02-07 05:32:00,
2013-02-06 23:33:00,60.3,54.8,29.94,SE,135,5.6,6.5,82,0.00,,---,0.00,VWS V14.01,2013-02-07 05:33:00,
2013-02-06 23:34:00,60.2,54.3,29.94,ESE,112,5.8,6.3,81,0.00,,---,0.00,VWS V14.01,2013-02-07 05:34:00,
2013-02-06 23:35:00,60.3,54.8,29.94,SE,135,4.0,5.6,82,0.00,,---,0.00,VWS V14.01,2013-02-07 05:35:00,
2013-02-06 23:36:00,60.3,54.5,29.94,SE,135,4.0,5.4,81,0.00,,---,0.00,VWS V14.01,2013-02-07 05:36:00,
2013-02-06 23:37:00,60.3,54.8,29.94,ESE,112,5.6,5.6,82,0.00,,---,0.00,VWS V14.01,2013-02-07 05:37:00,
2013-02-06 23:38:00,60.3,54.8,29.94,SE,135,8.1,8.1,82,0.00,,---,0.00,VWS V14.01,2013-02-07 05:38:00,
2013-02-06 23:39:00,60.2,54.7,29.94,ENE,68,7.8,9.6,82,0.00,,---,0.00,VWS V14.01,2013-02-07 05:39:00,
2013-02-06 23:40:00,60.3,54.5,29.94,SE,135,4.7,6.3,81,0.00,,---,0.00,VWS V14.01,2013-02-07 05:40:00,
2013-02-06 23:41:00,60.3,54.5,29.94,ESE,112,4.9,4.9,81,0.00,,---,0.00,VWS V14.01,2013-02-07 05:41:00,
2013-02-06 23:43:00,60.2,54.3,29.94,SE,135,2.0,3.6,81,0.00,,---,0.00,VWS V14.01,2013-02-07 05:43:00,
2013-02-06 23:44:00,60.2,54.7,29.94,ESE,112,6.5,7.4,82,0.00,,---,0.00,VWS V14.01,2013-02-07 05:44:00,
2013-02-06 23:45:00,60.2,54.3,29.94,ESE,112,5.8,6.3,81,0.00,,---,0.00,VWS V14.01,2013-02-07 05:45:00,
2013-02-06 23:46:00,60.2,54.3,29.94,ESE,112,4.9,7.2,81,0.00,,---,0.00,VWS V14.01,2013-02-07 05:46:00,
2013-02-06 23:47:00,60.2,54.3,29.94,South,180,4.3,6.3,81,0.00,,---,0.00,VWS V14.01,2013-02-07 05:47:00,
2013-02-06 23:48:00,60.2,54.7,29.94,SSE,158,4.7,5.4,82,0.00,,---,0.00,VWS V14.01,2013-02-07 05:48:00,
2013-02-06 23:49:00,60.2,54.7,29.94,SSE,158,3.6,8.1,82,0.00,,---,0.00,VWS V14.01,2013-02-07 05:49:00,
2013-02-06 23:50:00,60.2,54.7,29.94,ENE,68,7.8,9.6,82,0.00,,---,0.00,VWS V14.01,2013-02-07 05:50:00,
2013-02-06 23:51:00,60.2,54.7,29.94,SE,135,4.9,7.8,82,0.00,,---,0.00,VWS V14.01,2013-02-07 05:51:00,
2013-02-06 23:52:00,60.2,54.7,29.94,SE,135,6.3,6.3,82,0.00,,---,0.00,VWS V14.01,2013-02-07 05:52:00,
2013-02-06 23:53:00,60.2,54.7,29.94,SE,135,5.6,7.6,82,0.00,,---,0.00,VWS V14.01,2013-02-07 05:53:00,
2013-02-06 23:54:00,60.2,54.7,29.94,ESE,112,7.4,7.4,82,0.00,,---,0.00,VWS V14.01,2013-02-07 05:54:00,
2013-02-06 23:55:00,60.2,55.0,29.94,South,180,2.7,3.6,83,0.00,,---,0.00,VWS V14.01,2013-02-07 05:55:00,
2013-02-06 23:56:00,60.2,54.7,29.94,SE,135,5.8,6.5,82,0.00,,---,0.00,VWS V14.01,2013-02-07 05:56:00,
2013-02-06 23:57:00,60.2,54.7,29.94,SSE,158,6.3,6.3,82,0.00,,---,0.00,VWS V14.01,2013-02-07 05:57:00,
2013-02-06 23:58:00,60.2,54.7,29.94,SSE,158,2.9,6.3,82,0.00,,---,0.00,VWS V14.01,2013-02-07 05:58:00,
2013-02-06 23:59:00,60.2,54.7,29.94,SE,135,5.4,5.8,82,0.00,,---,0.00,VWS V14.01,2013-02-07 05:59:00,